<?xml version="1.0" encoding="UTF-8" standalone="no" ?>
<gpx xmlns="http://www.topografix.com/GPX/1/1" xmlns:xsi="http://www.w3.org/2001/XMLSchema-instance" xsi:schemaLocation="http://www.topografix.com/GPX/1/1 http://www.topografix.com/GPX/1/1/gpx.xsd" version="1.1" creator="VisuGPX - https://www.visugpx.com">
  <metadata>
    <name>RANDO COSTAROS ARLEMPDES 29 KM</name>
    <desc><![CDATA[RANDO COSTAROS ARLEMPDES 30 KM DEPART ARRIVEE ETANG DU PECHAY.BARGETTES.USSEL.MONTAGNAC.ARLEMPDES.MONTCOUDIOL.CROS POUGET.NARCES DE LA SAUVETAT.LA SAUVETAT.CHARBONNIER]]></desc>
  </metadata>
  <trk>
    <name><![CDATA[2025-09-07 15:59:00]]></name>
    <desc><![CDATA[]]></desc>
    <extensions>
      <line xmlns="http://www.topografix.com/GPX/gpx_style/0/2">
        <color>0000FF</color>
        <width>4</width>
      </line>
    </extensions>
    <trkseg>
      <trkpt lat="44.89109" lon="3.8397">
        <ele>1092.2</ele>
        <time>2025-09-07T07:06:57Z</time>
      </trkpt>
      <trkpt lat="44.8911" lon="3.83974">
        <ele>1092.2</ele>
        <time>2025-09-07T07:07:09Z</time>
      </trkpt>
      <trkpt lat="44.89108" lon="3.83974">
        <ele>1092.68</ele>
        <time>2025-09-07T07:07:25Z</time>
      </trkpt>
      <trkpt lat="44.89103" lon="3.83975">
        <ele>1094.6</ele>
        <time>2025-09-07T07:07:39Z</time>
      </trkpt>
      <trkpt lat="44.89099" lon="3.83976">
        <ele>1095.08</ele>
        <time>2025-09-07T07:07:46Z</time>
      </trkpt>
      <trkpt lat="44.89089" lon="3.83979">
        <ele>1095.08</ele>
        <time>2025-09-07T07:07:56Z</time>
      </trkpt>
      <trkpt lat="44.89084" lon="3.83978">
        <ele>1094.6</ele>
        <time>2025-09-07T07:08:01Z</time>
      </trkpt>
      <trkpt lat="44.89066" lon="3.83976">
        <ele>1092.68</ele>
        <time>2025-09-07T07:08:18Z</time>
      </trkpt>
      <trkpt lat="44.89053" lon="3.83972">
        <ele>1092.68</ele>
        <time>2025-09-07T07:08:33Z</time>
      </trkpt>
      <trkpt lat="44.89054" lon="3.83972">
        <ele>1092.68</ele>
        <time>2025-09-07T07:08:34Z</time>
      </trkpt>
      <trkpt lat="44.89059" lon="3.83974">
        <ele>1092.68</ele>
        <time>2025-09-07T07:08:38Z</time>
      </trkpt>
      <trkpt lat="44.89066" lon="3.83975">
        <ele>1092.68</ele>
        <time>2025-09-07T07:08:44Z</time>
      </trkpt>
      <trkpt lat="44.89087" lon="3.8398">
        <ele>1095.08</ele>
        <time>2025-09-07T07:09:00Z</time>
      </trkpt>
      <trkpt lat="44.89099" lon="3.83993">
        <ele>1096.52</ele>
        <time>2025-09-07T07:09:15Z</time>
      </trkpt>
      <trkpt lat="44.89098" lon="3.83991">
        <ele>1097</ele>
        <time>2025-09-07T07:09:35Z</time>
      </trkpt>
      <trkpt lat="44.89096" lon="3.83991">
        <ele>1095.56</ele>
        <time>2025-09-07T07:09:59Z</time>
      </trkpt>
      <trkpt lat="44.8909" lon="3.83985">
        <ele>1094.12</ele>
        <time>2025-09-07T07:10:13Z</time>
      </trkpt>
      <trkpt lat="44.89096" lon="3.83994">
        <ele>1093.64</ele>
        <time>2025-09-07T07:10:21Z</time>
      </trkpt>
      <trkpt lat="44.891" lon="3.84014">
        <ele>1094.12</ele>
        <time>2025-09-07T07:10:32Z</time>
      </trkpt>
      <trkpt lat="44.89108" lon="3.84029">
        <ele>1094.12</ele>
        <time>2025-09-07T07:10:44Z</time>
      </trkpt>
      <trkpt lat="44.89118" lon="3.84051">
        <ele>1094.12</ele>
        <time>2025-09-07T07:10:57Z</time>
      </trkpt>
      <trkpt lat="44.89132" lon="3.84072">
        <ele>1096.52</ele>
        <time>2025-09-07T07:11:11Z</time>
      </trkpt>
      <trkpt lat="44.89156" lon="3.84113">
        <ele>1098.44</ele>
        <time>2025-09-07T07:11:36Z</time>
      </trkpt>
      <trkpt lat="44.89171" lon="3.84157">
        <ele>1101.33</ele>
        <time>2025-09-07T07:12:02Z</time>
      </trkpt>
      <trkpt lat="44.89192" lon="3.84195">
        <ele>1099.89</ele>
        <time>2025-09-07T07:12:26Z</time>
      </trkpt>
      <trkpt lat="44.89194" lon="3.84233">
        <ele>1102.29</ele>
        <time>2025-09-07T07:12:47Z</time>
      </trkpt>
      <trkpt lat="44.89189" lon="3.84246">
        <ele>1102.29</ele>
        <time>2025-09-07T07:13:06Z</time>
      </trkpt>
      <trkpt lat="44.89188" lon="3.84242">
        <ele>1102.77</ele>
        <time>2025-09-07T07:13:08Z</time>
      </trkpt>
      <trkpt lat="44.89171" lon="3.84198">
        <ele>1107.1</ele>
        <time>2025-09-07T07:13:32Z</time>
      </trkpt>
      <trkpt lat="44.89146" lon="3.84192">
        <ele>1109.02</ele>
        <time>2025-09-07T07:13:52Z</time>
      </trkpt>
      <trkpt lat="44.89112" lon="3.84194">
        <ele>1112.38</ele>
        <time>2025-09-07T07:14:17Z</time>
      </trkpt>
      <trkpt lat="44.89077" lon="3.84193">
        <ele>1116.71</ele>
        <time>2025-09-07T07:14:43Z</time>
      </trkpt>
      <trkpt lat="44.89051" lon="3.84211">
        <ele>1121.03</ele>
        <time>2025-09-07T07:15:06Z</time>
      </trkpt>
      <trkpt lat="44.8902" lon="3.84231">
        <ele>1121.03</ele>
        <time>2025-09-07T07:15:31Z</time>
      </trkpt>
      <trkpt lat="44.88987" lon="3.84243">
        <ele>1120.55</ele>
        <time>2025-09-07T07:15:55Z</time>
      </trkpt>
      <trkpt lat="44.88956" lon="3.84249">
        <ele>1121.52</ele>
        <time>2025-09-07T07:16:20Z</time>
      </trkpt>
      <trkpt lat="44.88925" lon="3.84248">
        <ele>1121.52</ele>
        <time>2025-09-07T07:16:42Z</time>
      </trkpt>
      <trkpt lat="44.88893" lon="3.8426">
        <ele>1122</ele>
        <time>2025-09-07T07:17:06Z</time>
      </trkpt>
      <trkpt lat="44.88863" lon="3.84267">
        <ele>1121.52</ele>
        <time>2025-09-07T07:17:29Z</time>
      </trkpt>
      <trkpt lat="44.88833" lon="3.84286">
        <ele>1123.44</ele>
        <time>2025-09-07T07:17:55Z</time>
      </trkpt>
      <trkpt lat="44.88802" lon="3.84297">
        <ele>1123.92</ele>
        <time>2025-09-07T07:18:19Z</time>
      </trkpt>
      <trkpt lat="44.88767" lon="3.84305">
        <ele>1123.44</ele>
        <time>2025-09-07T07:18:44Z</time>
      </trkpt>
      <trkpt lat="44.8873" lon="3.84303">
        <ele>1125.84</ele>
        <time>2025-09-07T07:19:13Z</time>
      </trkpt>
      <trkpt lat="44.88696" lon="3.8429">
        <ele>1129.21</ele>
        <time>2025-09-07T07:19:37Z</time>
      </trkpt>
      <trkpt lat="44.8867" lon="3.84263">
        <ele>1131.13</ele>
        <time>2025-09-07T07:20:00Z</time>
      </trkpt>
      <trkpt lat="44.88639" lon="3.84237">
        <ele>1132.09</ele>
        <time>2025-09-07T07:20:24Z</time>
      </trkpt>
      <trkpt lat="44.88607" lon="3.84224">
        <ele>1137.38</ele>
        <time>2025-09-07T07:20:51Z</time>
      </trkpt>
      <trkpt lat="44.88598" lon="3.84213">
        <ele>1136.9</ele>
        <time>2025-09-07T07:21:11Z</time>
      </trkpt>
      <trkpt lat="44.88601" lon="3.84212">
        <ele>1134.01</ele>
        <time>2025-09-07T07:21:44Z</time>
      </trkpt>
      <trkpt lat="44.88599" lon="3.84212">
        <ele>1132.57</ele>
        <time>2025-09-07T07:22:10Z</time>
      </trkpt>
      <trkpt lat="44.88579" lon="3.84198">
        <ele>1132.09</ele>
        <time>2025-09-07T07:22:29Z</time>
      </trkpt>
      <trkpt lat="44.88553" lon="3.84172">
        <ele>1132.09</ele>
        <time>2025-09-07T07:22:53Z</time>
      </trkpt>
      <trkpt lat="44.8853" lon="3.8415">
        <ele>1132.57</ele>
        <time>2025-09-07T07:23:14Z</time>
      </trkpt>
      <trkpt lat="44.88507" lon="3.84114">
        <ele>1133.53</ele>
        <time>2025-09-07T07:23:38Z</time>
      </trkpt>
      <trkpt lat="44.88491" lon="3.84081">
        <ele>1134.97</ele>
        <time>2025-09-07T07:24:01Z</time>
      </trkpt>
      <trkpt lat="44.88487" lon="3.84074">
        <ele>1134.49</ele>
        <time>2025-09-07T07:24:06Z</time>
      </trkpt>
      <trkpt lat="44.88457" lon="3.84063">
        <ele>1132.09</ele>
        <time>2025-09-07T07:24:26Z</time>
      </trkpt>
      <trkpt lat="44.88439" lon="3.84094">
        <ele>1129.69</ele>
        <time>2025-09-07T07:24:46Z</time>
      </trkpt>
      <trkpt lat="44.88419" lon="3.84127">
        <ele>1127.76</ele>
        <time>2025-09-07T07:25:09Z</time>
      </trkpt>
      <trkpt lat="44.88396" lon="3.84157">
        <ele>1125.36</ele>
        <time>2025-09-07T07:25:31Z</time>
      </trkpt>
      <trkpt lat="44.88371" lon="3.84197">
        <ele>1122.96</ele>
        <time>2025-09-07T07:25:57Z</time>
      </trkpt>
      <trkpt lat="44.88347" lon="3.84225">
        <ele>1118.63</ele>
        <time>2025-09-07T07:26:20Z</time>
      </trkpt>
      <trkpt lat="44.88322" lon="3.84249">
        <ele>1115.75</ele>
        <time>2025-09-07T07:26:41Z</time>
      </trkpt>
      <trkpt lat="44.88297" lon="3.84285">
        <ele>1113.34</ele>
        <time>2025-09-07T07:27:07Z</time>
      </trkpt>
      <trkpt lat="44.88277" lon="3.84323">
        <ele>1113.34</ele>
        <time>2025-09-07T07:27:31Z</time>
      </trkpt>
      <trkpt lat="44.88263" lon="3.84354">
        <ele>1114.31</ele>
        <time>2025-09-07T07:27:50Z</time>
      </trkpt>
      <trkpt lat="44.88241" lon="3.84383">
        <ele>1113.34</ele>
        <time>2025-09-07T07:28:11Z</time>
      </trkpt>
      <trkpt lat="44.88218" lon="3.84411">
        <ele>1112.86</ele>
        <time>2025-09-07T07:28:32Z</time>
      </trkpt>
      <trkpt lat="44.88202" lon="3.84442">
        <ele>1111.42</ele>
        <time>2025-09-07T07:28:51Z</time>
      </trkpt>
      <trkpt lat="44.88185" lon="3.84479">
        <ele>1109.5</ele>
        <time>2025-09-07T07:29:14Z</time>
      </trkpt>
      <trkpt lat="44.88169" lon="3.84515">
        <ele>1106.61</ele>
        <time>2025-09-07T07:29:36Z</time>
      </trkpt>
      <trkpt lat="44.88157" lon="3.84552">
        <ele>1102.29</ele>
        <time>2025-09-07T07:29:57Z</time>
      </trkpt>
      <trkpt lat="44.88133" lon="3.84585">
        <ele>1098.44</ele>
        <time>2025-09-07T07:30:19Z</time>
      </trkpt>
      <trkpt lat="44.88105" lon="3.84607">
        <ele>1096.04</ele>
        <time>2025-09-07T07:30:42Z</time>
      </trkpt>
      <trkpt lat="44.88071" lon="3.84616">
        <ele>1091.23</ele>
        <time>2025-09-07T07:31:07Z</time>
      </trkpt>
      <trkpt lat="44.88046" lon="3.84634">
        <ele>1085.95</ele>
        <time>2025-09-07T07:31:28Z</time>
      </trkpt>
      <trkpt lat="44.88044" lon="3.84644">
        <ele>1085.47</ele>
        <time>2025-09-07T07:31:34Z</time>
      </trkpt>
      <trkpt lat="44.88043" lon="3.84694">
        <ele>1085.95</ele>
        <time>2025-09-07T07:31:57Z</time>
      </trkpt>
      <trkpt lat="44.88039" lon="3.84739">
        <ele>1085.95</ele>
        <time>2025-09-07T07:32:17Z</time>
      </trkpt>
      <trkpt lat="44.88011" lon="3.8476">
        <ele>1085.95</ele>
        <time>2025-09-07T07:32:39Z</time>
      </trkpt>
      <trkpt lat="44.87982" lon="3.8477">
        <ele>1087.87</ele>
        <time>2025-09-07T07:33:03Z</time>
      </trkpt>
      <trkpt lat="44.87985" lon="3.84779">
        <ele>1088.35</ele>
        <time>2025-09-07T07:33:08Z</time>
      </trkpt>
      <trkpt lat="44.87994" lon="3.84823">
        <ele>1090.27</ele>
        <time>2025-09-07T07:33:31Z</time>
      </trkpt>
      <trkpt lat="44.88002" lon="3.84864">
        <ele>1090.75</ele>
        <time>2025-09-07T07:33:53Z</time>
      </trkpt>
      <trkpt lat="44.88018" lon="3.84899">
        <ele>1092.68</ele>
        <time>2025-09-07T07:34:15Z</time>
      </trkpt>
      <trkpt lat="44.88025" lon="3.84933">
        <ele>1093.16</ele>
        <time>2025-09-07T07:34:35Z</time>
      </trkpt>
      <trkpt lat="44.88027" lon="3.84962">
        <ele>1094.6</ele>
        <time>2025-09-07T07:34:52Z</time>
      </trkpt>
      <trkpt lat="44.8802" lon="3.84985">
        <ele>1093.64</ele>
        <time>2025-09-07T07:35:10Z</time>
      </trkpt>
      <trkpt lat="44.88031" lon="3.85013">
        <ele>1092.68</ele>
        <time>2025-09-07T07:35:32Z</time>
      </trkpt>
      <trkpt lat="44.88044" lon="3.85045">
        <ele>1091.23</ele>
        <time>2025-09-07T07:35:52Z</time>
      </trkpt>
      <trkpt lat="44.88054" lon="3.85093">
        <ele>1087.87</ele>
        <time>2025-09-07T07:36:13Z</time>
      </trkpt>
      <trkpt lat="44.88057" lon="3.85138">
        <ele>1084.99</ele>
        <time>2025-09-07T07:36:35Z</time>
      </trkpt>
      <trkpt lat="44.88063" lon="3.85181">
        <ele>1083.54</ele>
        <time>2025-09-07T07:36:57Z</time>
      </trkpt>
      <trkpt lat="44.88071" lon="3.85226">
        <ele>1083.54</ele>
        <time>2025-09-07T07:37:20Z</time>
      </trkpt>
      <trkpt lat="44.88076" lon="3.85261">
        <ele>1081.14</ele>
        <time>2025-09-07T07:37:40Z</time>
      </trkpt>
      <trkpt lat="44.88079" lon="3.85312">
        <ele>1080.66</ele>
        <time>2025-09-07T07:38:03Z</time>
      </trkpt>
      <trkpt lat="44.88084" lon="3.85362">
        <ele>1082.1</ele>
        <time>2025-09-07T07:38:27Z</time>
      </trkpt>
      <trkpt lat="44.88087" lon="3.85403">
        <ele>1082.1</ele>
        <time>2025-09-07T07:38:48Z</time>
      </trkpt>
      <trkpt lat="44.88094" lon="3.85446">
        <ele>1083.54</ele>
        <time>2025-09-07T07:39:10Z</time>
      </trkpt>
      <trkpt lat="44.88108" lon="3.85481">
        <ele>1084.02</ele>
        <time>2025-09-07T07:39:32Z</time>
      </trkpt>
      <trkpt lat="44.8812" lon="3.8552">
        <ele>1085.47</ele>
        <time>2025-09-07T07:39:54Z</time>
      </trkpt>
      <trkpt lat="44.88131" lon="3.85569">
        <ele>1087.39</ele>
        <time>2025-09-07T07:40:18Z</time>
      </trkpt>
      <trkpt lat="44.88142" lon="3.85614">
        <ele>1088.35</ele>
        <time>2025-09-07T07:40:42Z</time>
      </trkpt>
      <trkpt lat="44.88153" lon="3.85657">
        <ele>1087.87</ele>
        <time>2025-09-07T07:41:05Z</time>
      </trkpt>
      <trkpt lat="44.88163" lon="3.85698">
        <ele>1086.91</ele>
        <time>2025-09-07T07:41:26Z</time>
      </trkpt>
      <trkpt lat="44.88171" lon="3.85739">
        <ele>1086.43</ele>
        <time>2025-09-07T07:41:47Z</time>
      </trkpt>
      <trkpt lat="44.88176" lon="3.85787">
        <ele>1084.99</ele>
        <time>2025-09-07T07:42:10Z</time>
      </trkpt>
      <trkpt lat="44.88183" lon="3.8583">
        <ele>1084.99</ele>
        <time>2025-09-07T07:42:32Z</time>
      </trkpt>
      <trkpt lat="44.88191" lon="3.85867">
        <ele>1083.06</ele>
        <time>2025-09-07T07:42:53Z</time>
      </trkpt>
      <trkpt lat="44.88198" lon="3.85909">
        <ele>1081.62</ele>
        <time>2025-09-07T07:43:15Z</time>
      </trkpt>
      <trkpt lat="44.88206" lon="3.85956">
        <ele>1080.66</ele>
        <time>2025-09-07T07:43:38Z</time>
      </trkpt>
      <trkpt lat="44.88216" lon="3.85993">
        <ele>1078.26</ele>
        <time>2025-09-07T07:43:58Z</time>
      </trkpt>
      <trkpt lat="44.88225" lon="3.8603">
        <ele>1076.33</ele>
        <time>2025-09-07T07:44:18Z</time>
      </trkpt>
      <trkpt lat="44.8824" lon="3.86065">
        <ele>1074.41</ele>
        <time>2025-09-07T07:44:39Z</time>
      </trkpt>
      <trkpt lat="44.88251" lon="3.86106">
        <ele>1072.97</ele>
        <time>2025-09-07T07:45:01Z</time>
      </trkpt>
      <trkpt lat="44.88263" lon="3.86146">
        <ele>1073.45</ele>
        <time>2025-09-07T07:45:22Z</time>
      </trkpt>
      <trkpt lat="44.88283" lon="3.8619">
        <ele>1072.01</ele>
        <time>2025-09-07T07:45:47Z</time>
      </trkpt>
      <trkpt lat="44.883" lon="3.8623">
        <ele>1071.53</ele>
        <time>2025-09-07T07:46:09Z</time>
      </trkpt>
      <trkpt lat="44.88328" lon="3.86271">
        <ele>1072.49</ele>
        <time>2025-09-07T07:46:35Z</time>
      </trkpt>
      <trkpt lat="44.88344" lon="3.86308">
        <ele>1070.57</ele>
        <time>2025-09-07T07:46:58Z</time>
      </trkpt>
      <trkpt lat="44.88357" lon="3.86339">
        <ele>1070.57</ele>
        <time>2025-09-07T07:47:17Z</time>
      </trkpt>
      <trkpt lat="44.88368" lon="3.86375">
        <ele>1068.16</ele>
        <time>2025-09-07T07:47:37Z</time>
      </trkpt>
      <trkpt lat="44.88377" lon="3.86417">
        <ele>1065.28</ele>
        <time>2025-09-07T07:47:59Z</time>
      </trkpt>
      <trkpt lat="44.88381" lon="3.86462">
        <ele>1065.76</ele>
        <time>2025-09-07T07:48:19Z</time>
      </trkpt>
      <trkpt lat="44.88382" lon="3.86503">
        <ele>1066.72</ele>
        <time>2025-09-07T07:48:40Z</time>
      </trkpt>
      <trkpt lat="44.88383" lon="3.86517">
        <ele>1066.72</ele>
        <time>2025-09-07T07:49:01Z</time>
      </trkpt>
      <trkpt lat="44.88393" lon="3.86542">
        <ele>1062.39</ele>
        <time>2025-09-07T07:49:20Z</time>
      </trkpt>
      <trkpt lat="44.88397" lon="3.86593">
        <ele>1059.51</ele>
        <time>2025-09-07T07:49:41Z</time>
      </trkpt>
      <trkpt lat="44.88402" lon="3.8664">
        <ele>1059.51</ele>
        <time>2025-09-07T07:50:03Z</time>
      </trkpt>
      <trkpt lat="44.88409" lon="3.86683">
        <ele>1058.55</ele>
        <time>2025-09-07T07:50:23Z</time>
      </trkpt>
      <trkpt lat="44.88414" lon="3.86727">
        <ele>1058.55</ele>
        <time>2025-09-07T07:50:45Z</time>
      </trkpt>
      <trkpt lat="44.88413" lon="3.86764">
        <ele>1057.59</ele>
        <time>2025-09-07T07:51:03Z</time>
      </trkpt>
      <trkpt lat="44.88418" lon="3.86809">
        <ele>1057.11</ele>
        <time>2025-09-07T07:51:26Z</time>
      </trkpt>
      <trkpt lat="44.88426" lon="3.86849">
        <ele>1054.7</ele>
        <time>2025-09-07T07:51:48Z</time>
      </trkpt>
      <trkpt lat="44.8843" lon="3.86893">
        <ele>1053.74</ele>
        <time>2025-09-07T07:52:09Z</time>
      </trkpt>
      <trkpt lat="44.88435" lon="3.86944">
        <ele>1053.26</ele>
        <time>2025-09-07T07:52:33Z</time>
      </trkpt>
      <trkpt lat="44.88438" lon="3.86995">
        <ele>1054.7</ele>
        <time>2025-09-07T07:52:56Z</time>
      </trkpt>
      <trkpt lat="44.88444" lon="3.87042">
        <ele>1053.26</ele>
        <time>2025-09-07T07:53:18Z</time>
      </trkpt>
      <trkpt lat="44.88452" lon="3.87078">
        <ele>1051.34</ele>
        <time>2025-09-07T07:53:39Z</time>
      </trkpt>
      <trkpt lat="44.88454" lon="3.87095">
        <ele>1050.86</ele>
        <time>2025-09-07T07:53:48Z</time>
      </trkpt>
      <trkpt lat="44.88449" lon="3.87143">
        <ele>1049.9</ele>
        <time>2025-09-07T07:54:10Z</time>
      </trkpt>
      <trkpt lat="44.88438" lon="3.87192">
        <ele>1049.42</ele>
        <time>2025-09-07T07:54:33Z</time>
      </trkpt>
      <trkpt lat="44.88433" lon="3.8723">
        <ele>1049.9</ele>
        <time>2025-09-07T07:54:52Z</time>
      </trkpt>
      <trkpt lat="44.88427" lon="3.87281">
        <ele>1051.34</ele>
        <time>2025-09-07T07:55:18Z</time>
      </trkpt>
      <trkpt lat="44.88422" lon="3.87324">
        <ele>1052.3</ele>
        <time>2025-09-07T07:55:40Z</time>
      </trkpt>
      <trkpt lat="44.8842" lon="3.87354">
        <ele>1050.38</ele>
        <time>2025-09-07T07:55:53Z</time>
      </trkpt>
      <trkpt lat="44.88416" lon="3.87378">
        <ele>1047.97</ele>
        <time>2025-09-07T07:56:06Z</time>
      </trkpt>
      <trkpt lat="44.88414" lon="3.87398">
        <ele>1046.05</ele>
        <time>2025-09-07T07:56:20Z</time>
      </trkpt>
      <trkpt lat="44.88426" lon="3.87444">
        <ele>1046.05</ele>
        <time>2025-09-07T07:56:45Z</time>
      </trkpt>
      <trkpt lat="44.88442" lon="3.8749">
        <ele>1046.05</ele>
        <time>2025-09-07T07:57:11Z</time>
      </trkpt>
      <trkpt lat="44.88444" lon="3.87542">
        <ele>1047.97</ele>
        <time>2025-09-07T07:57:35Z</time>
      </trkpt>
      <trkpt lat="44.88449" lon="3.87573">
        <ele>1047.97</ele>
        <time>2025-09-07T07:57:52Z</time>
      </trkpt>
      <trkpt lat="44.88451" lon="3.87574">
        <ele>1047.97</ele>
        <time>2025-09-07T07:57:53Z</time>
      </trkpt>
      <trkpt lat="44.88454" lon="3.87575">
        <ele>1048.45</ele>
        <time>2025-09-07T07:57:55Z</time>
      </trkpt>
      <trkpt lat="44.88469" lon="3.87576">
        <ele>1047.49</ele>
        <time>2025-09-07T07:58:06Z</time>
      </trkpt>
      <trkpt lat="44.88494" lon="3.87571">
        <ele>1045.09</ele>
        <time>2025-09-07T07:58:24Z</time>
      </trkpt>
      <trkpt lat="44.88505" lon="3.87568">
        <ele>1045.09</ele>
        <time>2025-09-07T07:58:33Z</time>
      </trkpt>
      <trkpt lat="44.88507" lon="3.87569">
        <ele>1045.09</ele>
        <time>2025-09-07T07:58:34Z</time>
      </trkpt>
      <trkpt lat="44.88508" lon="3.8757">
        <ele>1044.61</ele>
        <time>2025-09-07T07:58:35Z</time>
      </trkpt>
      <trkpt lat="44.88509" lon="3.87572">
        <ele>1044.61</ele>
        <time>2025-09-07T07:58:36Z</time>
      </trkpt>
      <trkpt lat="44.8851" lon="3.87573">
        <ele>1044.61</ele>
        <time>2025-09-07T07:58:37Z</time>
      </trkpt>
      <trkpt lat="44.88511" lon="3.87574">
        <ele>1044.61</ele>
        <time>2025-09-07T07:58:38Z</time>
      </trkpt>
      <trkpt lat="44.88511" lon="3.87576">
        <ele>1044.61</ele>
        <time>2025-09-07T07:58:39Z</time>
      </trkpt>
      <trkpt lat="44.88512" lon="3.87577">
        <ele>1044.61</ele>
        <time>2025-09-07T07:58:40Z</time>
      </trkpt>
      <trkpt lat="44.88513" lon="3.87579">
        <ele>1044.13</ele>
        <time>2025-09-07T07:58:41Z</time>
      </trkpt>
      <trkpt lat="44.88514" lon="3.87581">
        <ele>1044.13</ele>
        <time>2025-09-07T07:58:42Z</time>
      </trkpt>
      <trkpt lat="44.88523" lon="3.87603">
        <ele>1042.21</ele>
        <time>2025-09-07T07:58:57Z</time>
      </trkpt>
      <trkpt lat="44.88537" lon="3.87624">
        <ele>1041.73</ele>
        <time>2025-09-07T07:59:10Z</time>
      </trkpt>
      <trkpt lat="44.88551" lon="3.87645">
        <ele>1040.76</ele>
        <time>2025-09-07T07:59:24Z</time>
      </trkpt>
      <trkpt lat="44.88563" lon="3.87668">
        <ele>1041.25</ele>
        <time>2025-09-07T07:59:36Z</time>
      </trkpt>
      <trkpt lat="44.88566" lon="3.87677">
        <ele>1041.25</ele>
        <time>2025-09-07T07:59:42Z</time>
      </trkpt>
      <trkpt lat="44.88566" lon="3.87679">
        <ele>1040.76</ele>
        <time>2025-09-07T07:59:43Z</time>
      </trkpt>
      <trkpt lat="44.88566" lon="3.87681">
        <ele>1040.28</ele>
        <time>2025-09-07T07:59:44Z</time>
      </trkpt>
      <trkpt lat="44.88566" lon="3.87683">
        <ele>1040.28</ele>
        <time>2025-09-07T07:59:45Z</time>
      </trkpt>
      <trkpt lat="44.88566" lon="3.87686">
        <ele>1039.8</ele>
        <time>2025-09-07T07:59:46Z</time>
      </trkpt>
      <trkpt lat="44.88565" lon="3.87689">
        <ele>1039.32</ele>
        <time>2025-09-07T07:59:47Z</time>
      </trkpt>
      <trkpt lat="44.88564" lon="3.87692">
        <ele>1039.32</ele>
        <time>2025-09-07T07:59:48Z</time>
      </trkpt>
      <trkpt lat="44.88563" lon="3.87694">
        <ele>1039.32</ele>
        <time>2025-09-07T07:59:49Z</time>
      </trkpt>
      <trkpt lat="44.8856" lon="3.87702">
        <ele>1037.4</ele>
        <time>2025-09-07T07:59:57Z</time>
      </trkpt>
      <trkpt lat="44.8856" lon="3.87704">
        <ele>1036.92</ele>
        <time>2025-09-07T07:59:58Z</time>
      </trkpt>
      <trkpt lat="44.8856" lon="3.87707">
        <ele>1036.44</ele>
        <time>2025-09-07T07:59:59Z</time>
      </trkpt>
      <trkpt lat="44.8856" lon="3.87709">
        <ele>1036.44</ele>
        <time>2025-09-07T08:00:00Z</time>
      </trkpt>
      <trkpt lat="44.8856" lon="3.87712">
        <ele>1036.44</ele>
        <time>2025-09-07T08:00:01Z</time>
      </trkpt>
      <trkpt lat="44.88561" lon="3.87715">
        <ele>1036.44</ele>
        <time>2025-09-07T08:00:02Z</time>
      </trkpt>
      <trkpt lat="44.88561" lon="3.87718">
        <ele>1036.44</ele>
        <time>2025-09-07T08:00:03Z</time>
      </trkpt>
      <trkpt lat="44.88562" lon="3.8774">
        <ele>1035.48</ele>
        <time>2025-09-07T08:00:15Z</time>
      </trkpt>
      <trkpt lat="44.88563" lon="3.87763">
        <ele>1031.63</ele>
        <time>2025-09-07T08:00:28Z</time>
      </trkpt>
      <trkpt lat="44.88565" lon="3.87788">
        <ele>1029.71</ele>
        <time>2025-09-07T08:00:41Z</time>
      </trkpt>
      <trkpt lat="44.88566" lon="3.87814">
        <ele>1028.27</ele>
        <time>2025-09-07T08:00:52Z</time>
      </trkpt>
      <trkpt lat="44.88565" lon="3.87817">
        <ele>1028.27</ele>
        <time>2025-09-07T08:00:55Z</time>
      </trkpt>
      <trkpt lat="44.88565" lon="3.87819">
        <ele>1028.27</ele>
        <time>2025-09-07T08:00:56Z</time>
      </trkpt>
      <trkpt lat="44.88565" lon="3.87821">
        <ele>1027.79</ele>
        <time>2025-09-07T08:00:57Z</time>
      </trkpt>
      <trkpt lat="44.88565" lon="3.87824">
        <ele>1027.79</ele>
        <time>2025-09-07T08:00:58Z</time>
      </trkpt>
      <trkpt lat="44.88565" lon="3.87826">
        <ele>1027.79</ele>
        <time>2025-09-07T08:00:59Z</time>
      </trkpt>
      <trkpt lat="44.88566" lon="3.8783">
        <ele>1027.79</ele>
        <time>2025-09-07T08:01:00Z</time>
      </trkpt>
      <trkpt lat="44.88566" lon="3.87832">
        <ele>1027.79</ele>
        <time>2025-09-07T08:01:01Z</time>
      </trkpt>
      <trkpt lat="44.88566" lon="3.87835">
        <ele>1027.79</ele>
        <time>2025-09-07T08:01:02Z</time>
      </trkpt>
      <trkpt lat="44.8857" lon="3.87858">
        <ele>1027.79</ele>
        <time>2025-09-07T08:01:14Z</time>
      </trkpt>
      <trkpt lat="44.88572" lon="3.87881">
        <ele>1026.83</ele>
        <time>2025-09-07T08:01:27Z</time>
      </trkpt>
      <trkpt lat="44.88575" lon="3.87905">
        <ele>1027.31</ele>
        <time>2025-09-07T08:01:40Z</time>
      </trkpt>
      <trkpt lat="44.88575" lon="3.87931">
        <ele>1026.83</ele>
        <time>2025-09-07T08:01:52Z</time>
      </trkpt>
      <trkpt lat="44.88574" lon="3.87956">
        <ele>1027.79</ele>
        <time>2025-09-07T08:02:04Z</time>
      </trkpt>
      <trkpt lat="44.88574" lon="3.87977">
        <ele>1026.83</ele>
        <time>2025-09-07T08:02:16Z</time>
      </trkpt>
      <trkpt lat="44.88574" lon="3.87987">
        <ele>1026.83</ele>
        <time>2025-09-07T08:02:20Z</time>
      </trkpt>
      <trkpt lat="44.88574" lon="3.87989">
        <ele>1026.83</ele>
        <time>2025-09-07T08:02:21Z</time>
      </trkpt>
      <trkpt lat="44.88573" lon="3.87996">
        <ele>1025.86</ele>
        <time>2025-09-07T08:02:25Z</time>
      </trkpt>
      <trkpt lat="44.88573" lon="3.87998">
        <ele>1025.86</ele>
        <time>2025-09-07T08:02:26Z</time>
      </trkpt>
      <trkpt lat="44.88574" lon="3.88">
        <ele>1025.86</ele>
        <time>2025-09-07T08:02:27Z</time>
      </trkpt>
      <trkpt lat="44.88574" lon="3.88001">
        <ele>1025.86</ele>
        <time>2025-09-07T08:02:28Z</time>
      </trkpt>
      <trkpt lat="44.88575" lon="3.88003">
        <ele>1025.86</ele>
        <time>2025-09-07T08:02:29Z</time>
      </trkpt>
      <trkpt lat="44.88576" lon="3.88005">
        <ele>1025.86</ele>
        <time>2025-09-07T08:02:30Z</time>
      </trkpt>
      <trkpt lat="44.88577" lon="3.88006">
        <ele>1025.86</ele>
        <time>2025-09-07T08:02:31Z</time>
      </trkpt>
      <trkpt lat="44.88591" lon="3.88017">
        <ele>1027.79</ele>
        <time>2025-09-07T08:02:43Z</time>
      </trkpt>
      <trkpt lat="44.88593" lon="3.88018">
        <ele>1028.27</ele>
        <time>2025-09-07T08:02:44Z</time>
      </trkpt>
      <trkpt lat="44.88594" lon="3.88018">
        <ele>1028.27</ele>
        <time>2025-09-07T08:02:45Z</time>
      </trkpt>
      <trkpt lat="44.88614" lon="3.88027">
        <ele>1030.19</ele>
        <time>2025-09-07T08:02:58Z</time>
      </trkpt>
      <trkpt lat="44.88628" lon="3.8804">
        <ele>1032.11</ele>
        <time>2025-09-07T08:03:10Z</time>
      </trkpt>
      <trkpt lat="44.88637" lon="3.88047">
        <ele>1030.19</ele>
        <time>2025-09-07T08:03:20Z</time>
      </trkpt>
      <trkpt lat="44.88648" lon="3.88054">
        <ele>1027.79</ele>
        <time>2025-09-07T08:03:30Z</time>
      </trkpt>
      <trkpt lat="44.8865" lon="3.88054">
        <ele>1028.27</ele>
        <time>2025-09-07T08:03:31Z</time>
      </trkpt>
      <trkpt lat="44.88668" lon="3.88057">
        <ele>1027.79</ele>
        <time>2025-09-07T08:03:40Z</time>
      </trkpt>
      <trkpt lat="44.88676" lon="3.8806">
        <ele>1027.79</ele>
        <time>2025-09-07T08:03:51Z</time>
      </trkpt>
      <trkpt lat="44.88684" lon="3.88057">
        <ele>1027.79</ele>
        <time>2025-09-07T08:04:05Z</time>
      </trkpt>
      <trkpt lat="44.88686" lon="3.88059">
        <ele>1025.86</ele>
        <time>2025-09-07T08:04:26Z</time>
      </trkpt>
      <trkpt lat="44.88689" lon="3.8806">
        <ele>1026.34</ele>
        <time>2025-09-07T08:04:44Z</time>
      </trkpt>
      <trkpt lat="44.88688" lon="3.88061">
        <ele>1028.27</ele>
        <time>2025-09-07T08:04:54Z</time>
      </trkpt>
      <trkpt lat="44.88694" lon="3.88064">
        <ele>1029.23</ele>
        <time>2025-09-07T08:05:05Z</time>
      </trkpt>
      <trkpt lat="44.88705" lon="3.88071">
        <ele>1029.23</ele>
        <time>2025-09-07T08:05:20Z</time>
      </trkpt>
      <trkpt lat="44.88706" lon="3.88072">
        <ele>1029.23</ele>
        <time>2025-09-07T08:05:21Z</time>
      </trkpt>
      <trkpt lat="44.88715" lon="3.88077">
        <ele>1028.27</ele>
        <time>2025-09-07T08:05:32Z</time>
      </trkpt>
      <trkpt lat="44.8872" lon="3.8808">
        <ele>1028.27</ele>
        <time>2025-09-07T08:05:46Z</time>
      </trkpt>
      <trkpt lat="44.88729" lon="3.88089">
        <ele>1027.31</ele>
        <time>2025-09-07T08:06:02Z</time>
      </trkpt>
      <trkpt lat="44.88732" lon="3.88093">
        <ele>1026.83</ele>
        <time>2025-09-07T08:06:15Z</time>
      </trkpt>
      <trkpt lat="44.88739" lon="3.88105">
        <ele>1027.31</ele>
        <time>2025-09-07T08:06:28Z</time>
      </trkpt>
      <trkpt lat="44.8874" lon="3.88107">
        <ele>1027.79</ele>
        <time>2025-09-07T08:06:30Z</time>
      </trkpt>
      <trkpt lat="44.88741" lon="3.88109">
        <ele>1027.31</ele>
        <time>2025-09-07T08:06:31Z</time>
      </trkpt>
      <trkpt lat="44.88741" lon="3.8811">
        <ele>1027.31</ele>
        <time>2025-09-07T08:06:32Z</time>
      </trkpt>
      <trkpt lat="44.88745" lon="3.88122">
        <ele>1027.31</ele>
        <time>2025-09-07T08:06:42Z</time>
      </trkpt>
      <trkpt lat="44.88745" lon="3.88124">
        <ele>1026.34</ele>
        <time>2025-09-07T08:06:48Z</time>
      </trkpt>
      <trkpt lat="44.88746" lon="3.88126">
        <ele>1025.86</ele>
        <time>2025-09-07T08:06:49Z</time>
      </trkpt>
      <trkpt lat="44.88753" lon="3.88146">
        <ele>1025.86</ele>
        <time>2025-09-07T08:07:01Z</time>
      </trkpt>
      <trkpt lat="44.88753" lon="3.88149">
        <ele>1025.86</ele>
        <time>2025-09-07T08:07:03Z</time>
      </trkpt>
      <trkpt lat="44.88753" lon="3.88151">
        <ele>1025.86</ele>
        <time>2025-09-07T08:07:04Z</time>
      </trkpt>
      <trkpt lat="44.88753" lon="3.88153">
        <ele>1025.86</ele>
        <time>2025-09-07T08:07:05Z</time>
      </trkpt>
      <trkpt lat="44.88753" lon="3.88155">
        <ele>1025.38</ele>
        <time>2025-09-07T08:07:06Z</time>
      </trkpt>
      <trkpt lat="44.88753" lon="3.88157">
        <ele>1025.38</ele>
        <time>2025-09-07T08:07:07Z</time>
      </trkpt>
      <trkpt lat="44.88752" lon="3.88175">
        <ele>1024.42</ele>
        <time>2025-09-07T08:07:18Z</time>
      </trkpt>
      <trkpt lat="44.88752" lon="3.88177">
        <ele>1024.42</ele>
        <time>2025-09-07T08:07:19Z</time>
      </trkpt>
      <trkpt lat="44.88752" lon="3.88179">
        <ele>1024.9</ele>
        <time>2025-09-07T08:07:20Z</time>
      </trkpt>
      <trkpt lat="44.88752" lon="3.88181">
        <ele>1024.9</ele>
        <time>2025-09-07T08:07:21Z</time>
      </trkpt>
      <trkpt lat="44.88752" lon="3.88183">
        <ele>1024.9</ele>
        <time>2025-09-07T08:07:22Z</time>
      </trkpt>
      <trkpt lat="44.88751" lon="3.88198">
        <ele>1023.94</ele>
        <time>2025-09-07T08:07:31Z</time>
      </trkpt>
      <trkpt lat="44.88751" lon="3.88202">
        <ele>1022.98</ele>
        <time>2025-09-07T08:07:33Z</time>
      </trkpt>
      <trkpt lat="44.88751" lon="3.88205">
        <ele>1022.98</ele>
        <time>2025-09-07T08:07:34Z</time>
      </trkpt>
      <trkpt lat="44.88747" lon="3.8823">
        <ele>1019.62</ele>
        <time>2025-09-07T08:07:47Z</time>
      </trkpt>
      <trkpt lat="44.88747" lon="3.88236">
        <ele>1020.58</ele>
        <time>2025-09-07T08:07:50Z</time>
      </trkpt>
      <trkpt lat="44.88745" lon="3.8824">
        <ele>1021.06</ele>
        <time>2025-09-07T08:07:52Z</time>
      </trkpt>
      <trkpt lat="44.88744" lon="3.88241">
        <ele>1021.54</ele>
        <time>2025-09-07T08:07:53Z</time>
      </trkpt>
      <trkpt lat="44.88743" lon="3.88242">
        <ele>1021.54</ele>
        <time>2025-09-07T08:07:54Z</time>
      </trkpt>
      <trkpt lat="44.88726" lon="3.88243">
        <ele>1022.02</ele>
        <time>2025-09-07T08:08:06Z</time>
      </trkpt>
      <trkpt lat="44.88708" lon="3.88242">
        <ele>1021.06</ele>
        <time>2025-09-07T08:08:19Z</time>
      </trkpt>
      <trkpt lat="44.88689" lon="3.88242">
        <ele>1019.62</ele>
        <time>2025-09-07T08:08:32Z</time>
      </trkpt>
      <trkpt lat="44.88675" lon="3.88253">
        <ele>1018.17</ele>
        <time>2025-09-07T08:08:44Z</time>
      </trkpt>
      <trkpt lat="44.88669" lon="3.88283">
        <ele>1018.17</ele>
        <time>2025-09-07T08:08:56Z</time>
      </trkpt>
      <trkpt lat="44.88668" lon="3.88286">
        <ele>1018.17</ele>
        <time>2025-09-07T08:08:58Z</time>
      </trkpt>
      <trkpt lat="44.88667" lon="3.88294">
        <ele>1016.25</ele>
        <time>2025-09-07T08:09:05Z</time>
      </trkpt>
      <trkpt lat="44.88668" lon="3.88296">
        <ele>1016.25</ele>
        <time>2025-09-07T08:09:06Z</time>
      </trkpt>
      <trkpt lat="44.88672" lon="3.88324">
        <ele>1013.85</ele>
        <time>2025-09-07T08:09:21Z</time>
      </trkpt>
      <trkpt lat="44.88675" lon="3.88351">
        <ele>1012.89</ele>
        <time>2025-09-07T08:09:35Z</time>
      </trkpt>
      <trkpt lat="44.88674" lon="3.88356">
        <ele>1012.41</ele>
        <time>2025-09-07T08:09:38Z</time>
      </trkpt>
      <trkpt lat="44.88674" lon="3.88358">
        <ele>1012.41</ele>
        <time>2025-09-07T08:09:39Z</time>
      </trkpt>
      <trkpt lat="44.88661" lon="3.88372">
        <ele>1012.89</ele>
        <time>2025-09-07T08:09:52Z</time>
      </trkpt>
      <trkpt lat="44.88641" lon="3.88377">
        <ele>1012.89</ele>
        <time>2025-09-07T08:10:03Z</time>
      </trkpt>
      <trkpt lat="44.88629" lon="3.8838">
        <ele>1014.81</ele>
        <time>2025-09-07T08:10:13Z</time>
      </trkpt>
      <trkpt lat="44.88608" lon="3.88385">
        <ele>1015.77</ele>
        <time>2025-09-07T08:10:27Z</time>
      </trkpt>
      <trkpt lat="44.88587" lon="3.88388">
        <ele>1015.77</ele>
        <time>2025-09-07T08:10:41Z</time>
      </trkpt>
      <trkpt lat="44.88585" lon="3.88388">
        <ele>1015.29</ele>
        <time>2025-09-07T08:10:43Z</time>
      </trkpt>
      <trkpt lat="44.88571" lon="3.88399">
        <ele>1013.85</ele>
        <time>2025-09-07T08:10:51Z</time>
      </trkpt>
      <trkpt lat="44.88569" lon="3.88413">
        <ele>1011.93</ele>
        <time>2025-09-07T08:11:00Z</time>
      </trkpt>
      <trkpt lat="44.88567" lon="3.88443">
        <ele>1011.93</ele>
        <time>2025-09-07T08:11:14Z</time>
      </trkpt>
      <trkpt lat="44.88561" lon="3.88472">
        <ele>1011.93</ele>
        <time>2025-09-07T08:11:28Z</time>
      </trkpt>
      <trkpt lat="44.88555" lon="3.88502">
        <ele>1012.41</ele>
        <time>2025-09-07T08:11:44Z</time>
      </trkpt>
      <trkpt lat="44.88551" lon="3.88525">
        <ele>1012.41</ele>
        <time>2025-09-07T08:11:57Z</time>
      </trkpt>
      <trkpt lat="44.88544" lon="3.88556">
        <ele>1014.33</ele>
        <time>2025-09-07T08:12:11Z</time>
      </trkpt>
      <trkpt lat="44.88529" lon="3.88572">
        <ele>1013.37</ele>
        <time>2025-09-07T08:12:23Z</time>
      </trkpt>
      <trkpt lat="44.8852" lon="3.88575">
        <ele>1011.44</ele>
        <time>2025-09-07T08:12:30Z</time>
      </trkpt>
      <trkpt lat="44.88519" lon="3.88575">
        <ele>1011.44</ele>
        <time>2025-09-07T08:12:31Z</time>
      </trkpt>
      <trkpt lat="44.88515" lon="3.88576">
        <ele>1011.44</ele>
        <time>2025-09-07T08:12:34Z</time>
      </trkpt>
      <trkpt lat="44.88514" lon="3.88578">
        <ele>1011.44</ele>
        <time>2025-09-07T08:12:35Z</time>
      </trkpt>
      <trkpt lat="44.88513" lon="3.8858">
        <ele>1011.44</ele>
        <time>2025-09-07T08:12:36Z</time>
      </trkpt>
      <trkpt lat="44.88506" lon="3.88601">
        <ele>1011.93</ele>
        <time>2025-09-07T08:12:47Z</time>
      </trkpt>
      <trkpt lat="44.88504" lon="3.88626">
        <ele>1012.41</ele>
        <time>2025-09-07T08:12:58Z</time>
      </trkpt>
      <trkpt lat="44.88501" lon="3.88654">
        <ele>1012.41</ele>
        <time>2025-09-07T08:13:13Z</time>
      </trkpt>
      <trkpt lat="44.88496" lon="3.88668">
        <ele>1011.44</ele>
        <time>2025-09-07T08:13:23Z</time>
      </trkpt>
      <trkpt lat="44.88495" lon="3.8867">
        <ele>1011.93</ele>
        <time>2025-09-07T08:13:24Z</time>
      </trkpt>
      <trkpt lat="44.88495" lon="3.88672">
        <ele>1011.93</ele>
        <time>2025-09-07T08:13:25Z</time>
      </trkpt>
      <trkpt lat="44.88494" lon="3.88674">
        <ele>1011.93</ele>
        <time>2025-09-07T08:13:26Z</time>
      </trkpt>
      <trkpt lat="44.88493" lon="3.88677">
        <ele>1011.93</ele>
        <time>2025-09-07T08:13:27Z</time>
      </trkpt>
      <trkpt lat="44.88491" lon="3.8868">
        <ele>1011.93</ele>
        <time>2025-09-07T08:13:28Z</time>
      </trkpt>
      <trkpt lat="44.88481" lon="3.88698">
        <ele>1013.37</ele>
        <time>2025-09-07T08:13:40Z</time>
      </trkpt>
      <trkpt lat="44.88471" lon="3.88717">
        <ele>1010.96</ele>
        <time>2025-09-07T08:13:51Z</time>
      </trkpt>
      <trkpt lat="44.88469" lon="3.8872">
        <ele>1010</ele>
        <time>2025-09-07T08:13:53Z</time>
      </trkpt>
      <trkpt lat="44.88468" lon="3.88722">
        <ele>1009.52</ele>
        <time>2025-09-07T08:13:55Z</time>
      </trkpt>
      <trkpt lat="44.88467" lon="3.88724">
        <ele>1009.04</ele>
        <time>2025-09-07T08:13:56Z</time>
      </trkpt>
      <trkpt lat="44.88467" lon="3.88726">
        <ele>1009.04</ele>
        <time>2025-09-07T08:13:57Z</time>
      </trkpt>
      <trkpt lat="44.88466" lon="3.88728">
        <ele>1008.56</ele>
        <time>2025-09-07T08:13:58Z</time>
      </trkpt>
      <trkpt lat="44.88465" lon="3.8873">
        <ele>1008.56</ele>
        <time>2025-09-07T08:13:59Z</time>
      </trkpt>
      <trkpt lat="44.88464" lon="3.88733">
        <ele>1008.08</ele>
        <time>2025-09-07T08:14:00Z</time>
      </trkpt>
      <trkpt lat="44.88463" lon="3.88736">
        <ele>1008.08</ele>
        <time>2025-09-07T08:14:01Z</time>
      </trkpt>
      <trkpt lat="44.88459" lon="3.88744">
        <ele>1007.6</ele>
        <time>2025-09-07T08:14:05Z</time>
      </trkpt>
      <trkpt lat="44.88459" lon="3.88745">
        <ele>1007.6</ele>
        <time>2025-09-07T08:14:06Z</time>
      </trkpt>
      <trkpt lat="44.8845" lon="3.88761">
        <ele>1004.72</ele>
        <time>2025-09-07T08:14:27Z</time>
      </trkpt>
      <trkpt lat="44.88446" lon="3.88771">
        <ele>1003.75</ele>
        <time>2025-09-07T08:14:34Z</time>
      </trkpt>
      <trkpt lat="44.88445" lon="3.88773">
        <ele>1003.75</ele>
        <time>2025-09-07T08:14:35Z</time>
      </trkpt>
      <trkpt lat="44.88444" lon="3.88774">
        <ele>1003.27</ele>
        <time>2025-09-07T08:14:36Z</time>
      </trkpt>
      <trkpt lat="44.88433" lon="3.88791">
        <ele>1001.83</ele>
        <time>2025-09-07T08:14:47Z</time>
      </trkpt>
      <trkpt lat="44.88423" lon="3.88809">
        <ele>999.91</ele>
        <time>2025-09-07T08:14:59Z</time>
      </trkpt>
      <trkpt lat="44.88412" lon="3.88829">
        <ele>998.47</ele>
        <time>2025-09-07T08:15:12Z</time>
      </trkpt>
      <trkpt lat="44.88402" lon="3.88847">
        <ele>998.95</ele>
        <time>2025-09-07T08:15:24Z</time>
      </trkpt>
      <trkpt lat="44.88396" lon="3.88868">
        <ele>996.06</ele>
        <time>2025-09-07T08:15:36Z</time>
      </trkpt>
      <trkpt lat="44.88395" lon="3.8887">
        <ele>995.58</ele>
        <time>2025-09-07T08:15:37Z</time>
      </trkpt>
      <trkpt lat="44.8839" lon="3.88868">
        <ele>991.26</ele>
        <time>2025-09-07T08:15:55Z</time>
      </trkpt>
      <trkpt lat="44.88388" lon="3.88869">
        <ele>986.45</ele>
        <time>2025-09-07T08:16:23Z</time>
      </trkpt>
      <trkpt lat="44.88391" lon="3.88866">
        <ele>987.89</ele>
        <time>2025-09-07T08:16:47Z</time>
      </trkpt>
      <trkpt lat="44.88391" lon="3.88864">
        <ele>986.93</ele>
        <time>2025-09-07T08:17:13Z</time>
      </trkpt>
      <trkpt lat="44.88389" lon="3.88862">
        <ele>987.89</ele>
        <time>2025-09-07T08:17:34Z</time>
      </trkpt>
      <trkpt lat="44.88391" lon="3.88872">
        <ele>986.93</ele>
        <time>2025-09-07T08:17:44Z</time>
      </trkpt>
      <trkpt lat="44.88391" lon="3.88875">
        <ele>986.93</ele>
        <time>2025-09-07T08:17:45Z</time>
      </trkpt>
      <trkpt lat="44.88387" lon="3.8891">
        <ele>985.49</ele>
        <time>2025-09-07T08:18:04Z</time>
      </trkpt>
      <trkpt lat="44.88364" lon="3.88936">
        <ele>984.53</ele>
        <time>2025-09-07T08:18:21Z</time>
      </trkpt>
      <trkpt lat="44.88363" lon="3.88939">
        <ele>985.01</ele>
        <time>2025-09-07T08:18:24Z</time>
      </trkpt>
      <trkpt lat="44.88362" lon="3.88941">
        <ele>985.01</ele>
        <time>2025-09-07T08:18:25Z</time>
      </trkpt>
      <trkpt lat="44.88361" lon="3.88944">
        <ele>985.49</ele>
        <time>2025-09-07T08:18:26Z</time>
      </trkpt>
      <trkpt lat="44.88361" lon="3.88947">
        <ele>985.49</ele>
        <time>2025-09-07T08:18:27Z</time>
      </trkpt>
      <trkpt lat="44.88361" lon="3.88949">
        <ele>985.49</ele>
        <time>2025-09-07T08:18:28Z</time>
      </trkpt>
      <trkpt lat="44.88367" lon="3.88977">
        <ele>982.6</ele>
        <time>2025-09-07T08:18:40Z</time>
      </trkpt>
      <trkpt lat="44.8837" lon="3.88983">
        <ele>982.12</ele>
        <time>2025-09-07T08:18:44Z</time>
      </trkpt>
      <trkpt lat="44.88372" lon="3.88983">
        <ele>981.64</ele>
        <time>2025-09-07T08:18:45Z</time>
      </trkpt>
      <trkpt lat="44.88373" lon="3.88984">
        <ele>981.64</ele>
        <time>2025-09-07T08:18:46Z</time>
      </trkpt>
      <trkpt lat="44.88375" lon="3.88985">
        <ele>981.64</ele>
        <time>2025-09-07T08:18:47Z</time>
      </trkpt>
      <trkpt lat="44.88376" lon="3.88986">
        <ele>981.16</ele>
        <time>2025-09-07T08:18:48Z</time>
      </trkpt>
      <trkpt lat="44.88378" lon="3.88988">
        <ele>981.16</ele>
        <time>2025-09-07T08:18:49Z</time>
      </trkpt>
      <trkpt lat="44.88383" lon="3.88996">
        <ele>978.28</ele>
        <time>2025-09-07T08:18:58Z</time>
      </trkpt>
      <trkpt lat="44.88387" lon="3.89003">
        <ele>975.88</ele>
        <time>2025-09-07T08:19:05Z</time>
      </trkpt>
      <trkpt lat="44.88386" lon="3.89004">
        <ele>975.39</ele>
        <time>2025-09-07T08:19:06Z</time>
      </trkpt>
      <trkpt lat="44.88384" lon="3.89004">
        <ele>974.91</ele>
        <time>2025-09-07T08:19:07Z</time>
      </trkpt>
      <trkpt lat="44.88372" lon="3.89004">
        <ele>971.55</ele>
        <time>2025-09-07T08:19:19Z</time>
      </trkpt>
      <trkpt lat="44.88372" lon="3.89003">
        <ele>971.07</ele>
        <time>2025-09-07T08:19:31Z</time>
      </trkpt>
      <trkpt lat="44.88348" lon="3.89004">
        <ele>971.07</ele>
        <time>2025-09-07T08:19:48Z</time>
      </trkpt>
      <trkpt lat="44.88329" lon="3.89">
        <ele>966.74</ele>
        <time>2025-09-07T08:19:59Z</time>
      </trkpt>
      <trkpt lat="44.88312" lon="3.89">
        <ele>964.82</ele>
        <time>2025-09-07T08:20:14Z</time>
      </trkpt>
      <trkpt lat="44.88299" lon="3.88997">
        <ele>962.9</ele>
        <time>2025-09-07T08:20:27Z</time>
      </trkpt>
      <trkpt lat="44.8828" lon="3.88999">
        <ele>961.94</ele>
        <time>2025-09-07T08:20:39Z</time>
      </trkpt>
      <trkpt lat="44.88277" lon="3.89003">
        <ele>961.46</ele>
        <time>2025-09-07T08:20:43Z</time>
      </trkpt>
      <trkpt lat="44.88271" lon="3.89015">
        <ele>963.86</ele>
        <time>2025-09-07T08:20:50Z</time>
      </trkpt>
      <trkpt lat="44.8827" lon="3.89016">
        <ele>963.38</ele>
        <time>2025-09-07T08:20:51Z</time>
      </trkpt>
      <trkpt lat="44.88269" lon="3.89017">
        <ele>963.38</ele>
        <time>2025-09-07T08:20:52Z</time>
      </trkpt>
      <trkpt lat="44.88263" lon="3.89038">
        <ele>962.42</ele>
        <time>2025-09-07T08:21:04Z</time>
      </trkpt>
      <trkpt lat="44.88267" lon="3.89065">
        <ele>963.38</ele>
        <time>2025-09-07T08:21:16Z</time>
      </trkpt>
      <trkpt lat="44.88276" lon="3.89082">
        <ele>966.26</ele>
        <time>2025-09-07T08:21:27Z</time>
      </trkpt>
      <trkpt lat="44.88287" lon="3.89101">
        <ele>967.22</ele>
        <time>2025-09-07T08:21:39Z</time>
      </trkpt>
      <trkpt lat="44.88296" lon="3.89112">
        <ele>967.22</ele>
        <time>2025-09-07T08:21:49Z</time>
      </trkpt>
      <trkpt lat="44.883" lon="3.89115">
        <ele>967.22</ele>
        <time>2025-09-07T08:21:57Z</time>
      </trkpt>
      <trkpt lat="44.88301" lon="3.89115">
        <ele>966.74</ele>
        <time>2025-09-07T08:21:58Z</time>
      </trkpt>
      <trkpt lat="44.88306" lon="3.89117">
        <ele>965.78</ele>
        <time>2025-09-07T08:22:02Z</time>
      </trkpt>
      <trkpt lat="44.88307" lon="3.89118">
        <ele>965.78</ele>
        <time>2025-09-07T08:22:03Z</time>
      </trkpt>
      <trkpt lat="44.88308" lon="3.89118">
        <ele>965.78</ele>
        <time>2025-09-07T08:22:04Z</time>
      </trkpt>
      <trkpt lat="44.8831" lon="3.89119">
        <ele>965.3</ele>
        <time>2025-09-07T08:22:05Z</time>
      </trkpt>
      <trkpt lat="44.88311" lon="3.8912">
        <ele>965.3</ele>
        <time>2025-09-07T08:22:06Z</time>
      </trkpt>
      <trkpt lat="44.88313" lon="3.89121">
        <ele>965.3</ele>
        <time>2025-09-07T08:22:07Z</time>
      </trkpt>
      <trkpt lat="44.88316" lon="3.89121">
        <ele>964.82</ele>
        <time>2025-09-07T08:22:08Z</time>
      </trkpt>
      <trkpt lat="44.88332" lon="3.89128">
        <ele>963.38</ele>
        <time>2025-09-07T08:22:21Z</time>
      </trkpt>
      <trkpt lat="44.8835" lon="3.89135">
        <ele>960.49</ele>
        <time>2025-09-07T08:22:35Z</time>
      </trkpt>
      <trkpt lat="44.88369" lon="3.89145">
        <ele>958.57</ele>
        <time>2025-09-07T08:22:46Z</time>
      </trkpt>
      <trkpt lat="44.88371" lon="3.89146">
        <ele>959.05</ele>
        <time>2025-09-07T08:22:47Z</time>
      </trkpt>
      <trkpt lat="44.8839" lon="3.89151">
        <ele>961.94</ele>
        <time>2025-09-07T08:23:02Z</time>
      </trkpt>
      <trkpt lat="44.88409" lon="3.89159">
        <ele>963.86</ele>
        <time>2025-09-07T08:23:16Z</time>
      </trkpt>
      <trkpt lat="44.88432" lon="3.89166">
        <ele>964.82</ele>
        <time>2025-09-07T08:23:32Z</time>
      </trkpt>
      <trkpt lat="44.88443" lon="3.89168">
        <ele>962.9</ele>
        <time>2025-09-07T08:23:39Z</time>
      </trkpt>
      <trkpt lat="44.88445" lon="3.89168">
        <ele>962.9</ele>
        <time>2025-09-07T08:23:40Z</time>
      </trkpt>
      <trkpt lat="44.88447" lon="3.89168">
        <ele>962.42</ele>
        <time>2025-09-07T08:23:41Z</time>
      </trkpt>
      <trkpt lat="44.88464" lon="3.89177">
        <ele>960.01</ele>
        <time>2025-09-07T08:23:54Z</time>
      </trkpt>
      <trkpt lat="44.88479" lon="3.89181">
        <ele>960.01</ele>
        <time>2025-09-07T08:24:04Z</time>
      </trkpt>
      <trkpt lat="44.88482" lon="3.89185">
        <ele>960.01</ele>
        <time>2025-09-07T08:24:08Z</time>
      </trkpt>
      <trkpt lat="44.88484" lon="3.89185">
        <ele>960.01</ele>
        <time>2025-09-07T08:24:09Z</time>
      </trkpt>
      <trkpt lat="44.88488" lon="3.89187">
        <ele>959.53</ele>
        <time>2025-09-07T08:24:12Z</time>
      </trkpt>
      <trkpt lat="44.8849" lon="3.89187">
        <ele>960.01</ele>
        <time>2025-09-07T08:24:13Z</time>
      </trkpt>
      <trkpt lat="44.88491" lon="3.89187">
        <ele>960.01</ele>
        <time>2025-09-07T08:24:14Z</time>
      </trkpt>
      <trkpt lat="44.88492" lon="3.89188">
        <ele>960.01</ele>
        <time>2025-09-07T08:24:15Z</time>
      </trkpt>
      <trkpt lat="44.88513" lon="3.89194">
        <ele>959.53</ele>
        <time>2025-09-07T08:24:29Z</time>
      </trkpt>
      <trkpt lat="44.88529" lon="3.89201">
        <ele>956.17</ele>
        <time>2025-09-07T08:24:41Z</time>
      </trkpt>
      <trkpt lat="44.88545" lon="3.89211">
        <ele>954.73</ele>
        <time>2025-09-07T08:24:53Z</time>
      </trkpt>
      <trkpt lat="44.88559" lon="3.89223">
        <ele>957.13</ele>
        <time>2025-09-07T08:25:05Z</time>
      </trkpt>
      <trkpt lat="44.8857" lon="3.8924">
        <ele>957.61</ele>
        <time>2025-09-07T08:25:19Z</time>
      </trkpt>
      <trkpt lat="44.88583" lon="3.89261">
        <ele>955.21</ele>
        <time>2025-09-07T08:25:33Z</time>
      </trkpt>
      <trkpt lat="44.88599" lon="3.89289">
        <ele>954.25</ele>
        <time>2025-09-07T08:25:50Z</time>
      </trkpt>
      <trkpt lat="44.88614" lon="3.89312">
        <ele>954.73</ele>
        <time>2025-09-07T08:26:05Z</time>
      </trkpt>
      <trkpt lat="44.88631" lon="3.8932">
        <ele>957.61</ele>
        <time>2025-09-07T08:26:19Z</time>
      </trkpt>
      <trkpt lat="44.88632" lon="3.8932">
        <ele>957.61</ele>
        <time>2025-09-07T08:26:20Z</time>
      </trkpt>
      <trkpt lat="44.88634" lon="3.89321">
        <ele>958.09</ele>
        <time>2025-09-07T08:26:21Z</time>
      </trkpt>
      <trkpt lat="44.88635" lon="3.89322">
        <ele>958.57</ele>
        <time>2025-09-07T08:26:22Z</time>
      </trkpt>
      <trkpt lat="44.88637" lon="3.89322">
        <ele>958.57</ele>
        <time>2025-09-07T08:26:23Z</time>
      </trkpt>
      <trkpt lat="44.88638" lon="3.89323">
        <ele>958.57</ele>
        <time>2025-09-07T08:26:24Z</time>
      </trkpt>
      <trkpt lat="44.8864" lon="3.89323">
        <ele>959.05</ele>
        <time>2025-09-07T08:26:25Z</time>
      </trkpt>
      <trkpt lat="44.88641" lon="3.89324">
        <ele>959.05</ele>
        <time>2025-09-07T08:26:26Z</time>
      </trkpt>
      <trkpt lat="44.88654" lon="3.89328">
        <ele>960.01</ele>
        <time>2025-09-07T08:26:36Z</time>
      </trkpt>
      <trkpt lat="44.88672" lon="3.89346">
        <ele>959.53</ele>
        <time>2025-09-07T08:26:49Z</time>
      </trkpt>
      <trkpt lat="44.88673" lon="3.89347">
        <ele>959.53</ele>
        <time>2025-09-07T08:26:50Z</time>
      </trkpt>
      <trkpt lat="44.88693" lon="3.89367">
        <ele>957.13</ele>
        <time>2025-09-07T08:27:07Z</time>
      </trkpt>
      <trkpt lat="44.88709" lon="3.89388">
        <ele>951.36</ele>
        <time>2025-09-07T08:27:22Z</time>
      </trkpt>
      <trkpt lat="44.88723" lon="3.89401">
        <ele>947.52</ele>
        <time>2025-09-07T08:27:38Z</time>
      </trkpt>
      <trkpt lat="44.88736" lon="3.89417">
        <ele>943.67</ele>
        <time>2025-09-07T08:27:52Z</time>
      </trkpt>
      <trkpt lat="44.88753" lon="3.89435">
        <ele>941.27</ele>
        <time>2025-09-07T08:28:07Z</time>
      </trkpt>
      <trkpt lat="44.88767" lon="3.89445">
        <ele>939.35</ele>
        <time>2025-09-07T08:28:18Z</time>
      </trkpt>
      <trkpt lat="44.88783" lon="3.89465">
        <ele>937.42</ele>
        <time>2025-09-07T08:28:32Z</time>
      </trkpt>
      <trkpt lat="44.88794" lon="3.89489">
        <ele>937.42</ele>
        <time>2025-09-07T08:28:47Z</time>
      </trkpt>
      <trkpt lat="44.888" lon="3.89512">
        <ele>938.38</ele>
        <time>2025-09-07T08:29:00Z</time>
      </trkpt>
      <trkpt lat="44.88805" lon="3.89539">
        <ele>938.38</ele>
        <time>2025-09-07T08:29:15Z</time>
      </trkpt>
      <trkpt lat="44.88809" lon="3.89561">
        <ele>936.94</ele>
        <time>2025-09-07T08:29:27Z</time>
      </trkpt>
      <trkpt lat="44.88815" lon="3.89587">
        <ele>937.42</ele>
        <time>2025-09-07T08:29:41Z</time>
      </trkpt>
      <trkpt lat="44.88822" lon="3.89615">
        <ele>937.42</ele>
        <time>2025-09-07T08:29:55Z</time>
      </trkpt>
      <trkpt lat="44.88827" lon="3.89637">
        <ele>937.42</ele>
        <time>2025-09-07T08:30:07Z</time>
      </trkpt>
      <trkpt lat="44.88835" lon="3.89664">
        <ele>938.86</ele>
        <time>2025-09-07T08:30:21Z</time>
      </trkpt>
      <trkpt lat="44.88839" lon="3.8968">
        <ele>939.83</ele>
        <time>2025-09-07T08:30:30Z</time>
      </trkpt>
      <trkpt lat="44.88839" lon="3.89682">
        <ele>939.83</ele>
        <time>2025-09-07T08:30:31Z</time>
      </trkpt>
      <trkpt lat="44.88839" lon="3.89684">
        <ele>939.83</ele>
        <time>2025-09-07T08:30:32Z</time>
      </trkpt>
      <trkpt lat="44.8884" lon="3.89687">
        <ele>939.83</ele>
        <time>2025-09-07T08:30:33Z</time>
      </trkpt>
      <trkpt lat="44.88841" lon="3.89689">
        <ele>939.83</ele>
        <time>2025-09-07T08:30:34Z</time>
      </trkpt>
      <trkpt lat="44.88841" lon="3.89691">
        <ele>939.83</ele>
        <time>2025-09-07T08:30:35Z</time>
      </trkpt>
      <trkpt lat="44.88847" lon="3.89714">
        <ele>940.79</ele>
        <time>2025-09-07T08:30:49Z</time>
      </trkpt>
      <trkpt lat="44.88848" lon="3.89734">
        <ele>940.31</ele>
        <time>2025-09-07T08:31:02Z</time>
      </trkpt>
      <trkpt lat="44.88845" lon="3.8976">
        <ele>940.31</ele>
        <time>2025-09-07T08:31:15Z</time>
      </trkpt>
      <trkpt lat="44.88839" lon="3.89782">
        <ele>940.79</ele>
        <time>2025-09-07T08:31:27Z</time>
      </trkpt>
      <trkpt lat="44.88834" lon="3.89796">
        <ele>941.27</ele>
        <time>2025-09-07T08:31:37Z</time>
      </trkpt>
      <trkpt lat="44.88832" lon="3.89801">
        <ele>941.27</ele>
        <time>2025-09-07T08:31:41Z</time>
      </trkpt>
      <trkpt lat="44.88832" lon="3.89804">
        <ele>941.75</ele>
        <time>2025-09-07T08:31:42Z</time>
      </trkpt>
      <trkpt lat="44.88822" lon="3.89827">
        <ele>946.07</ele>
        <time>2025-09-07T08:31:55Z</time>
      </trkpt>
      <trkpt lat="44.88823" lon="3.89829">
        <ele>947.04</ele>
        <time>2025-09-07T08:31:56Z</time>
      </trkpt>
      <trkpt lat="44.88823" lon="3.8983">
        <ele>947.04</ele>
        <time>2025-09-07T08:31:57Z</time>
      </trkpt>
      <trkpt lat="44.88817" lon="3.8985">
        <ele>948.96</ele>
        <time>2025-09-07T08:32:07Z</time>
      </trkpt>
      <trkpt lat="44.88811" lon="3.89873">
        <ele>948.48</ele>
        <time>2025-09-07T08:32:19Z</time>
      </trkpt>
      <trkpt lat="44.88809" lon="3.89898">
        <ele>947.52</ele>
        <time>2025-09-07T08:32:32Z</time>
      </trkpt>
      <trkpt lat="44.88811" lon="3.89922">
        <ele>946.07</ele>
        <time>2025-09-07T08:32:46Z</time>
      </trkpt>
      <trkpt lat="44.88819" lon="3.8995">
        <ele>946.07</ele>
        <time>2025-09-07T08:33:01Z</time>
      </trkpt>
      <trkpt lat="44.88824" lon="3.89972">
        <ele>948.96</ele>
        <time>2025-09-07T08:33:14Z</time>
      </trkpt>
      <trkpt lat="44.88829" lon="3.89996">
        <ele>951.84</ele>
        <time>2025-09-07T08:33:27Z</time>
      </trkpt>
      <trkpt lat="44.88832" lon="3.90015">
        <ele>953.77</ele>
        <time>2025-09-07T08:33:39Z</time>
      </trkpt>
      <trkpt lat="44.88835" lon="3.90042">
        <ele>954.73</ele>
        <time>2025-09-07T08:33:52Z</time>
      </trkpt>
      <trkpt lat="44.88836" lon="3.90066">
        <ele>957.13</ele>
        <time>2025-09-07T08:34:06Z</time>
      </trkpt>
      <trkpt lat="44.88839" lon="3.9008">
        <ele>958.57</ele>
        <time>2025-09-07T08:34:14Z</time>
      </trkpt>
      <trkpt lat="44.88846" lon="3.901">
        <ele>962.42</ele>
        <time>2025-09-07T08:34:26Z</time>
      </trkpt>
      <trkpt lat="44.88847" lon="3.90116">
        <ele>964.34</ele>
        <time>2025-09-07T08:34:38Z</time>
      </trkpt>
      <trkpt lat="44.88846" lon="3.90146">
        <ele>963.38</ele>
        <time>2025-09-07T08:34:52Z</time>
      </trkpt>
      <trkpt lat="44.88848" lon="3.90175">
        <ele>962.42</ele>
        <time>2025-09-07T08:35:07Z</time>
      </trkpt>
      <trkpt lat="44.88857" lon="3.90205">
        <ele>961.46</ele>
        <time>2025-09-07T08:35:28Z</time>
      </trkpt>
      <trkpt lat="44.88871" lon="3.9024">
        <ele>959.53</ele>
        <time>2025-09-07T08:35:48Z</time>
      </trkpt>
      <trkpt lat="44.88874" lon="3.90245">
        <ele>959.05</ele>
        <time>2025-09-07T08:35:51Z</time>
      </trkpt>
      <trkpt lat="44.88888" lon="3.90273">
        <ele>960.98</ele>
        <time>2025-09-07T08:36:11Z</time>
      </trkpt>
      <trkpt lat="44.88902" lon="3.90299">
        <ele>961.94</ele>
        <time>2025-09-07T08:36:31Z</time>
      </trkpt>
      <trkpt lat="44.88914" lon="3.90307">
        <ele>961.94</ele>
        <time>2025-09-07T08:36:48Z</time>
      </trkpt>
      <trkpt lat="44.88918" lon="3.90313">
        <ele>961.46</ele>
        <time>2025-09-07T08:37:03Z</time>
      </trkpt>
      <trkpt lat="44.88905" lon="3.90308">
        <ele>961.46</ele>
        <time>2025-09-07T08:37:16Z</time>
      </trkpt>
      <trkpt lat="44.88904" lon="3.90308">
        <ele>961.46</ele>
        <time>2025-09-07T08:37:17Z</time>
      </trkpt>
      <trkpt lat="44.88903" lon="3.90309">
        <ele>961.46</ele>
        <time>2025-09-07T08:37:18Z</time>
      </trkpt>
      <trkpt lat="44.88898" lon="3.90315">
        <ele>960.98</ele>
        <time>2025-09-07T08:37:24Z</time>
      </trkpt>
      <trkpt lat="44.88897" lon="3.90317">
        <ele>960.98</ele>
        <time>2025-09-07T08:37:25Z</time>
      </trkpt>
      <trkpt lat="44.88888" lon="3.90348">
        <ele>959.05</ele>
        <time>2025-09-07T08:37:45Z</time>
      </trkpt>
      <trkpt lat="44.88888" lon="3.90352">
        <ele>958.57</ele>
        <time>2025-09-07T08:37:47Z</time>
      </trkpt>
      <trkpt lat="44.88888" lon="3.90355">
        <ele>958.09</ele>
        <time>2025-09-07T08:37:49Z</time>
      </trkpt>
      <trkpt lat="44.88889" lon="3.90356">
        <ele>958.09</ele>
        <time>2025-09-07T08:37:50Z</time>
      </trkpt>
      <trkpt lat="44.88893" lon="3.90357">
        <ele>957.61</ele>
        <time>2025-09-07T08:37:54Z</time>
      </trkpt>
      <trkpt lat="44.88895" lon="3.90356">
        <ele>957.13</ele>
        <time>2025-09-07T08:37:55Z</time>
      </trkpt>
      <trkpt lat="44.88898" lon="3.90352">
        <ele>953.77</ele>
        <time>2025-09-07T08:38:08Z</time>
      </trkpt>
      <trkpt lat="44.88904" lon="3.90363">
        <ele>950.4</ele>
        <time>2025-09-07T08:38:25Z</time>
      </trkpt>
      <trkpt lat="44.88905" lon="3.90364">
        <ele>949.92</ele>
        <time>2025-09-07T08:38:26Z</time>
      </trkpt>
      <trkpt lat="44.8891" lon="3.90365">
        <ele>946.07</ele>
        <time>2025-09-07T08:38:42Z</time>
      </trkpt>
      <trkpt lat="44.88916" lon="3.90356">
        <ele>945.11</ele>
        <time>2025-09-07T08:39:01Z</time>
      </trkpt>
      <trkpt lat="44.88923" lon="3.90341">
        <ele>945.11</ele>
        <time>2025-09-07T08:39:19Z</time>
      </trkpt>
      <trkpt lat="44.88923" lon="3.90337">
        <ele>946.56</ele>
        <time>2025-09-07T08:39:39Z</time>
      </trkpt>
      <trkpt lat="44.88918" lon="3.90348">
        <ele>948.48</ele>
        <time>2025-09-07T08:39:54Z</time>
      </trkpt>
      <trkpt lat="44.88918" lon="3.90354">
        <ele>948.96</ele>
        <time>2025-09-07T08:40:08Z</time>
      </trkpt>
      <trkpt lat="44.88912" lon="3.90363">
        <ele>949.92</ele>
        <time>2025-09-07T08:40:32Z</time>
      </trkpt>
      <trkpt lat="44.88893" lon="3.90378">
        <ele>950.4</ele>
        <time>2025-09-07T08:40:50Z</time>
      </trkpt>
      <trkpt lat="44.88876" lon="3.9039">
        <ele>949.92</ele>
        <time>2025-09-07T08:41:09Z</time>
      </trkpt>
      <trkpt lat="44.88857" lon="3.90413">
        <ele>951.84</ele>
        <time>2025-09-07T08:41:28Z</time>
      </trkpt>
      <trkpt lat="44.88836" lon="3.90427">
        <ele>955.69</ele>
        <time>2025-09-07T08:41:47Z</time>
      </trkpt>
      <trkpt lat="44.88815" lon="3.90434">
        <ele>957.61</ele>
        <time>2025-09-07T08:42:06Z</time>
      </trkpt>
      <trkpt lat="44.88786" lon="3.90441">
        <ele>958.09</ele>
        <time>2025-09-07T08:42:26Z</time>
      </trkpt>
      <trkpt lat="44.88761" lon="3.90453">
        <ele>957.13</ele>
        <time>2025-09-07T08:42:45Z</time>
      </trkpt>
      <trkpt lat="44.88736" lon="3.90468">
        <ele>956.17</ele>
        <time>2025-09-07T08:43:05Z</time>
      </trkpt>
      <trkpt lat="44.88706" lon="3.90485">
        <ele>953.28</ele>
        <time>2025-09-07T08:43:26Z</time>
      </trkpt>
      <trkpt lat="44.88678" lon="3.90498">
        <ele>952.8</ele>
        <time>2025-09-07T08:43:46Z</time>
      </trkpt>
      <trkpt lat="44.88654" lon="3.90515">
        <ele>947.04</ele>
        <time>2025-09-07T08:44:04Z</time>
      </trkpt>
      <trkpt lat="44.8863" lon="3.90528">
        <ele>943.19</ele>
        <time>2025-09-07T08:44:22Z</time>
      </trkpt>
      <trkpt lat="44.88626" lon="3.90531">
        <ele>942.71</ele>
        <time>2025-09-07T08:44:26Z</time>
      </trkpt>
      <trkpt lat="44.88608" lon="3.90538">
        <ele>939.83</ele>
        <time>2025-09-07T08:44:39Z</time>
      </trkpt>
      <trkpt lat="44.88606" lon="3.90537">
        <ele>939.83</ele>
        <time>2025-09-07T08:44:40Z</time>
      </trkpt>
      <trkpt lat="44.88604" lon="3.90537">
        <ele>939.35</ele>
        <time>2025-09-07T08:44:41Z</time>
      </trkpt>
      <trkpt lat="44.88586" lon="3.90528">
        <ele>936.94</ele>
        <time>2025-09-07T08:44:54Z</time>
      </trkpt>
      <trkpt lat="44.88586" lon="3.90531">
        <ele>937.42</ele>
        <time>2025-09-07T08:44:56Z</time>
      </trkpt>
      <trkpt lat="44.88586" lon="3.90533">
        <ele>937.9</ele>
        <time>2025-09-07T08:44:57Z</time>
      </trkpt>
      <trkpt lat="44.88586" lon="3.90537">
        <ele>937.9</ele>
        <time>2025-09-07T08:44:58Z</time>
      </trkpt>
      <trkpt lat="44.88586" lon="3.90539">
        <ele>937.9</ele>
        <time>2025-09-07T08:44:59Z</time>
      </trkpt>
      <trkpt lat="44.88586" lon="3.90542">
        <ele>938.38</ele>
        <time>2025-09-07T08:45:00Z</time>
      </trkpt>
      <trkpt lat="44.88586" lon="3.90544">
        <ele>938.38</ele>
        <time>2025-09-07T08:45:01Z</time>
      </trkpt>
      <trkpt lat="44.88586" lon="3.90546">
        <ele>938.38</ele>
        <time>2025-09-07T08:45:02Z</time>
      </trkpt>
      <trkpt lat="44.88585" lon="3.90548">
        <ele>938.86</ele>
        <time>2025-09-07T08:45:03Z</time>
      </trkpt>
      <trkpt lat="44.88583" lon="3.90572">
        <ele>940.79</ele>
        <time>2025-09-07T08:45:16Z</time>
      </trkpt>
      <trkpt lat="44.88582" lon="3.90593">
        <ele>940.31</ele>
        <time>2025-09-07T08:45:28Z</time>
      </trkpt>
      <trkpt lat="44.88586" lon="3.90613">
        <ele>942.71</ele>
        <time>2025-09-07T08:45:39Z</time>
      </trkpt>
      <trkpt lat="44.88587" lon="3.90617">
        <ele>944.63</ele>
        <time>2025-09-07T08:45:46Z</time>
      </trkpt>
      <trkpt lat="44.88588" lon="3.90618">
        <ele>945.11</ele>
        <time>2025-09-07T08:45:47Z</time>
      </trkpt>
      <trkpt lat="44.88596" lon="3.90632">
        <ele>947.04</ele>
        <time>2025-09-07T08:46:00Z</time>
      </trkpt>
      <trkpt lat="44.88601" lon="3.90638">
        <ele>948</ele>
        <time>2025-09-07T08:46:21Z</time>
      </trkpt>
      <trkpt lat="44.88607" lon="3.90666">
        <ele>949.92</ele>
        <time>2025-09-07T08:46:42Z</time>
      </trkpt>
      <trkpt lat="44.88621" lon="3.90697">
        <ele>954.25</ele>
        <time>2025-09-07T08:47:05Z</time>
      </trkpt>
      <trkpt lat="44.88621" lon="3.90715">
        <ele>954.73</ele>
        <time>2025-09-07T08:47:22Z</time>
      </trkpt>
      <trkpt lat="44.8862" lon="3.90724">
        <ele>954.73</ele>
        <time>2025-09-07T08:47:28Z</time>
      </trkpt>
      <trkpt lat="44.88619" lon="3.90726">
        <ele>955.21</ele>
        <time>2025-09-07T08:47:29Z</time>
      </trkpt>
      <trkpt lat="44.8862" lon="3.90777">
        <ele>953.28</ele>
        <time>2025-09-07T08:47:56Z</time>
      </trkpt>
      <trkpt lat="44.88614" lon="3.9082">
        <ele>952.8</ele>
        <time>2025-09-07T08:48:21Z</time>
      </trkpt>
      <trkpt lat="44.8862" lon="3.9087">
        <ele>948.48</ele>
        <time>2025-09-07T08:48:46Z</time>
      </trkpt>
      <trkpt lat="44.88618" lon="3.90911">
        <ele>949.92</ele>
        <time>2025-09-07T08:49:11Z</time>
      </trkpt>
      <trkpt lat="44.88615" lon="3.90965">
        <ele>947.52</ele>
        <time>2025-09-07T08:49:38Z</time>
      </trkpt>
      <trkpt lat="44.88613" lon="3.91006">
        <ele>945.59</ele>
        <time>2025-09-07T08:50:03Z</time>
      </trkpt>
      <trkpt lat="44.88612" lon="3.9105">
        <ele>944.15</ele>
        <time>2025-09-07T08:50:25Z</time>
      </trkpt>
      <trkpt lat="44.88616" lon="3.91094">
        <ele>940.31</ele>
        <time>2025-09-07T08:50:48Z</time>
      </trkpt>
      <trkpt lat="44.88616" lon="3.91127">
        <ele>937.42</ele>
        <time>2025-09-07T08:51:08Z</time>
      </trkpt>
      <trkpt lat="44.88597" lon="3.9115">
        <ele>932.14</ele>
        <time>2025-09-07T08:51:31Z</time>
      </trkpt>
      <trkpt lat="44.88567" lon="3.91152">
        <ele>925.41</ele>
        <time>2025-09-07T08:51:56Z</time>
      </trkpt>
      <trkpt lat="44.88556" lon="3.91159">
        <ele>920.12</ele>
        <time>2025-09-07T08:52:16Z</time>
      </trkpt>
      <trkpt lat="44.88575" lon="3.9118">
        <ele>915.31</ele>
        <time>2025-09-07T08:52:36Z</time>
      </trkpt>
      <trkpt lat="44.88582" lon="3.91221">
        <ele>909.06</ele>
        <time>2025-09-07T08:53:01Z</time>
      </trkpt>
      <trkpt lat="44.88578" lon="3.91234">
        <ele>907.14</ele>
        <time>2025-09-07T08:53:09Z</time>
      </trkpt>
      <trkpt lat="44.88577" lon="3.91236">
        <ele>907.14</ele>
        <time>2025-09-07T08:53:10Z</time>
      </trkpt>
      <trkpt lat="44.88574" lon="3.91266">
        <ele>902.82</ele>
        <time>2025-09-07T08:53:29Z</time>
      </trkpt>
      <trkpt lat="44.88569" lon="3.91308">
        <ele>898.49</ele>
        <time>2025-09-07T08:53:53Z</time>
      </trkpt>
      <trkpt lat="44.88559" lon="3.91333">
        <ele>893.2</ele>
        <time>2025-09-07T08:54:15Z</time>
      </trkpt>
      <trkpt lat="44.88556" lon="3.91334">
        <ele>887.43</ele>
        <time>2025-09-07T08:54:39Z</time>
      </trkpt>
      <trkpt lat="44.88551" lon="3.91324">
        <ele>883.59</ele>
        <time>2025-09-07T08:55:05Z</time>
      </trkpt>
      <trkpt lat="44.8852" lon="3.91318">
        <ele>880.22</ele>
        <time>2025-09-07T08:55:30Z</time>
      </trkpt>
      <trkpt lat="44.8849" lon="3.9131">
        <ele>876.86</ele>
        <time>2025-09-07T08:55:53Z</time>
      </trkpt>
      <trkpt lat="44.88457" lon="3.91301">
        <ele>870.13</ele>
        <time>2025-09-07T08:56:17Z</time>
      </trkpt>
      <trkpt lat="44.88456" lon="3.913">
        <ele>869.65</ele>
        <time>2025-09-07T08:56:18Z</time>
      </trkpt>
      <trkpt lat="44.88423" lon="3.91299">
        <ele>867.73</ele>
        <time>2025-09-07T08:56:40Z</time>
      </trkpt>
      <trkpt lat="44.88415" lon="3.91308">
        <ele>869.65</ele>
        <time>2025-09-07T08:56:45Z</time>
      </trkpt>
      <trkpt lat="44.88383" lon="3.91323">
        <ele>869.17</ele>
        <time>2025-09-07T08:57:09Z</time>
      </trkpt>
      <trkpt lat="44.88377" lon="3.91327">
        <ele>867.73</ele>
        <time>2025-09-07T08:57:14Z</time>
      </trkpt>
      <trkpt lat="44.88349" lon="3.91349">
        <ele>863.88</ele>
        <time>2025-09-07T08:57:36Z</time>
      </trkpt>
      <trkpt lat="44.88326" lon="3.91366">
        <ele>861.48</ele>
        <time>2025-09-07T08:57:56Z</time>
      </trkpt>
      <trkpt lat="44.88293" lon="3.91398">
        <ele>870.13</ele>
        <time>2025-09-07T08:58:24Z</time>
      </trkpt>
      <trkpt lat="44.88268" lon="3.91417">
        <ele>883.59</ele>
        <time>2025-09-07T08:58:46Z</time>
      </trkpt>
      <trkpt lat="44.88237" lon="3.91422">
        <ele>878.3</ele>
        <time>2025-09-07T08:59:11Z</time>
      </trkpt>
      <trkpt lat="44.88225" lon="3.91426">
        <ele>875.9</ele>
        <time>2025-09-07T08:59:20Z</time>
      </trkpt>
      <trkpt lat="44.88195" lon="3.91469">
        <ele>876.38</ele>
        <time>2025-09-07T08:59:45Z</time>
      </trkpt>
      <trkpt lat="44.88171" lon="3.91472">
        <ele>873.5</ele>
        <time>2025-09-07T09:00:09Z</time>
      </trkpt>
      <trkpt lat="44.88164" lon="3.91457">
        <ele>864.36</ele>
        <time>2025-09-07T09:00:32Z</time>
      </trkpt>
      <trkpt lat="44.88135" lon="3.91445">
        <ele>869.17</ele>
        <time>2025-09-07T09:00:58Z</time>
      </trkpt>
      <trkpt lat="44.88126" lon="3.91441">
        <ele>869.17</ele>
        <time>2025-09-07T09:01:06Z</time>
      </trkpt>
      <trkpt lat="44.8812" lon="3.91428">
        <ele>867.25</ele>
        <time>2025-09-07T09:01:11Z</time>
      </trkpt>
      <trkpt lat="44.88106" lon="3.9138">
        <ele>861.96</ele>
        <time>2025-09-07T09:01:39Z</time>
      </trkpt>
      <trkpt lat="44.88103" lon="3.91359">
        <ele>862.92</ele>
        <time>2025-09-07T09:01:52Z</time>
      </trkpt>
      <trkpt lat="44.88081" lon="3.91329">
        <ele>858.59</ele>
        <time>2025-09-07T09:02:16Z</time>
      </trkpt>
      <trkpt lat="44.88073" lon="3.91323">
        <ele>857.15</ele>
        <time>2025-09-07T09:02:21Z</time>
      </trkpt>
      <trkpt lat="44.88041" lon="3.91291">
        <ele>845.14</ele>
        <time>2025-09-07T09:02:45Z</time>
      </trkpt>
      <trkpt lat="44.88009" lon="3.91302">
        <ele>836.96</ele>
        <time>2025-09-07T09:03:06Z</time>
      </trkpt>
      <trkpt lat="44.87979" lon="3.91302">
        <ele>834.56</ele>
        <time>2025-09-07T09:03:27Z</time>
      </trkpt>
      <trkpt lat="44.87951" lon="3.91313">
        <ele>837.45</ele>
        <time>2025-09-07T09:03:43Z</time>
      </trkpt>
      <trkpt lat="44.87921" lon="3.91339">
        <ele>833.6</ele>
        <time>2025-09-07T09:04:07Z</time>
      </trkpt>
      <trkpt lat="44.87914" lon="3.91374">
        <ele>852.35</ele>
        <time>2025-09-07T09:04:21Z</time>
      </trkpt>
      <trkpt lat="44.8791" lon="3.91386">
        <ele>858.11</ele>
        <time>2025-09-07T09:04:35Z</time>
      </trkpt>
      <trkpt lat="44.87901" lon="3.91397">
        <ele>862.44</ele>
        <time>2025-09-07T09:04:50Z</time>
      </trkpt>
      <trkpt lat="44.87886" lon="3.91405">
        <ele>867.25</ele>
        <time>2025-09-07T09:05:05Z</time>
      </trkpt>
      <trkpt lat="44.87873" lon="3.91418">
        <ele>872.53</ele>
        <time>2025-09-07T09:05:19Z</time>
      </trkpt>
      <trkpt lat="44.87855" lon="3.9143">
        <ele>875.42</ele>
        <time>2025-09-07T09:05:38Z</time>
      </trkpt>
      <trkpt lat="44.87841" lon="3.91441">
        <ele>877.82</ele>
        <time>2025-09-07T09:05:53Z</time>
      </trkpt>
      <trkpt lat="44.87825" lon="3.91449">
        <ele>877.82</ele>
        <time>2025-09-07T09:06:06Z</time>
      </trkpt>
      <trkpt lat="44.8781" lon="3.91456">
        <ele>881.19</ele>
        <time>2025-09-07T09:06:24Z</time>
      </trkpt>
      <trkpt lat="44.87794" lon="3.91455">
        <ele>884.55</ele>
        <time>2025-09-07T09:06:43Z</time>
      </trkpt>
      <trkpt lat="44.87776" lon="3.91462">
        <ele>885.51</ele>
        <time>2025-09-07T09:07:03Z</time>
      </trkpt>
      <trkpt lat="44.87769" lon="3.91456">
        <ele>885.51</ele>
        <time>2025-09-07T09:07:24Z</time>
      </trkpt>
      <trkpt lat="44.87752" lon="3.9145">
        <ele>885.99</ele>
        <time>2025-09-07T09:07:46Z</time>
      </trkpt>
      <trkpt lat="44.87742" lon="3.91425">
        <ele>887.43</ele>
        <time>2025-09-07T09:08:10Z</time>
      </trkpt>
      <trkpt lat="44.87744" lon="3.91399">
        <ele>896.57</ele>
        <time>2025-09-07T09:08:31Z</time>
      </trkpt>
      <trkpt lat="44.87735" lon="3.91368">
        <ele>906.66</ele>
        <time>2025-09-07T09:08:54Z</time>
      </trkpt>
      <trkpt lat="44.8772" lon="3.91344">
        <ele>909.06</ele>
        <time>2025-09-07T09:09:16Z</time>
      </trkpt>
      <trkpt lat="44.87707" lon="3.91324">
        <ele>912.43</ele>
        <time>2025-09-07T09:09:38Z</time>
      </trkpt>
      <trkpt lat="44.87698" lon="3.913">
        <ele>918.68</ele>
        <time>2025-09-07T09:10:01Z</time>
      </trkpt>
      <trkpt lat="44.87688" lon="3.91281">
        <ele>925.41</ele>
        <time>2025-09-07T09:10:25Z</time>
      </trkpt>
      <trkpt lat="44.87683" lon="3.91266">
        <ele>927.33</ele>
        <time>2025-09-07T09:10:45Z</time>
      </trkpt>
      <trkpt lat="44.87665" lon="3.9125">
        <ele>935.02</ele>
        <time>2025-09-07T09:11:08Z</time>
      </trkpt>
      <trkpt lat="44.87645" lon="3.91235">
        <ele>937.9</ele>
        <time>2025-09-07T09:11:34Z</time>
      </trkpt>
      <trkpt lat="44.87638" lon="3.9121">
        <ele>943.67</ele>
        <time>2025-09-07T09:11:56Z</time>
      </trkpt>
      <trkpt lat="44.87639" lon="3.91182">
        <ele>946.56</ele>
        <time>2025-09-07T09:12:14Z</time>
      </trkpt>
      <trkpt lat="44.87638" lon="3.91145">
        <ele>944.63</ele>
        <time>2025-09-07T09:12:37Z</time>
      </trkpt>
      <trkpt lat="44.87629" lon="3.91138">
        <ele>947.04</ele>
        <time>2025-09-07T09:12:58Z</time>
      </trkpt>
      <trkpt lat="44.87626" lon="3.91139">
        <ele>945.59</ele>
        <time>2025-09-07T09:13:21Z</time>
      </trkpt>
      <trkpt lat="44.87625" lon="3.91136">
        <ele>943.19</ele>
        <time>2025-09-07T09:13:51Z</time>
      </trkpt>
      <trkpt lat="44.87628" lon="3.91136">
        <ele>945.11</ele>
        <time>2025-09-07T09:14:14Z</time>
      </trkpt>
      <trkpt lat="44.87626" lon="3.91137">
        <ele>946.56</ele>
        <time>2025-09-07T09:14:37Z</time>
      </trkpt>
      <trkpt lat="44.87627" lon="3.91135">
        <ele>949.44</ele>
        <time>2025-09-07T09:14:57Z</time>
      </trkpt>
      <trkpt lat="44.87625" lon="3.91136">
        <ele>948.96</ele>
        <time>2025-09-07T09:15:10Z</time>
      </trkpt>
      <trkpt lat="44.87626" lon="3.91131">
        <ele>946.07</ele>
        <time>2025-09-07T09:15:34Z</time>
      </trkpt>
      <trkpt lat="44.87623" lon="3.91127">
        <ele>946.07</ele>
        <time>2025-09-07T09:15:53Z</time>
      </trkpt>
      <trkpt lat="44.87614" lon="3.91118">
        <ele>946.56</ele>
        <time>2025-09-07T09:16:07Z</time>
      </trkpt>
      <trkpt lat="44.87599" lon="3.91095">
        <ele>948</ele>
        <time>2025-09-07T09:16:30Z</time>
      </trkpt>
      <trkpt lat="44.87581" lon="3.91062">
        <ele>952.8</ele>
        <time>2025-09-07T09:16:57Z</time>
      </trkpt>
      <trkpt lat="44.87567" lon="3.91037">
        <ele>954.73</ele>
        <time>2025-09-07T09:17:19Z</time>
      </trkpt>
      <trkpt lat="44.87555" lon="3.91017">
        <ele>954.73</ele>
        <time>2025-09-07T09:17:36Z</time>
      </trkpt>
      <trkpt lat="44.87533" lon="3.90988">
        <ele>951.36</ele>
        <time>2025-09-07T09:18:01Z</time>
      </trkpt>
      <trkpt lat="44.8751" lon="3.90956">
        <ele>950.4</ele>
        <time>2025-09-07T09:18:25Z</time>
      </trkpt>
      <trkpt lat="44.87501" lon="3.90942">
        <ele>950.88</ele>
        <time>2025-09-07T09:18:46Z</time>
      </trkpt>
      <trkpt lat="44.87491" lon="3.90929">
        <ele>951.36</ele>
        <time>2025-09-07T09:19:14Z</time>
      </trkpt>
      <trkpt lat="44.87464" lon="3.90902">
        <ele>953.28</ele>
        <time>2025-09-07T09:19:39Z</time>
      </trkpt>
      <trkpt lat="44.87432" lon="3.90875">
        <ele>952.8</ele>
        <time>2025-09-07T09:20:04Z</time>
      </trkpt>
      <trkpt lat="44.87431" lon="3.90876">
        <ele>952.32</ele>
        <time>2025-09-07T09:20:05Z</time>
      </trkpt>
      <trkpt lat="44.8741" lon="3.90918">
        <ele>953.77</ele>
        <time>2025-09-07T09:20:29Z</time>
      </trkpt>
      <trkpt lat="44.87385" lon="3.90955">
        <ele>952.8</ele>
        <time>2025-09-07T09:20:55Z</time>
      </trkpt>
      <trkpt lat="44.87364" lon="3.90988">
        <ele>949.92</ele>
        <time>2025-09-07T09:21:18Z</time>
      </trkpt>
      <trkpt lat="44.87332" lon="3.91009">
        <ele>950.4</ele>
        <time>2025-09-07T09:21:41Z</time>
      </trkpt>
      <trkpt lat="44.873" lon="3.91028">
        <ele>950.88</ele>
        <time>2025-09-07T09:22:05Z</time>
      </trkpt>
      <trkpt lat="44.87281" lon="3.9105">
        <ele>948.96</ele>
        <time>2025-09-07T09:22:22Z</time>
      </trkpt>
      <trkpt lat="44.8727" lon="3.91084">
        <ele>943.67</ele>
        <time>2025-09-07T09:22:42Z</time>
      </trkpt>
      <trkpt lat="44.87248" lon="3.91134">
        <ele>939.83</ele>
        <time>2025-09-07T09:23:09Z</time>
      </trkpt>
      <trkpt lat="44.87248" lon="3.91145">
        <ele>940.31</ele>
        <time>2025-09-07T09:23:25Z</time>
      </trkpt>
      <trkpt lat="44.87247" lon="3.91165">
        <ele>937.42</ele>
        <time>2025-09-07T09:23:45Z</time>
      </trkpt>
      <trkpt lat="44.8724" lon="3.91199">
        <ele>936.94</ele>
        <time>2025-09-07T09:24:09Z</time>
      </trkpt>
      <trkpt lat="44.87235" lon="3.9122">
        <ele>935.02</ele>
        <time>2025-09-07T09:24:30Z</time>
      </trkpt>
      <trkpt lat="44.87227" lon="3.91248">
        <ele>934.54</ele>
        <time>2025-09-07T09:24:53Z</time>
      </trkpt>
      <trkpt lat="44.8723" lon="3.91275">
        <ele>934.54</ele>
        <time>2025-09-07T09:25:16Z</time>
      </trkpt>
      <trkpt lat="44.8724" lon="3.91301">
        <ele>935.98</ele>
        <time>2025-09-07T09:25:42Z</time>
      </trkpt>
      <trkpt lat="44.87234" lon="3.91334">
        <ele>935.5</ele>
        <time>2025-09-07T09:26:03Z</time>
      </trkpt>
      <trkpt lat="44.87225" lon="3.91358">
        <ele>932.14</ele>
        <time>2025-09-07T09:26:23Z</time>
      </trkpt>
      <trkpt lat="44.87214" lon="3.91398">
        <ele>926.85</ele>
        <time>2025-09-07T09:26:47Z</time>
      </trkpt>
      <trkpt lat="44.87202" lon="3.91426">
        <ele>925.89</ele>
        <time>2025-09-07T09:27:10Z</time>
      </trkpt>
      <trkpt lat="44.87182" lon="3.9145">
        <ele>922.04</ele>
        <time>2025-09-07T09:27:31Z</time>
      </trkpt>
      <trkpt lat="44.87168" lon="3.91466">
        <ele>916.75</ele>
        <time>2025-09-07T09:27:51Z</time>
      </trkpt>
      <trkpt lat="44.87149" lon="3.91487">
        <ele>910.03</ele>
        <time>2025-09-07T09:28:13Z</time>
      </trkpt>
      <trkpt lat="44.87135" lon="3.91504">
        <ele>903.78</ele>
        <time>2025-09-07T09:28:37Z</time>
      </trkpt>
      <trkpt lat="44.87108" lon="3.91548">
        <ele>895.12</ele>
        <time>2025-09-07T09:29:06Z</time>
      </trkpt>
      <trkpt lat="44.87087" lon="3.91565">
        <ele>894.16</ele>
        <time>2025-09-07T09:29:29Z</time>
      </trkpt>
      <trkpt lat="44.87068" lon="3.9159">
        <ele>887.43</ele>
        <time>2025-09-07T09:29:54Z</time>
      </trkpt>
      <trkpt lat="44.87067" lon="3.91618">
        <ele>883.59</ele>
        <time>2025-09-07T09:30:17Z</time>
      </trkpt>
      <trkpt lat="44.87055" lon="3.91645">
        <ele>878.78</ele>
        <time>2025-09-07T09:30:41Z</time>
      </trkpt>
      <trkpt lat="44.87059" lon="3.91665">
        <ele>875.42</ele>
        <time>2025-09-07T09:31:01Z</time>
      </trkpt>
      <trkpt lat="44.87051" lon="3.91687">
        <ele>871.09</ele>
        <time>2025-09-07T09:31:23Z</time>
      </trkpt>
      <trkpt lat="44.87026" lon="3.91701">
        <ele>863.88</ele>
        <time>2025-09-07T09:31:46Z</time>
      </trkpt>
      <trkpt lat="44.87002" lon="3.91711">
        <ele>858.59</ele>
        <time>2025-09-07T09:32:08Z</time>
      </trkpt>
      <trkpt lat="44.86971" lon="3.91721">
        <ele>853.31</ele>
        <time>2025-09-07T09:32:33Z</time>
      </trkpt>
      <trkpt lat="44.86951" lon="3.91713">
        <ele>852.83</ele>
        <time>2025-09-07T09:32:55Z</time>
      </trkpt>
      <trkpt lat="44.86923" lon="3.91711">
        <ele>848.02</ele>
        <time>2025-09-07T09:33:15Z</time>
      </trkpt>
      <trkpt lat="44.86884" lon="3.91719">
        <ele>842.73</ele>
        <time>2025-09-07T09:33:39Z</time>
      </trkpt>
      <trkpt lat="44.86871" lon="3.91739">
        <ele>839.85</ele>
        <time>2025-09-07T09:34:03Z</time>
      </trkpt>
      <trkpt lat="44.86869" lon="3.91737">
        <ele>841.77</ele>
        <time>2025-09-07T09:34:26Z</time>
      </trkpt>
      <trkpt lat="44.86844" lon="3.91761">
        <ele>843.21</ele>
        <time>2025-09-07T09:34:50Z</time>
      </trkpt>
      <trkpt lat="44.86833" lon="3.91783">
        <ele>843.21</ele>
        <time>2025-09-07T09:35:08Z</time>
      </trkpt>
      <trkpt lat="44.86833" lon="3.91789">
        <ele>841.29</ele>
        <time>2025-09-07T09:35:26Z</time>
      </trkpt>
      <trkpt lat="44.86834" lon="3.91789">
        <ele>841.29</ele>
        <time>2025-09-07T09:36:03Z</time>
      </trkpt>
      <trkpt lat="44.86832" lon="3.91792">
        <ele>843.21</ele>
        <time>2025-09-07T09:36:41Z</time>
      </trkpt>
      <trkpt lat="44.86835" lon="3.91793">
        <ele>845.62</ele>
        <time>2025-09-07T09:37:01Z</time>
      </trkpt>
      <trkpt lat="44.86834" lon="3.91789">
        <ele>844.66</ele>
        <time>2025-09-07T09:37:22Z</time>
      </trkpt>
      <trkpt lat="44.86834" lon="3.91795">
        <ele>846.58</ele>
        <time>2025-09-07T09:37:52Z</time>
      </trkpt>
      <trkpt lat="44.86836" lon="3.91793">
        <ele>847.54</ele>
        <time>2025-09-07T09:38:23Z</time>
      </trkpt>
      <trkpt lat="44.86833" lon="3.91793">
        <ele>847.06</ele>
        <time>2025-09-07T09:38:57Z</time>
      </trkpt>
      <trkpt lat="44.86834" lon="3.91795">
        <ele>848.02</ele>
        <time>2025-09-07T09:39:27Z</time>
      </trkpt>
      <trkpt lat="44.86836" lon="3.91795">
        <ele>849.94</ele>
        <time>2025-09-07T09:39:55Z</time>
      </trkpt>
      <trkpt lat="44.86837" lon="3.9179">
        <ele>848.98</ele>
        <time>2025-09-07T09:40:21Z</time>
      </trkpt>
      <trkpt lat="44.86839" lon="3.91792">
        <ele>848.02</ele>
        <time>2025-09-07T09:40:49Z</time>
      </trkpt>
      <trkpt lat="44.86843" lon="3.91792">
        <ele>850.42</ele>
        <time>2025-09-07T09:41:18Z</time>
      </trkpt>
      <trkpt lat="44.86837" lon="3.91792">
        <ele>851.87</ele>
        <time>2025-09-07T09:41:48Z</time>
      </trkpt>
      <trkpt lat="44.86836" lon="3.91796">
        <ele>854.75</ele>
        <time>2025-09-07T09:42:20Z</time>
      </trkpt>
      <trkpt lat="44.86837" lon="3.91786">
        <ele>853.31</ele>
        <time>2025-09-07T09:42:46Z</time>
      </trkpt>
      <trkpt lat="44.8683" lon="3.91774">
        <ele>852.83</ele>
        <time>2025-09-07T09:43:06Z</time>
      </trkpt>
      <trkpt lat="44.86828" lon="3.91771">
        <ele>852.83</ele>
        <time>2025-09-07T09:43:08Z</time>
      </trkpt>
      <trkpt lat="44.86815" lon="3.91758">
        <ele>848.5</ele>
        <time>2025-09-07T09:43:31Z</time>
      </trkpt>
      <trkpt lat="44.86786" lon="3.91776">
        <ele>843.69</ele>
        <time>2025-09-07T09:43:51Z</time>
      </trkpt>
      <trkpt lat="44.86759" lon="3.91782">
        <ele>837.45</ele>
        <time>2025-09-07T09:44:11Z</time>
      </trkpt>
      <trkpt lat="44.86738" lon="3.91803">
        <ele>832.16</ele>
        <time>2025-09-07T09:44:34Z</time>
      </trkpt>
      <trkpt lat="44.86717" lon="3.91829">
        <ele>829.27</ele>
        <time>2025-09-07T09:44:58Z</time>
      </trkpt>
      <trkpt lat="44.86711" lon="3.91845">
        <ele>831.2</ele>
        <time>2025-09-07T09:45:04Z</time>
      </trkpt>
      <trkpt lat="44.86712" lon="3.91871">
        <ele>832.16</ele>
        <time>2025-09-07T09:45:24Z</time>
      </trkpt>
      <trkpt lat="44.86697" lon="3.9192">
        <ele>830.72</ele>
        <time>2025-09-07T09:45:49Z</time>
      </trkpt>
      <trkpt lat="44.86684" lon="3.91975">
        <ele>825.91</ele>
        <time>2025-09-07T09:46:15Z</time>
      </trkpt>
      <trkpt lat="44.86669" lon="3.92011">
        <ele>822.55</ele>
        <time>2025-09-07T09:46:39Z</time>
      </trkpt>
      <trkpt lat="44.86657" lon="3.92026">
        <ele>821.58</ele>
        <time>2025-09-07T09:46:56Z</time>
      </trkpt>
      <trkpt lat="44.86633" lon="3.92062">
        <ele>819.18</ele>
        <time>2025-09-07T09:47:18Z</time>
      </trkpt>
      <trkpt lat="44.8662" lon="3.92077">
        <ele>812.45</ele>
        <time>2025-09-07T09:47:38Z</time>
      </trkpt>
      <trkpt lat="44.86608" lon="3.92097">
        <ele>801.88</ele>
        <time>2025-09-07T09:48:02Z</time>
      </trkpt>
      <trkpt lat="44.86587" lon="3.92113">
        <ele>785.05</ele>
        <time>2025-09-07T09:48:23Z</time>
      </trkpt>
      <trkpt lat="44.86554" lon="3.92096">
        <ele>778.81</ele>
        <time>2025-09-07T09:48:43Z</time>
      </trkpt>
      <trkpt lat="44.86557" lon="3.92109">
        <ele>781.21</ele>
        <time>2025-09-07T09:49:03Z</time>
      </trkpt>
      <trkpt lat="44.86561" lon="3.92131">
        <ele>783.13</ele>
        <time>2025-09-07T09:49:23Z</time>
      </trkpt>
      <trkpt lat="44.86562" lon="3.92133">
        <ele>783.13</ele>
        <time>2025-09-07T09:49:24Z</time>
      </trkpt>
      <trkpt lat="44.8658" lon="3.92175">
        <ele>786.98</ele>
        <time>2025-09-07T09:49:50Z</time>
      </trkpt>
      <trkpt lat="44.86589" lon="3.92204">
        <ele>793.22</ele>
        <time>2025-09-07T09:50:06Z</time>
      </trkpt>
      <trkpt lat="44.86596" lon="3.92224">
        <ele>793.71</ele>
        <time>2025-09-07T09:50:30Z</time>
      </trkpt>
      <trkpt lat="44.86592" lon="3.92221">
        <ele>794.19</ele>
        <time>2025-09-07T09:50:34Z</time>
      </trkpt>
      <trkpt lat="44.8658" lon="3.92206">
        <ele>820.14</ele>
        <time>2025-09-07T09:50:45Z</time>
      </trkpt>
      <trkpt lat="44.86575" lon="3.92205">
        <ele>823.51</ele>
        <time>2025-09-07T09:50:50Z</time>
      </trkpt>
      <trkpt lat="44.86569" lon="3.92203">
        <ele>826.39</ele>
        <time>2025-09-07T09:51:02Z</time>
      </trkpt>
      <trkpt lat="44.86563" lon="3.92207">
        <ele>828.79</ele>
        <time>2025-09-07T09:51:09Z</time>
      </trkpt>
      <trkpt lat="44.8656" lon="3.9221">
        <ele>832.1</ele>
      </trkpt>
      <trkpt lat="44.86556" lon="3.92214">
        <ele>833.5</ele>
      </trkpt>
      <trkpt lat="44.86532" lon="3.92262">
        <ele>836.4</ele>
      </trkpt>
      <trkpt lat="44.86539" lon="3.92266">
        <ele>837.3</ele>
      </trkpt>
      <trkpt lat="44.86542" lon="3.92268">
        <ele>837.7</ele>
      </trkpt>
      <trkpt lat="44.86547" lon="3.92271">
        <ele>838.4</ele>
      </trkpt>
      <trkpt lat="44.86554" lon="3.92276">
        <ele>839.7</ele>
      </trkpt>
      <trkpt lat="44.86576" lon="3.92284">
        <ele>841.5</ele>
      </trkpt>
      <trkpt lat="44.86587" lon="3.923">
        <ele>843.8</ele>
      </trkpt>
      <trkpt lat="44.86576" lon="3.92284">
        <ele>841.5</ele>
      </trkpt>
      <trkpt lat="44.86554" lon="3.92276">
        <ele>839.7</ele>
      </trkpt>
      <trkpt lat="44.86547" lon="3.92271">
        <ele>838.4</ele>
      </trkpt>
      <trkpt lat="44.86542" lon="3.92268">
        <ele>837.7</ele>
      </trkpt>
      <trkpt lat="44.86539" lon="3.92266">
        <ele>837.3</ele>
      </trkpt>
      <trkpt lat="44.86532" lon="3.92262">
        <ele>836.4</ele>
      </trkpt>
      <trkpt lat="44.86517" lon="3.92268">
        <ele>835.5</ele>
      </trkpt>
      <trkpt lat="44.86517" lon="3.92262">
        <ele>835.9</ele>
      </trkpt>
      <trkpt lat="44.8651" lon="3.92248">
        <ele>837.3</ele>
      </trkpt>
      <trkpt lat="44.865" lon="3.92237">
        <ele>838</ele>
      </trkpt>
      <trkpt lat="44.86495" lon="3.92235">
        <ele>838.6</ele>
      </trkpt>
      <trkpt lat="44.86491" lon="3.92227">
        <ele>839.2</ele>
      </trkpt>
      <trkpt lat="44.86477" lon="3.92217">
        <ele>841.3</ele>
      </trkpt>
      <trkpt lat="44.86431" lon="3.92204">
        <ele>848.9</ele>
      </trkpt>
      <trkpt lat="44.8642" lon="3.92199">
        <ele>864.36</ele>
        <time>2025-09-07T10:36:23Z</time>
      </trkpt>
      <trkpt lat="44.86397" lon="3.9218">
        <ele>868.21</ele>
        <time>2025-09-07T10:36:46Z</time>
      </trkpt>
      <trkpt lat="44.86381" lon="3.92168">
        <ele>872.05</ele>
        <time>2025-09-07T10:37:07Z</time>
      </trkpt>
      <trkpt lat="44.86365" lon="3.92152">
        <ele>876.86</ele>
        <time>2025-09-07T10:37:29Z</time>
      </trkpt>
      <trkpt lat="44.86352" lon="3.92139">
        <ele>879.26</ele>
        <time>2025-09-07T10:37:51Z</time>
      </trkpt>
      <trkpt lat="44.86333" lon="3.92139">
        <ele>884.07</ele>
        <time>2025-09-07T10:38:15Z</time>
      </trkpt>
      <trkpt lat="44.86316" lon="3.92136">
        <ele>889.84</ele>
        <time>2025-09-07T10:38:35Z</time>
      </trkpt>
      <trkpt lat="44.86289" lon="3.92134">
        <ele>894.64</ele>
        <time>2025-09-07T10:39:01Z</time>
      </trkpt>
      <trkpt lat="44.86267" lon="3.92136">
        <ele>900.41</ele>
        <time>2025-09-07T10:39:23Z</time>
      </trkpt>
      <trkpt lat="44.86241" lon="3.92136">
        <ele>901.85</ele>
        <time>2025-09-07T10:39:45Z</time>
      </trkpt>
      <trkpt lat="44.86217" lon="3.92131">
        <ele>906.18</ele>
        <time>2025-09-07T10:40:05Z</time>
      </trkpt>
      <trkpt lat="44.86195" lon="3.92123">
        <ele>910.99</ele>
        <time>2025-09-07T10:40:24Z</time>
      </trkpt>
      <trkpt lat="44.86175" lon="3.92107">
        <ele>915.31</ele>
        <time>2025-09-07T10:40:44Z</time>
      </trkpt>
      <trkpt lat="44.86163" lon="3.92083">
        <ele>913.87</ele>
        <time>2025-09-07T10:41:03Z</time>
      </trkpt>
      <trkpt lat="44.8616" lon="3.92079">
        <ele>913.87</ele>
        <time>2025-09-07T10:41:06Z</time>
      </trkpt>
      <trkpt lat="44.86159" lon="3.92078">
        <ele>913.87</ele>
        <time>2025-09-07T10:41:07Z</time>
      </trkpt>
      <trkpt lat="44.86158" lon="3.92076">
        <ele>913.87</ele>
        <time>2025-09-07T10:41:08Z</time>
      </trkpt>
      <trkpt lat="44.86141" lon="3.92055">
        <ele>912.91</ele>
        <time>2025-09-07T10:41:25Z</time>
      </trkpt>
      <trkpt lat="44.86124" lon="3.92027">
        <ele>917.24</ele>
        <time>2025-09-07T10:41:47Z</time>
      </trkpt>
      <trkpt lat="44.86111" lon="3.91998">
        <ele>917.72</ele>
        <time>2025-09-07T10:42:07Z</time>
      </trkpt>
      <trkpt lat="44.86099" lon="3.91981">
        <ele>920.12</ele>
        <time>2025-09-07T10:42:23Z</time>
      </trkpt>
      <trkpt lat="44.86084" lon="3.91958">
        <ele>922.04</ele>
        <time>2025-09-07T10:42:42Z</time>
      </trkpt>
      <trkpt lat="44.86073" lon="3.91931">
        <ele>925.41</ele>
        <time>2025-09-07T10:43:01Z</time>
      </trkpt>
      <trkpt lat="44.86063" lon="3.91908">
        <ele>930.21</ele>
        <time>2025-09-07T10:43:18Z</time>
      </trkpt>
      <trkpt lat="44.86064" lon="3.91894">
        <ele>933.58</ele>
        <time>2025-09-07T10:43:34Z</time>
      </trkpt>
      <trkpt lat="44.86065" lon="3.91894">
        <ele>933.1</ele>
        <time>2025-09-07T10:43:36Z</time>
      </trkpt>
      <trkpt lat="44.8607" lon="3.91891">
        <ele>933.1</ele>
        <time>2025-09-07T10:43:41Z</time>
      </trkpt>
      <trkpt lat="44.86076" lon="3.91889">
        <ele>934.06</ele>
        <time>2025-09-07T10:43:48Z</time>
      </trkpt>
      <trkpt lat="44.86082" lon="3.91881">
        <ele>935.5</ele>
        <time>2025-09-07T10:43:55Z</time>
      </trkpt>
      <trkpt lat="44.86089" lon="3.9187">
        <ele>937.42</ele>
        <time>2025-09-07T10:44:04Z</time>
      </trkpt>
      <trkpt lat="44.8609" lon="3.91865">
        <ele>938.38</ele>
        <time>2025-09-07T10:44:15Z</time>
      </trkpt>
      <trkpt lat="44.86091" lon="3.91863">
        <ele>938.38</ele>
        <time>2025-09-07T10:44:17Z</time>
      </trkpt>
      <trkpt lat="44.86091" lon="3.91859">
        <ele>938.38</ele>
        <time>2025-09-07T10:44:23Z</time>
      </trkpt>
      <trkpt lat="44.861" lon="3.91841">
        <ele>939.83</ele>
        <time>2025-09-07T10:44:35Z</time>
      </trkpt>
      <trkpt lat="44.86107" lon="3.91825">
        <ele>941.27</ele>
        <time>2025-09-07T10:44:47Z</time>
      </trkpt>
      <trkpt lat="44.86115" lon="3.91809">
        <ele>942.23</ele>
        <time>2025-09-07T10:44:58Z</time>
      </trkpt>
      <trkpt lat="44.86122" lon="3.91792">
        <ele>942.71</ele>
        <time>2025-09-07T10:45:11Z</time>
      </trkpt>
      <trkpt lat="44.86122" lon="3.91788">
        <ele>943.67</ele>
        <time>2025-09-07T10:45:13Z</time>
      </trkpt>
      <trkpt lat="44.86127" lon="3.91771">
        <ele>943.19</ele>
        <time>2025-09-07T10:45:24Z</time>
      </trkpt>
      <trkpt lat="44.86132" lon="3.91757">
        <ele>943.19</ele>
        <time>2025-09-07T10:45:34Z</time>
      </trkpt>
      <trkpt lat="44.86134" lon="3.9175">
        <ele>942.71</ele>
        <time>2025-09-07T10:45:39Z</time>
      </trkpt>
      <trkpt lat="44.86134" lon="3.91748">
        <ele>942.71</ele>
        <time>2025-09-07T10:45:40Z</time>
      </trkpt>
      <trkpt lat="44.86137" lon="3.91727">
        <ele>944.63</ele>
        <time>2025-09-07T10:45:50Z</time>
      </trkpt>
      <trkpt lat="44.8614" lon="3.9171">
        <ele>945.11</ele>
        <time>2025-09-07T10:45:59Z</time>
      </trkpt>
      <trkpt lat="44.86143" lon="3.91693">
        <ele>945.59</ele>
        <time>2025-09-07T10:46:09Z</time>
      </trkpt>
      <trkpt lat="44.86143" lon="3.91674">
        <ele>946.07</ele>
        <time>2025-09-07T10:46:18Z</time>
      </trkpt>
      <trkpt lat="44.86145" lon="3.91656">
        <ele>945.11</ele>
        <time>2025-09-07T10:46:28Z</time>
      </trkpt>
      <trkpt lat="44.86147" lon="3.91639">
        <ele>947.04</ele>
        <time>2025-09-07T10:46:38Z</time>
      </trkpt>
      <trkpt lat="44.8615" lon="3.9161">
        <ele>949.92</ele>
        <time>2025-09-07T10:46:51Z</time>
      </trkpt>
      <trkpt lat="44.86151" lon="3.91584">
        <ele>953.28</ele>
        <time>2025-09-07T10:47:08Z</time>
      </trkpt>
      <trkpt lat="44.86158" lon="3.91544">
        <ele>955.69</ele>
        <time>2025-09-07T10:47:31Z</time>
      </trkpt>
      <trkpt lat="44.86166" lon="3.91501">
        <ele>956.65</ele>
        <time>2025-09-07T10:47:54Z</time>
      </trkpt>
      <trkpt lat="44.86175" lon="3.9146">
        <ele>954.25</ele>
        <time>2025-09-07T10:48:17Z</time>
      </trkpt>
      <trkpt lat="44.86186" lon="3.91403">
        <ele>952.8</ele>
        <time>2025-09-07T10:48:46Z</time>
      </trkpt>
      <trkpt lat="44.86189" lon="3.91362">
        <ele>954.73</ele>
        <time>2025-09-07T10:49:07Z</time>
      </trkpt>
      <trkpt lat="44.86198" lon="3.91325">
        <ele>958.09</ele>
        <time>2025-09-07T10:49:30Z</time>
      </trkpt>
      <trkpt lat="44.86209" lon="3.91284">
        <ele>959.05</ele>
        <time>2025-09-07T10:49:51Z</time>
      </trkpt>
      <trkpt lat="44.86215" lon="3.91252">
        <ele>962.42</ele>
        <time>2025-09-07T10:50:10Z</time>
      </trkpt>
      <trkpt lat="44.86224" lon="3.91209">
        <ele>961.46</ele>
        <time>2025-09-07T10:50:30Z</time>
      </trkpt>
      <trkpt lat="44.86231" lon="3.91168">
        <ele>962.42</ele>
        <time>2025-09-07T10:50:51Z</time>
      </trkpt>
      <trkpt lat="44.86241" lon="3.91121">
        <ele>960.01</ele>
        <time>2025-09-07T10:51:15Z</time>
      </trkpt>
      <trkpt lat="44.86251" lon="3.91084">
        <ele>960.98</ele>
        <time>2025-09-07T10:51:36Z</time>
      </trkpt>
      <trkpt lat="44.86251" lon="3.91059">
        <ele>960.01</ele>
        <time>2025-09-07T10:51:48Z</time>
      </trkpt>
      <trkpt lat="44.86247" lon="3.91051">
        <ele>960.49</ele>
        <time>2025-09-07T10:51:54Z</time>
      </trkpt>
      <trkpt lat="44.86247" lon="3.91049">
        <ele>960.49</ele>
        <time>2025-09-07T10:51:55Z</time>
      </trkpt>
      <trkpt lat="44.86249" lon="3.9103">
        <ele>960.98</ele>
        <time>2025-09-07T10:52:07Z</time>
      </trkpt>
      <trkpt lat="44.86255" lon="3.9101">
        <ele>960.49</ele>
        <time>2025-09-07T10:52:21Z</time>
      </trkpt>
      <trkpt lat="44.86261" lon="3.90984">
        <ele>961.46</ele>
        <time>2025-09-07T10:52:34Z</time>
      </trkpt>
      <trkpt lat="44.86262" lon="3.90962">
        <ele>960.98</ele>
        <time>2025-09-07T10:52:45Z</time>
      </trkpt>
      <trkpt lat="44.86264" lon="3.90939">
        <ele>961.46</ele>
        <time>2025-09-07T10:52:59Z</time>
      </trkpt>
      <trkpt lat="44.86265" lon="3.90932">
        <ele>961.94</ele>
        <time>2025-09-07T10:53:02Z</time>
      </trkpt>
      <trkpt lat="44.86273" lon="3.90906">
        <ele>963.38</ele>
        <time>2025-09-07T10:53:19Z</time>
      </trkpt>
      <trkpt lat="44.86278" lon="3.9088">
        <ele>966.26</ele>
        <time>2025-09-07T10:53:32Z</time>
      </trkpt>
      <trkpt lat="44.86279" lon="3.90846">
        <ele>969.15</ele>
        <time>2025-09-07T10:53:49Z</time>
      </trkpt>
      <trkpt lat="44.86281" lon="3.90826">
        <ele>969.63</ele>
        <time>2025-09-07T10:54:01Z</time>
      </trkpt>
      <trkpt lat="44.86287" lon="3.90804">
        <ele>972.03</ele>
        <time>2025-09-07T10:54:14Z</time>
      </trkpt>
      <trkpt lat="44.86292" lon="3.90777">
        <ele>975.39</ele>
        <time>2025-09-07T10:54:28Z</time>
      </trkpt>
      <trkpt lat="44.86295" lon="3.90754">
        <ele>975.39</ele>
        <time>2025-09-07T10:54:41Z</time>
      </trkpt>
      <trkpt lat="44.86298" lon="3.90727">
        <ele>974.91</ele>
        <time>2025-09-07T10:54:54Z</time>
      </trkpt>
      <trkpt lat="44.863" lon="3.90698">
        <ele>977.32</ele>
        <time>2025-09-07T10:55:09Z</time>
      </trkpt>
      <trkpt lat="44.86303" lon="3.90673">
        <ele>978.28</ele>
        <time>2025-09-07T10:55:22Z</time>
      </trkpt>
      <trkpt lat="44.86308" lon="3.90649">
        <ele>978.28</ele>
        <time>2025-09-07T10:55:35Z</time>
      </trkpt>
      <trkpt lat="44.8631" lon="3.90628">
        <ele>978.76</ele>
        <time>2025-09-07T10:55:47Z</time>
      </trkpt>
      <trkpt lat="44.86312" lon="3.9061">
        <ele>978.28</ele>
        <time>2025-09-07T10:55:58Z</time>
      </trkpt>
      <trkpt lat="44.86316" lon="3.90586">
        <ele>978.76</ele>
        <time>2025-09-07T10:56:10Z</time>
      </trkpt>
      <trkpt lat="44.86318" lon="3.90566">
        <ele>979.24</ele>
        <time>2025-09-07T10:56:22Z</time>
      </trkpt>
      <trkpt lat="44.86321" lon="3.90545">
        <ele>980.2</ele>
        <time>2025-09-07T10:56:34Z</time>
      </trkpt>
      <trkpt lat="44.86327" lon="3.90527">
        <ele>982.12</ele>
        <time>2025-09-07T10:56:45Z</time>
      </trkpt>
      <trkpt lat="44.86334" lon="3.90509">
        <ele>984.05</ele>
        <time>2025-09-07T10:56:56Z</time>
      </trkpt>
      <trkpt lat="44.86335" lon="3.90507">
        <ele>985.01</ele>
        <time>2025-09-07T10:56:58Z</time>
      </trkpt>
      <trkpt lat="44.86336" lon="3.90507">
        <ele>985.01</ele>
        <time>2025-09-07T10:56:59Z</time>
      </trkpt>
      <trkpt lat="44.86336" lon="3.90505">
        <ele>985.49</ele>
        <time>2025-09-07T10:57:00Z</time>
      </trkpt>
      <trkpt lat="44.8634" lon="3.90492">
        <ele>987.89</ele>
        <time>2025-09-07T10:57:10Z</time>
      </trkpt>
      <trkpt lat="44.86342" lon="3.90484">
        <ele>989.81</ele>
        <time>2025-09-07T10:57:19Z</time>
      </trkpt>
      <trkpt lat="44.86343" lon="3.90482">
        <ele>989.81</ele>
        <time>2025-09-07T10:57:20Z</time>
      </trkpt>
      <trkpt lat="44.86345" lon="3.90479">
        <ele>990.3</ele>
        <time>2025-09-07T10:57:23Z</time>
      </trkpt>
      <trkpt lat="44.86345" lon="3.90477">
        <ele>990.3</ele>
        <time>2025-09-07T10:57:24Z</time>
      </trkpt>
      <trkpt lat="44.86346" lon="3.90475">
        <ele>990.3</ele>
        <time>2025-09-07T10:57:25Z</time>
      </trkpt>
      <trkpt lat="44.86346" lon="3.90472">
        <ele>990.78</ele>
        <time>2025-09-07T10:57:28Z</time>
      </trkpt>
      <trkpt lat="44.86347" lon="3.90471">
        <ele>990.78</ele>
        <time>2025-09-07T10:57:29Z</time>
      </trkpt>
      <trkpt lat="44.86355" lon="3.90458">
        <ele>989.33</ele>
        <time>2025-09-07T10:57:39Z</time>
      </trkpt>
      <trkpt lat="44.86355" lon="3.90456">
        <ele>988.85</ele>
        <time>2025-09-07T10:57:40Z</time>
      </trkpt>
      <trkpt lat="44.86356" lon="3.90454">
        <ele>988.37</ele>
        <time>2025-09-07T10:57:41Z</time>
      </trkpt>
      <trkpt lat="44.86358" lon="3.90452">
        <ele>988.37</ele>
        <time>2025-09-07T10:57:42Z</time>
      </trkpt>
      <trkpt lat="44.8636" lon="3.90447">
        <ele>988.37</ele>
        <time>2025-09-07T10:57:46Z</time>
      </trkpt>
      <trkpt lat="44.86369" lon="3.90426">
        <ele>987.41</ele>
        <time>2025-09-07T10:57:59Z</time>
      </trkpt>
      <trkpt lat="44.86372" lon="3.90421">
        <ele>985.97</ele>
        <time>2025-09-07T10:58:10Z</time>
      </trkpt>
      <trkpt lat="44.86379" lon="3.90408">
        <ele>985.97</ele>
        <time>2025-09-07T10:58:19Z</time>
      </trkpt>
      <trkpt lat="44.86386" lon="3.90392">
        <ele>987.41</ele>
        <time>2025-09-07T10:58:28Z</time>
      </trkpt>
      <trkpt lat="44.8639" lon="3.90376">
        <ele>990.78</ele>
        <time>2025-09-07T10:58:38Z</time>
      </trkpt>
      <trkpt lat="44.86396" lon="3.90358">
        <ele>996.06</ele>
        <time>2025-09-07T10:58:49Z</time>
      </trkpt>
      <trkpt lat="44.864" lon="3.90345">
        <ele>998.47</ele>
        <time>2025-09-07T10:58:57Z</time>
      </trkpt>
      <trkpt lat="44.864" lon="3.90342">
        <ele>998.47</ele>
        <time>2025-09-07T10:58:58Z</time>
      </trkpt>
      <trkpt lat="44.86401" lon="3.9034">
        <ele>998.95</ele>
        <time>2025-09-07T10:58:59Z</time>
      </trkpt>
      <trkpt lat="44.86401" lon="3.90338">
        <ele>999.43</ele>
        <time>2025-09-07T10:59:00Z</time>
      </trkpt>
      <trkpt lat="44.86401" lon="3.90335">
        <ele>999.91</ele>
        <time>2025-09-07T10:59:01Z</time>
      </trkpt>
      <trkpt lat="44.86401" lon="3.90334">
        <ele>1000.39</ele>
        <time>2025-09-07T10:59:02Z</time>
      </trkpt>
      <trkpt lat="44.86401" lon="3.90332">
        <ele>1001.35</ele>
        <time>2025-09-07T10:59:03Z</time>
      </trkpt>
      <trkpt lat="44.86401" lon="3.9033">
        <ele>1001.83</ele>
        <time>2025-09-07T10:59:04Z</time>
      </trkpt>
      <trkpt lat="44.864" lon="3.90328">
        <ele>1001.83</ele>
        <time>2025-09-07T10:59:05Z</time>
      </trkpt>
      <trkpt lat="44.86399" lon="3.90327">
        <ele>1001.83</ele>
        <time>2025-09-07T10:59:06Z</time>
      </trkpt>
      <trkpt lat="44.86392" lon="3.90326">
        <ele>1001.83</ele>
        <time>2025-09-07T10:59:13Z</time>
      </trkpt>
      <trkpt lat="44.86373" lon="3.90332">
        <ele>999.91</ele>
        <time>2025-09-07T10:59:29Z</time>
      </trkpt>
      <trkpt lat="44.86355" lon="3.9033">
        <ele>999.43</ele>
        <time>2025-09-07T10:59:43Z</time>
      </trkpt>
      <trkpt lat="44.86346" lon="3.90307">
        <ele>999.43</ele>
        <time>2025-09-07T11:00:01Z</time>
      </trkpt>
      <trkpt lat="44.86346" lon="3.90296">
        <ele>999.43</ele>
        <time>2025-09-07T11:00:09Z</time>
      </trkpt>
      <trkpt lat="44.86347" lon="3.90295">
        <ele>998.47</ele>
        <time>2025-09-07T11:00:10Z</time>
      </trkpt>
      <trkpt lat="44.86352" lon="3.90264">
        <ele>994.14</ele>
        <time>2025-09-07T11:00:30Z</time>
      </trkpt>
      <trkpt lat="44.86355" lon="3.9023">
        <ele>996.54</ele>
        <time>2025-09-07T11:00:52Z</time>
      </trkpt>
      <trkpt lat="44.86348" lon="3.90199">
        <ele>998.47</ele>
        <time>2025-09-07T11:01:11Z</time>
      </trkpt>
      <trkpt lat="44.86334" lon="3.90165">
        <ele>999.43</ele>
        <time>2025-09-07T11:01:35Z</time>
      </trkpt>
      <trkpt lat="44.86319" lon="3.90122">
        <ele>998.95</ele>
        <time>2025-09-07T11:02:00Z</time>
      </trkpt>
      <trkpt lat="44.86309" lon="3.90081">
        <ele>999.43</ele>
        <time>2025-09-07T11:02:23Z</time>
      </trkpt>
      <trkpt lat="44.86303" lon="3.90041">
        <ele>1000.87</ele>
        <time>2025-09-07T11:02:48Z</time>
      </trkpt>
      <trkpt lat="44.86304" lon="3.90029">
        <ele>1002.79</ele>
        <time>2025-09-07T11:02:55Z</time>
      </trkpt>
      <trkpt lat="44.86305" lon="3.90025">
        <ele>1005.2</ele>
        <time>2025-09-07T11:02:56Z</time>
      </trkpt>
      <trkpt lat="44.86312" lon="3.90009">
        <ele>1013.85</ele>
        <time>2025-09-07T11:03:07Z</time>
      </trkpt>
      <trkpt lat="44.86323" lon="3.89996">
        <ele>1013.85</ele>
        <time>2025-09-07T11:03:19Z</time>
      </trkpt>
      <trkpt lat="44.86335" lon="3.89983">
        <ele>1015.29</ele>
        <time>2025-09-07T11:03:31Z</time>
      </trkpt>
      <trkpt lat="44.86341" lon="3.89971">
        <ele>1015.77</ele>
        <time>2025-09-07T11:03:41Z</time>
      </trkpt>
      <trkpt lat="44.86343" lon="3.89953">
        <ele>1018.65</ele>
        <time>2025-09-07T11:03:53Z</time>
      </trkpt>
      <trkpt lat="44.86342" lon="3.89935">
        <ele>1023.46</ele>
        <time>2025-09-07T11:04:05Z</time>
      </trkpt>
      <trkpt lat="44.86342" lon="3.89921">
        <ele>1024.42</ele>
        <time>2025-09-07T11:04:16Z</time>
      </trkpt>
      <trkpt lat="44.86346" lon="3.89913">
        <ele>1022.98</ele>
        <time>2025-09-07T11:04:35Z</time>
      </trkpt>
      <trkpt lat="44.86349" lon="3.89908">
        <ele>1022.02</ele>
        <time>2025-09-07T11:04:40Z</time>
      </trkpt>
      <trkpt lat="44.86361" lon="3.89881">
        <ele>1020.58</ele>
        <time>2025-09-07T11:05:01Z</time>
      </trkpt>
      <trkpt lat="44.86373" lon="3.89865">
        <ele>1023.46</ele>
        <time>2025-09-07T11:05:22Z</time>
      </trkpt>
      <trkpt lat="44.86385" lon="3.89843">
        <ele>1025.86</ele>
        <time>2025-09-07T11:05:40Z</time>
      </trkpt>
      <trkpt lat="44.86395" lon="3.89802">
        <ele>1027.79</ele>
        <time>2025-09-07T11:06:02Z</time>
      </trkpt>
      <trkpt lat="44.864" lon="3.89768">
        <ele>1029.71</ele>
        <time>2025-09-07T11:06:23Z</time>
      </trkpt>
      <trkpt lat="44.86404" lon="3.89734">
        <ele>1033.55</ele>
        <time>2025-09-07T11:06:46Z</time>
      </trkpt>
      <trkpt lat="44.86413" lon="3.89702">
        <ele>1036.92</ele>
        <time>2025-09-07T11:07:09Z</time>
      </trkpt>
      <trkpt lat="44.86417" lon="3.89671">
        <ele>1039.8</ele>
        <time>2025-09-07T11:07:30Z</time>
      </trkpt>
      <trkpt lat="44.86423" lon="3.8964">
        <ele>1043.65</ele>
        <time>2025-09-07T11:07:51Z</time>
      </trkpt>
      <trkpt lat="44.86428" lon="3.89605">
        <ele>1044.61</ele>
        <time>2025-09-07T11:08:13Z</time>
      </trkpt>
      <trkpt lat="44.86434" lon="3.89575">
        <ele>1046.05</ele>
        <time>2025-09-07T11:08:35Z</time>
      </trkpt>
      <trkpt lat="44.8644" lon="3.8955">
        <ele>1047.49</ele>
        <time>2025-09-07T11:08:57Z</time>
      </trkpt>
      <trkpt lat="44.86452" lon="3.89528">
        <ele>1050.38</ele>
        <time>2025-09-07T11:09:20Z</time>
      </trkpt>
      <trkpt lat="44.86465" lon="3.89507">
        <ele>1055.18</ele>
        <time>2025-09-07T11:09:43Z</time>
      </trkpt>
      <trkpt lat="44.86482" lon="3.89473">
        <ele>1061.43</ele>
        <time>2025-09-07T11:10:06Z</time>
      </trkpt>
      <trkpt lat="44.865" lon="3.89446">
        <ele>1069.12</ele>
        <time>2025-09-07T11:10:29Z</time>
      </trkpt>
      <trkpt lat="44.86499" lon="3.89446">
        <ele>1076.81</ele>
        <time>2025-09-07T11:10:53Z</time>
      </trkpt>
      <trkpt lat="44.86501" lon="3.89442">
        <ele>1082.58</ele>
        <time>2025-09-07T11:11:16Z</time>
      </trkpt>
      <trkpt lat="44.86509" lon="3.89423">
        <ele>1082.58</ele>
        <time>2025-09-07T11:11:39Z</time>
      </trkpt>
      <trkpt lat="44.86517" lon="3.8941">
        <ele>1080.66</ele>
        <time>2025-09-07T11:11:59Z</time>
      </trkpt>
      <trkpt lat="44.86516" lon="3.89413">
        <ele>1082.1</ele>
        <time>2025-09-07T11:12:26Z</time>
      </trkpt>
      <trkpt lat="44.86513" lon="3.89411">
        <ele>1084.02</ele>
        <time>2025-09-07T11:12:54Z</time>
      </trkpt>
      <trkpt lat="44.86515" lon="3.89408">
        <ele>1086.43</ele>
        <time>2025-09-07T11:13:21Z</time>
      </trkpt>
      <trkpt lat="44.86518" lon="3.8939">
        <ele>1084.99</ele>
        <time>2025-09-07T11:13:42Z</time>
      </trkpt>
      <trkpt lat="44.86522" lon="3.89379">
        <ele>1084.99</ele>
        <time>2025-09-07T11:13:50Z</time>
      </trkpt>
      <trkpt lat="44.86529" lon="3.8935">
        <ele>1081.62</ele>
        <time>2025-09-07T11:14:10Z</time>
      </trkpt>
      <trkpt lat="44.86537" lon="3.89321">
        <ele>1079.7</ele>
        <time>2025-09-07T11:14:28Z</time>
      </trkpt>
      <trkpt lat="44.8655" lon="3.89284">
        <ele>1077.29</ele>
        <time>2025-09-07T11:14:49Z</time>
      </trkpt>
      <trkpt lat="44.86564" lon="3.89243">
        <ele>1076.33</ele>
        <time>2025-09-07T11:15:13Z</time>
      </trkpt>
      <trkpt lat="44.86583" lon="3.89205">
        <ele>1075.85</ele>
        <time>2025-09-07T11:15:37Z</time>
      </trkpt>
      <trkpt lat="44.86599" lon="3.89167">
        <ele>1076.81</ele>
        <time>2025-09-07T11:16:01Z</time>
      </trkpt>
      <trkpt lat="44.86609" lon="3.89141">
        <ele>1074.41</ele>
        <time>2025-09-07T11:16:21Z</time>
      </trkpt>
      <trkpt lat="44.86629" lon="3.89114">
        <ele>1072.97</ele>
        <time>2025-09-07T11:16:43Z</time>
      </trkpt>
      <trkpt lat="44.86656" lon="3.8909">
        <ele>1074.41</ele>
        <time>2025-09-07T11:17:09Z</time>
      </trkpt>
      <trkpt lat="44.86682" lon="3.89067">
        <ele>1073.93</ele>
        <time>2025-09-07T11:17:32Z</time>
      </trkpt>
      <trkpt lat="44.86708" lon="3.89046">
        <ele>1072.97</ele>
        <time>2025-09-07T11:17:57Z</time>
      </trkpt>
      <trkpt lat="44.8673" lon="3.89026">
        <ele>1072.49</ele>
        <time>2025-09-07T11:18:19Z</time>
      </trkpt>
      <trkpt lat="44.86751" lon="3.88998">
        <ele>1069.6</ele>
        <time>2025-09-07T11:18:44Z</time>
      </trkpt>
      <trkpt lat="44.86753" lon="3.88974">
        <ele>1068.64</ele>
        <time>2025-09-07T11:18:56Z</time>
      </trkpt>
      <trkpt lat="44.86755" lon="3.88941">
        <ele>1067.2</ele>
        <time>2025-09-07T11:19:15Z</time>
      </trkpt>
      <trkpt lat="44.86759" lon="3.88911">
        <ele>1066.72</ele>
        <time>2025-09-07T11:19:34Z</time>
      </trkpt>
      <trkpt lat="44.86761" lon="3.88883">
        <ele>1064.32</ele>
        <time>2025-09-07T11:19:51Z</time>
      </trkpt>
      <trkpt lat="44.86762" lon="3.88851">
        <ele>1059.03</ele>
        <time>2025-09-07T11:20:12Z</time>
      </trkpt>
      <trkpt lat="44.86767" lon="3.88818">
        <ele>1054.22</ele>
        <time>2025-09-07T11:20:33Z</time>
      </trkpt>
      <trkpt lat="44.86767" lon="3.8879">
        <ele>1051.82</ele>
        <time>2025-09-07T11:20:52Z</time>
      </trkpt>
      <trkpt lat="44.86777" lon="3.88761">
        <ele>1048.94</ele>
        <time>2025-09-07T11:21:15Z</time>
      </trkpt>
      <trkpt lat="44.86796" lon="3.88742">
        <ele>1045.57</ele>
        <time>2025-09-07T11:21:38Z</time>
      </trkpt>
      <trkpt lat="44.8681" lon="3.8872">
        <ele>1039.8</ele>
        <time>2025-09-07T11:21:55Z</time>
      </trkpt>
      <trkpt lat="44.86827" lon="3.88704">
        <ele>1034.04</ele>
        <time>2025-09-07T11:22:17Z</time>
      </trkpt>
      <trkpt lat="44.86845" lon="3.88687">
        <ele>1026.34</ele>
        <time>2025-09-07T11:22:38Z</time>
      </trkpt>
      <trkpt lat="44.86876" lon="3.88684">
        <ele>1021.54</ele>
        <time>2025-09-07T11:23:01Z</time>
      </trkpt>
      <trkpt lat="44.86892" lon="3.8868">
        <ele>1019.62</ele>
        <time>2025-09-07T11:23:16Z</time>
      </trkpt>
      <trkpt lat="44.86922" lon="3.88674">
        <ele>1027.79</ele>
        <time>2025-09-07T11:23:40Z</time>
      </trkpt>
      <trkpt lat="44.86944" lon="3.88671">
        <ele>1028.75</ele>
        <time>2025-09-07T11:24:00Z</time>
      </trkpt>
      <trkpt lat="44.86967" lon="3.88664">
        <ele>1029.71</ele>
        <time>2025-09-07T11:24:23Z</time>
      </trkpt>
      <trkpt lat="44.86977" lon="3.88655">
        <ele>1030.67</ele>
        <time>2025-09-07T11:24:42Z</time>
      </trkpt>
      <trkpt lat="44.86987" lon="3.8863">
        <ele>1028.27</ele>
        <time>2025-09-07T11:25:02Z</time>
      </trkpt>
      <trkpt lat="44.87005" lon="3.88623">
        <ele>1027.79</ele>
        <time>2025-09-07T11:25:16Z</time>
      </trkpt>
      <trkpt lat="44.87029" lon="3.88605">
        <ele>1023.46</ele>
        <time>2025-09-07T11:25:36Z</time>
      </trkpt>
      <trkpt lat="44.87044" lon="3.88593">
        <ele>1024.9</ele>
        <time>2025-09-07T11:25:56Z</time>
      </trkpt>
      <trkpt lat="44.87057" lon="3.88579">
        <ele>1023.94</ele>
        <time>2025-09-07T11:26:15Z</time>
      </trkpt>
      <trkpt lat="44.87063" lon="3.88573">
        <ele>1028.27</ele>
        <time>2025-09-07T11:26:40Z</time>
      </trkpt>
      <trkpt lat="44.87078" lon="3.88561">
        <ele>1024.9</ele>
        <time>2025-09-07T11:26:54Z</time>
      </trkpt>
      <trkpt lat="44.87089" lon="3.88553">
        <ele>1025.38</ele>
        <time>2025-09-07T11:27:07Z</time>
      </trkpt>
      <trkpt lat="44.87104" lon="3.88536">
        <ele>1024.42</ele>
        <time>2025-09-07T11:27:22Z</time>
      </trkpt>
      <trkpt lat="44.87118" lon="3.88521">
        <ele>1025.86</ele>
        <time>2025-09-07T11:27:39Z</time>
      </trkpt>
      <trkpt lat="44.87136" lon="3.885">
        <ele>1023.94</ele>
        <time>2025-09-07T11:27:57Z</time>
      </trkpt>
      <trkpt lat="44.8714" lon="3.88496">
        <ele>1023.46</ele>
        <time>2025-09-07T11:28:01Z</time>
      </trkpt>
      <trkpt lat="44.87141" lon="3.88495">
        <ele>1023.46</ele>
        <time>2025-09-07T11:28:02Z</time>
      </trkpt>
      <trkpt lat="44.87152" lon="3.88478">
        <ele>1019.13</ele>
        <time>2025-09-07T11:28:16Z</time>
      </trkpt>
      <trkpt lat="44.87153" lon="3.88468">
        <ele>1018.65</ele>
        <time>2025-09-07T11:28:23Z</time>
      </trkpt>
      <trkpt lat="44.87143" lon="3.88449">
        <ele>1018.17</ele>
        <time>2025-09-07T11:28:35Z</time>
      </trkpt>
      <trkpt lat="44.87134" lon="3.8844">
        <ele>1018.65</ele>
        <time>2025-09-07T11:28:45Z</time>
      </trkpt>
      <trkpt lat="44.87131" lon="3.88434">
        <ele>1017.69</ele>
        <time>2025-09-07T11:28:51Z</time>
      </trkpt>
      <trkpt lat="44.87126" lon="3.88431">
        <ele>1017.69</ele>
        <time>2025-09-07T11:28:55Z</time>
      </trkpt>
      <trkpt lat="44.87124" lon="3.88431">
        <ele>1017.69</ele>
        <time>2025-09-07T11:28:56Z</time>
      </trkpt>
      <trkpt lat="44.87108" lon="3.88428">
        <ele>1019.13</ele>
        <time>2025-09-07T11:29:08Z</time>
      </trkpt>
      <trkpt lat="44.87101" lon="3.88418">
        <ele>1019.13</ele>
        <time>2025-09-07T11:29:17Z</time>
      </trkpt>
      <trkpt lat="44.871" lon="3.88416">
        <ele>1019.62</ele>
        <time>2025-09-07T11:29:18Z</time>
      </trkpt>
      <trkpt lat="44.871" lon="3.88415">
        <ele>1019.62</ele>
        <time>2025-09-07T11:29:19Z</time>
      </trkpt>
      <trkpt lat="44.87101" lon="3.88413">
        <ele>1020.1</ele>
        <time>2025-09-07T11:29:20Z</time>
      </trkpt>
      <trkpt lat="44.87101" lon="3.88411">
        <ele>1020.58</ele>
        <time>2025-09-07T11:29:21Z</time>
      </trkpt>
      <trkpt lat="44.87112" lon="3.88401">
        <ele>1023.46</ele>
        <time>2025-09-07T11:29:32Z</time>
      </trkpt>
      <trkpt lat="44.87122" lon="3.88393">
        <ele>1025.86</ele>
        <time>2025-09-07T11:29:42Z</time>
      </trkpt>
      <trkpt lat="44.87121" lon="3.8839">
        <ele>1025.86</ele>
        <time>2025-09-07T11:29:43Z</time>
      </trkpt>
      <trkpt lat="44.8712" lon="3.88389">
        <ele>1025.86</ele>
        <time>2025-09-07T11:29:44Z</time>
      </trkpt>
      <trkpt lat="44.87114" lon="3.88387">
        <ele>1026.83</ele>
        <time>2025-09-07T11:29:52Z</time>
      </trkpt>
      <trkpt lat="44.8711" lon="3.88389">
        <ele>1027.31</ele>
        <time>2025-09-07T11:29:57Z</time>
      </trkpt>
      <trkpt lat="44.87097" lon="3.88391">
        <ele>1025.86</ele>
        <time>2025-09-07T11:30:07Z</time>
      </trkpt>
      <trkpt lat="44.87095" lon="3.8839">
        <ele>1025.86</ele>
        <time>2025-09-07T11:30:09Z</time>
      </trkpt>
      <trkpt lat="44.87091" lon="3.88386">
        <ele>1025.86</ele>
        <time>2025-09-07T11:30:14Z</time>
      </trkpt>
      <trkpt lat="44.87084" lon="3.88368">
        <ele>1026.34</ele>
        <time>2025-09-07T11:30:26Z</time>
      </trkpt>
      <trkpt lat="44.87081" lon="3.88352">
        <ele>1029.23</ele>
        <time>2025-09-07T11:30:37Z</time>
      </trkpt>
      <trkpt lat="44.87082" lon="3.88333">
        <ele>1032.11</ele>
        <time>2025-09-07T11:30:50Z</time>
      </trkpt>
      <trkpt lat="44.87089" lon="3.88317">
        <ele>1033.07</ele>
        <time>2025-09-07T11:31:02Z</time>
      </trkpt>
      <trkpt lat="44.87092" lon="3.88313">
        <ele>1033.55</ele>
        <time>2025-09-07T11:31:05Z</time>
      </trkpt>
      <trkpt lat="44.87093" lon="3.88311">
        <ele>1033.55</ele>
        <time>2025-09-07T11:31:06Z</time>
      </trkpt>
      <trkpt lat="44.87095" lon="3.88307">
        <ele>1033.07</ele>
        <time>2025-09-07T11:31:11Z</time>
      </trkpt>
      <trkpt lat="44.87096" lon="3.88306">
        <ele>1033.07</ele>
        <time>2025-09-07T11:31:12Z</time>
      </trkpt>
      <trkpt lat="44.87097" lon="3.88305">
        <ele>1033.07</ele>
        <time>2025-09-07T11:31:13Z</time>
      </trkpt>
      <trkpt lat="44.87097" lon="3.88303">
        <ele>1033.07</ele>
        <time>2025-09-07T11:31:14Z</time>
      </trkpt>
      <trkpt lat="44.87098" lon="3.88302">
        <ele>1033.07</ele>
        <time>2025-09-07T11:31:15Z</time>
      </trkpt>
      <trkpt lat="44.871" lon="3.883">
        <ele>1033.07</ele>
        <time>2025-09-07T11:31:16Z</time>
      </trkpt>
      <trkpt lat="44.87101" lon="3.88298">
        <ele>1033.07</ele>
        <time>2025-09-07T11:31:17Z</time>
      </trkpt>
      <trkpt lat="44.87108" lon="3.88284">
        <ele>1034.04</ele>
        <time>2025-09-07T11:31:27Z</time>
      </trkpt>
      <trkpt lat="44.87108" lon="3.88282">
        <ele>1034.04</ele>
        <time>2025-09-07T11:31:28Z</time>
      </trkpt>
      <trkpt lat="44.87109" lon="3.88281">
        <ele>1034.04</ele>
        <time>2025-09-07T11:31:29Z</time>
      </trkpt>
      <trkpt lat="44.87113" lon="3.8826">
        <ele>1036.92</ele>
        <time>2025-09-07T11:31:42Z</time>
      </trkpt>
      <trkpt lat="44.87114" lon="3.88242">
        <ele>1039.8</ele>
        <time>2025-09-07T11:31:52Z</time>
      </trkpt>
      <trkpt lat="44.87109" lon="3.88231">
        <ele>1043.65</ele>
        <time>2025-09-07T11:32:01Z</time>
      </trkpt>
      <trkpt lat="44.87105" lon="3.88228">
        <ele>1044.61</ele>
        <time>2025-09-07T11:32:05Z</time>
      </trkpt>
      <trkpt lat="44.87103" lon="3.88228">
        <ele>1045.09</ele>
        <time>2025-09-07T11:32:06Z</time>
      </trkpt>
      <trkpt lat="44.87101" lon="3.88228">
        <ele>1045.09</ele>
        <time>2025-09-07T11:32:07Z</time>
      </trkpt>
      <trkpt lat="44.871" lon="3.88228">
        <ele>1045.57</ele>
        <time>2025-09-07T11:32:08Z</time>
      </trkpt>
      <trkpt lat="44.87098" lon="3.88229">
        <ele>1045.57</ele>
        <time>2025-09-07T11:32:09Z</time>
      </trkpt>
      <trkpt lat="44.87088" lon="3.8823">
        <ele>1047.97</ele>
        <time>2025-09-07T11:32:19Z</time>
      </trkpt>
      <trkpt lat="44.87082" lon="3.88234">
        <ele>1048.94</ele>
        <time>2025-09-07T11:32:23Z</time>
      </trkpt>
      <trkpt lat="44.87079" lon="3.88236">
        <ele>1049.42</ele>
        <time>2025-09-07T11:32:26Z</time>
      </trkpt>
      <trkpt lat="44.87078" lon="3.88237">
        <ele>1049.9</ele>
        <time>2025-09-07T11:32:27Z</time>
      </trkpt>
      <trkpt lat="44.87077" lon="3.88239">
        <ele>1049.9</ele>
        <time>2025-09-07T11:32:28Z</time>
      </trkpt>
      <trkpt lat="44.87076" lon="3.8824">
        <ele>1050.38</ele>
        <time>2025-09-07T11:32:29Z</time>
      </trkpt>
      <trkpt lat="44.87075" lon="3.88241">
        <ele>1050.38</ele>
        <time>2025-09-07T11:32:30Z</time>
      </trkpt>
      <trkpt lat="44.87074" lon="3.88237">
        <ele>1051.34</ele>
        <time>2025-09-07T11:32:36Z</time>
      </trkpt>
      <trkpt lat="44.87082" lon="3.88229">
        <ele>1053.74</ele>
        <time>2025-09-07T11:32:49Z</time>
      </trkpt>
      <trkpt lat="44.87077" lon="3.88228">
        <ele>1054.7</ele>
        <time>2025-09-07T11:33:04Z</time>
      </trkpt>
      <trkpt lat="44.87068" lon="3.88217">
        <ele>1057.59</ele>
        <time>2025-09-07T11:33:22Z</time>
      </trkpt>
      <trkpt lat="44.87052" lon="3.88192">
        <ele>1059.99</ele>
        <time>2025-09-07T11:33:44Z</time>
      </trkpt>
      <trkpt lat="44.87036" lon="3.88156">
        <ele>1063.36</ele>
        <time>2025-09-07T11:34:11Z</time>
      </trkpt>
      <trkpt lat="44.87027" lon="3.88142">
        <ele>1059.03</ele>
        <time>2025-09-07T11:34:18Z</time>
      </trkpt>
      <trkpt lat="44.87019" lon="3.88126">
        <ele>1055.18</ele>
        <time>2025-09-07T11:34:28Z</time>
      </trkpt>
      <trkpt lat="44.87012" lon="3.8811">
        <ele>1055.67</ele>
        <time>2025-09-07T11:34:39Z</time>
      </trkpt>
      <trkpt lat="44.87008" lon="3.88093">
        <ele>1056.63</ele>
        <time>2025-09-07T11:34:50Z</time>
      </trkpt>
      <trkpt lat="44.87" lon="3.88075">
        <ele>1056.63</ele>
        <time>2025-09-07T11:35:00Z</time>
      </trkpt>
      <trkpt lat="44.86997" lon="3.88064">
        <ele>1056.63</ele>
        <time>2025-09-07T11:35:07Z</time>
      </trkpt>
      <trkpt lat="44.86996" lon="3.88062">
        <ele>1056.63</ele>
        <time>2025-09-07T11:35:08Z</time>
      </trkpt>
      <trkpt lat="44.86994" lon="3.88059">
        <ele>1056.63</ele>
        <time>2025-09-07T11:35:09Z</time>
      </trkpt>
      <trkpt lat="44.86994" lon="3.88057">
        <ele>1056.15</ele>
        <time>2025-09-07T11:35:10Z</time>
      </trkpt>
      <trkpt lat="44.86987" lon="3.88043">
        <ele>1054.7</ele>
        <time>2025-09-07T11:35:21Z</time>
      </trkpt>
      <trkpt lat="44.86975" lon="3.88024">
        <ele>1055.67</ele>
        <time>2025-09-07T11:35:35Z</time>
      </trkpt>
      <trkpt lat="44.86954" lon="3.88007">
        <ele>1058.55</ele>
        <time>2025-09-07T11:35:56Z</time>
      </trkpt>
      <trkpt lat="44.86928" lon="3.87979">
        <ele>1062.87</ele>
        <time>2025-09-07T11:36:22Z</time>
      </trkpt>
      <trkpt lat="44.86904" lon="3.8795">
        <ele>1066.24</ele>
        <time>2025-09-07T11:36:46Z</time>
      </trkpt>
      <trkpt lat="44.86885" lon="3.87924">
        <ele>1065.28</ele>
        <time>2025-09-07T11:37:08Z</time>
      </trkpt>
      <trkpt lat="44.86863" lon="3.8789">
        <ele>1063.84</ele>
        <time>2025-09-07T11:37:33Z</time>
      </trkpt>
      <trkpt lat="44.86844" lon="3.87859">
        <ele>1064.32</ele>
        <time>2025-09-07T11:37:55Z</time>
      </trkpt>
      <trkpt lat="44.86818" lon="3.87841">
        <ele>1064.8</ele>
        <time>2025-09-07T11:38:17Z</time>
      </trkpt>
      <trkpt lat="44.86788" lon="3.8784">
        <ele>1061.43</ele>
        <time>2025-09-07T11:38:43Z</time>
      </trkpt>
      <trkpt lat="44.86763" lon="3.87831">
        <ele>1063.36</ele>
        <time>2025-09-07T11:39:05Z</time>
      </trkpt>
      <trkpt lat="44.86736" lon="3.87822">
        <ele>1063.36</ele>
        <time>2025-09-07T11:39:26Z</time>
      </trkpt>
      <trkpt lat="44.86711" lon="3.87815">
        <ele>1067.68</ele>
        <time>2025-09-07T11:39:48Z</time>
      </trkpt>
      <trkpt lat="44.86688" lon="3.878">
        <ele>1069.12</ele>
        <time>2025-09-07T11:40:11Z</time>
      </trkpt>
      <trkpt lat="44.8667" lon="3.87768">
        <ele>1077.29</ele>
        <time>2025-09-07T11:40:33Z</time>
      </trkpt>
      <trkpt lat="44.86657" lon="3.87741">
        <ele>1079.22</ele>
        <time>2025-09-07T11:40:53Z</time>
      </trkpt>
      <trkpt lat="44.86643" lon="3.87708">
        <ele>1080.66</ele>
        <time>2025-09-07T11:41:14Z</time>
      </trkpt>
      <trkpt lat="44.86627" lon="3.87672">
        <ele>1084.02</ele>
        <time>2025-09-07T11:41:36Z</time>
      </trkpt>
      <trkpt lat="44.86607" lon="3.87639">
        <ele>1083.54</ele>
        <time>2025-09-07T11:41:58Z</time>
      </trkpt>
      <trkpt lat="44.86586" lon="3.87598">
        <ele>1082.58</ele>
        <time>2025-09-07T11:42:24Z</time>
      </trkpt>
      <trkpt lat="44.86569" lon="3.87561">
        <ele>1080.66</ele>
        <time>2025-09-07T11:42:49Z</time>
      </trkpt>
      <trkpt lat="44.86551" lon="3.87528">
        <ele>1078.74</ele>
        <time>2025-09-07T11:43:12Z</time>
      </trkpt>
      <trkpt lat="44.86537" lon="3.87494">
        <ele>1077.78</ele>
        <time>2025-09-07T11:43:32Z</time>
      </trkpt>
      <trkpt lat="44.86524" lon="3.8746">
        <ele>1078.26</ele>
        <time>2025-09-07T11:43:52Z</time>
      </trkpt>
      <trkpt lat="44.86505" lon="3.87424">
        <ele>1076.33</ele>
        <time>2025-09-07T11:44:18Z</time>
      </trkpt>
      <trkpt lat="44.86484" lon="3.87394">
        <ele>1072.01</ele>
        <time>2025-09-07T11:44:38Z</time>
      </trkpt>
      <trkpt lat="44.86466" lon="3.8735">
        <ele>1073.45</ele>
        <time>2025-09-07T11:45:03Z</time>
      </trkpt>
      <trkpt lat="44.86449" lon="3.87308">
        <ele>1069.6</ele>
        <time>2025-09-07T11:45:30Z</time>
      </trkpt>
      <trkpt lat="44.86419" lon="3.87287">
        <ele>1065.28</ele>
        <time>2025-09-07T11:45:54Z</time>
      </trkpt>
      <trkpt lat="44.8639" lon="3.87267">
        <ele>1064.8</ele>
        <time>2025-09-07T11:46:18Z</time>
      </trkpt>
      <trkpt lat="44.86363" lon="3.87239">
        <ele>1063.36</ele>
        <time>2025-09-07T11:46:42Z</time>
      </trkpt>
      <trkpt lat="44.8634" lon="3.87205">
        <ele>1064.32</ele>
        <time>2025-09-07T11:47:08Z</time>
      </trkpt>
      <trkpt lat="44.86316" lon="3.87173">
        <ele>1071.53</ele>
        <time>2025-09-07T11:47:33Z</time>
      </trkpt>
      <trkpt lat="44.86294" lon="3.87147">
        <ele>1072.01</ele>
        <time>2025-09-07T11:47:56Z</time>
      </trkpt>
      <trkpt lat="44.86274" lon="3.87122">
        <ele>1067.2</ele>
        <time>2025-09-07T11:48:18Z</time>
      </trkpt>
      <trkpt lat="44.86245" lon="3.87101">
        <ele>1062.87</ele>
        <time>2025-09-07T11:48:40Z</time>
      </trkpt>
      <trkpt lat="44.86218" lon="3.87078">
        <ele>1060.95</ele>
        <time>2025-09-07T11:49:02Z</time>
      </trkpt>
      <trkpt lat="44.86193" lon="3.87053">
        <ele>1057.11</ele>
        <time>2025-09-07T11:49:25Z</time>
      </trkpt>
      <trkpt lat="44.86188" lon="3.87048">
        <ele>1073.45</ele>
        <time>2025-09-07T11:49:42Z</time>
      </trkpt>
      <trkpt lat="44.86187" lon="3.87047">
        <ele>1074.89</ele>
        <time>2025-09-07T11:50:04Z</time>
      </trkpt>
      <trkpt lat="44.86185" lon="3.87041">
        <ele>1074.41</ele>
        <time>2025-09-07T11:50:20Z</time>
      </trkpt>
      <trkpt lat="44.86184" lon="3.87039">
        <ele>1074.41</ele>
        <time>2025-09-07T11:50:21Z</time>
      </trkpt>
      <trkpt lat="44.86174" lon="3.87017">
        <ele>1074.41</ele>
        <time>2025-09-07T11:50:35Z</time>
      </trkpt>
      <trkpt lat="44.86168" lon="3.86997">
        <ele>1075.85</ele>
        <time>2025-09-07T11:50:47Z</time>
      </trkpt>
      <trkpt lat="44.86164" lon="3.86982">
        <ele>1077.29</ele>
        <time>2025-09-07T11:50:55Z</time>
      </trkpt>
      <trkpt lat="44.8616" lon="3.86961">
        <ele>1078.26</ele>
        <time>2025-09-07T11:51:07Z</time>
      </trkpt>
      <trkpt lat="44.86159" lon="3.86941">
        <ele>1077.29</ele>
        <time>2025-09-07T11:51:18Z</time>
      </trkpt>
      <trkpt lat="44.86158" lon="3.86915">
        <ele>1077.29</ele>
        <time>2025-09-07T11:51:31Z</time>
      </trkpt>
      <trkpt lat="44.86155" lon="3.86892">
        <ele>1079.7</ele>
        <time>2025-09-07T11:51:43Z</time>
      </trkpt>
      <trkpt lat="44.86152" lon="3.86867">
        <ele>1080.18</ele>
        <time>2025-09-07T11:51:56Z</time>
      </trkpt>
      <trkpt lat="44.86149" lon="3.86845">
        <ele>1080.18</ele>
        <time>2025-09-07T11:52:07Z</time>
      </trkpt>
      <trkpt lat="44.86146" lon="3.8682">
        <ele>1081.62</ele>
        <time>2025-09-07T11:52:19Z</time>
      </trkpt>
      <trkpt lat="44.86141" lon="3.86788">
        <ele>1084.02</ele>
        <time>2025-09-07T11:52:35Z</time>
      </trkpt>
      <trkpt lat="44.86135" lon="3.86764">
        <ele>1086.43</ele>
        <time>2025-09-07T11:52:54Z</time>
      </trkpt>
      <trkpt lat="44.86134" lon="3.86758">
        <ele>1087.39</ele>
        <time>2025-09-07T11:53:24Z</time>
      </trkpt>
      <trkpt lat="44.86132" lon="3.86717">
        <ele>1087.87</ele>
        <time>2025-09-07T11:53:47Z</time>
      </trkpt>
      <trkpt lat="44.8613" lon="3.86697">
        <ele>1088.83</ele>
        <time>2025-09-07T11:54:03Z</time>
      </trkpt>
      <trkpt lat="44.86131" lon="3.86664">
        <ele>1089.79</ele>
        <time>2025-09-07T11:54:21Z</time>
      </trkpt>
      <trkpt lat="44.86134" lon="3.86626">
        <ele>1088.35</ele>
        <time>2025-09-07T11:54:41Z</time>
      </trkpt>
      <trkpt lat="44.86128" lon="3.86609">
        <ele>1086.43</ele>
        <time>2025-09-07T11:54:52Z</time>
      </trkpt>
      <trkpt lat="44.86107" lon="3.86606">
        <ele>1083.54</ele>
        <time>2025-09-07T11:55:11Z</time>
      </trkpt>
      <trkpt lat="44.86098" lon="3.86607">
        <ele>1082.58</ele>
        <time>2025-09-07T11:55:28Z</time>
      </trkpt>
      <trkpt lat="44.86093" lon="3.86603">
        <ele>1080.18</ele>
        <time>2025-09-07T11:55:45Z</time>
      </trkpt>
      <trkpt lat="44.8609" lon="3.86607">
        <ele>1076.81</ele>
        <time>2025-09-07T11:56:08Z</time>
      </trkpt>
      <trkpt lat="44.86091" lon="3.86595">
        <ele>1075.85</ele>
        <time>2025-09-07T11:56:28Z</time>
      </trkpt>
      <trkpt lat="44.86089" lon="3.86588">
        <ele>1076.33</ele>
        <time>2025-09-07T11:56:33Z</time>
      </trkpt>
      <trkpt lat="44.86075" lon="3.86558">
        <ele>1073.93</ele>
        <time>2025-09-07T11:56:54Z</time>
      </trkpt>
      <trkpt lat="44.86052" lon="3.86526">
        <ele>1074.41</ele>
        <time>2025-09-07T11:57:18Z</time>
      </trkpt>
      <trkpt lat="44.86028" lon="3.86503">
        <ele>1074.89</ele>
        <time>2025-09-07T11:57:39Z</time>
      </trkpt>
      <trkpt lat="44.86008" lon="3.86475">
        <ele>1072.97</ele>
        <time>2025-09-07T11:58:00Z</time>
      </trkpt>
      <trkpt lat="44.85989" lon="3.8645">
        <ele>1070.57</ele>
        <time>2025-09-07T11:58:21Z</time>
      </trkpt>
      <trkpt lat="44.8597" lon="3.86451">
        <ele>1066.72</ele>
        <time>2025-09-07T11:58:40Z</time>
      </trkpt>
      <trkpt lat="44.85963" lon="3.86464">
        <ele>1065.76</ele>
        <time>2025-09-07T11:58:50Z</time>
      </trkpt>
      <trkpt lat="44.85964" lon="3.86504">
        <ele>1062.87</ele>
        <time>2025-09-07T11:59:14Z</time>
      </trkpt>
      <trkpt lat="44.85964" lon="3.8654">
        <ele>1058.07</ele>
        <time>2025-09-07T11:59:35Z</time>
      </trkpt>
      <trkpt lat="44.85952" lon="3.86567">
        <ele>1053.74</ele>
        <time>2025-09-07T11:59:55Z</time>
      </trkpt>
      <trkpt lat="44.85949" lon="3.86561">
        <ele>1052.78</ele>
        <time>2025-09-07T12:00:00Z</time>
      </trkpt>
      <trkpt lat="44.85942" lon="3.86533">
        <ele>1051.34</ele>
        <time>2025-09-07T12:00:17Z</time>
      </trkpt>
      <trkpt lat="44.8593" lon="3.86495">
        <ele>1051.82</ele>
        <time>2025-09-07T12:00:38Z</time>
      </trkpt>
      <trkpt lat="44.85925" lon="3.86454">
        <ele>1054.7</ele>
        <time>2025-09-07T12:01:00Z</time>
      </trkpt>
      <trkpt lat="44.85932" lon="3.86415">
        <ele>1058.55</ele>
        <time>2025-09-07T12:01:23Z</time>
      </trkpt>
      <trkpt lat="44.85932" lon="3.86375">
        <ele>1058.07</ele>
        <time>2025-09-07T12:01:45Z</time>
      </trkpt>
      <trkpt lat="44.85927" lon="3.86331">
        <ele>1058.07</ele>
        <time>2025-09-07T12:02:07Z</time>
      </trkpt>
      <trkpt lat="44.85921" lon="3.86291">
        <ele>1057.59</ele>
        <time>2025-09-07T12:02:27Z</time>
      </trkpt>
      <trkpt lat="44.85904" lon="3.86245">
        <ele>1057.59</ele>
        <time>2025-09-07T12:02:50Z</time>
      </trkpt>
      <trkpt lat="44.85893" lon="3.86208">
        <ele>1055.18</ele>
        <time>2025-09-07T12:03:09Z</time>
      </trkpt>
      <trkpt lat="44.85888" lon="3.86181">
        <ele>1055.18</ele>
        <time>2025-09-07T12:03:19Z</time>
      </trkpt>
      <trkpt lat="44.85878" lon="3.86156">
        <ele>1057.59</ele>
        <time>2025-09-07T12:03:33Z</time>
      </trkpt>
      <trkpt lat="44.85874" lon="3.86148">
        <ele>1059.03</ele>
        <time>2025-09-07T12:03:40Z</time>
      </trkpt>
      <trkpt lat="44.85858" lon="3.86132">
        <ele>1060.95</ele>
        <time>2025-09-07T12:03:51Z</time>
      </trkpt>
      <trkpt lat="44.85845" lon="3.86124">
        <ele>1059.99</ele>
        <time>2025-09-07T12:04:02Z</time>
      </trkpt>
      <trkpt lat="44.85833" lon="3.86115">
        <ele>1060.95</ele>
        <time>2025-09-07T12:04:13Z</time>
      </trkpt>
      <trkpt lat="44.85816" lon="3.86104">
        <ele>1061.43</ele>
        <time>2025-09-07T12:04:23Z</time>
      </trkpt>
      <trkpt lat="44.85811" lon="3.86101">
        <ele>1061.43</ele>
        <time>2025-09-07T12:04:29Z</time>
      </trkpt>
      <trkpt lat="44.85809" lon="3.861">
        <ele>1061.43</ele>
        <time>2025-09-07T12:04:30Z</time>
      </trkpt>
      <trkpt lat="44.85807" lon="3.86099">
        <ele>1061.43</ele>
        <time>2025-09-07T12:04:31Z</time>
      </trkpt>
      <trkpt lat="44.8579" lon="3.86088">
        <ele>1062.39</ele>
        <time>2025-09-07T12:04:43Z</time>
      </trkpt>
      <trkpt lat="44.85776" lon="3.86078">
        <ele>1062.39</ele>
        <time>2025-09-07T12:04:55Z</time>
      </trkpt>
      <trkpt lat="44.85763" lon="3.8607">
        <ele>1061.43</ele>
        <time>2025-09-07T12:05:06Z</time>
      </trkpt>
      <trkpt lat="44.85757" lon="3.86062">
        <ele>1061.43</ele>
        <time>2025-09-07T12:05:11Z</time>
      </trkpt>
      <trkpt lat="44.85752" lon="3.8604">
        <ele>1060.95</ele>
        <time>2025-09-07T12:05:24Z</time>
      </trkpt>
      <trkpt lat="44.85748" lon="3.8602">
        <ele>1061.91</ele>
        <time>2025-09-07T12:05:35Z</time>
      </trkpt>
      <trkpt lat="44.85745" lon="3.86001">
        <ele>1062.87</ele>
        <time>2025-09-07T12:05:49Z</time>
      </trkpt>
      <trkpt lat="44.85737" lon="3.85967">
        <ele>1064.8</ele>
        <time>2025-09-07T12:06:08Z</time>
      </trkpt>
      <trkpt lat="44.85728" lon="3.85938">
        <ele>1064.32</ele>
        <time>2025-09-07T12:06:24Z</time>
      </trkpt>
      <trkpt lat="44.85721" lon="3.85915">
        <ele>1065.76</ele>
        <time>2025-09-07T12:06:35Z</time>
      </trkpt>
      <trkpt lat="44.85713" lon="3.85896">
        <ele>1066.72</ele>
        <time>2025-09-07T12:06:45Z</time>
      </trkpt>
      <trkpt lat="44.85711" lon="3.85889">
        <ele>1067.68</ele>
        <time>2025-09-07T12:06:49Z</time>
      </trkpt>
      <trkpt lat="44.85709" lon="3.85882">
        <ele>1067.2</ele>
        <time>2025-09-07T12:06:55Z</time>
      </trkpt>
      <trkpt lat="44.85696" lon="3.85879">
        <ele>1068.16</ele>
        <time>2025-09-07T12:07:11Z</time>
      </trkpt>
      <trkpt lat="44.85689" lon="3.8588">
        <ele>1069.12</ele>
        <time>2025-09-07T12:07:30Z</time>
      </trkpt>
      <trkpt lat="44.85689" lon="3.85877">
        <ele>1066.24</ele>
        <time>2025-09-07T12:08:00Z</time>
      </trkpt>
      <trkpt lat="44.85691" lon="3.85879">
        <ele>1064.8</ele>
        <time>2025-09-07T12:08:25Z</time>
      </trkpt>
      <trkpt lat="44.85692" lon="3.85879">
        <ele>1064.8</ele>
        <time>2025-09-07T12:08:50Z</time>
      </trkpt>
      <trkpt lat="44.85701" lon="3.85878">
        <ele>1061.91</ele>
        <time>2025-09-07T12:09:13Z</time>
      </trkpt>
      <trkpt lat="44.85703" lon="3.85877">
        <ele>1059.03</ele>
        <time>2025-09-07T12:09:34Z</time>
      </trkpt>
      <trkpt lat="44.85708" lon="3.85876">
        <ele>1058.07</ele>
        <time>2025-09-07T12:09:51Z</time>
      </trkpt>
      <trkpt lat="44.8571" lon="3.85866">
        <ele>1057.59</ele>
        <time>2025-09-07T12:10:04Z</time>
      </trkpt>
      <trkpt lat="44.85711" lon="3.85862">
        <ele>1058.07</ele>
        <time>2025-09-07T12:10:07Z</time>
      </trkpt>
      <trkpt lat="44.85712" lon="3.8586">
        <ele>1058.07</ele>
        <time>2025-09-07T12:10:08Z</time>
      </trkpt>
      <trkpt lat="44.85712" lon="3.85858">
        <ele>1058.07</ele>
        <time>2025-09-07T12:10:09Z</time>
      </trkpt>
      <trkpt lat="44.85714" lon="3.85852">
        <ele>1058.55</ele>
        <time>2025-09-07T12:10:27Z</time>
      </trkpt>
      <trkpt lat="44.85724" lon="3.85831">
        <ele>1059.03</ele>
        <time>2025-09-07T12:10:47Z</time>
      </trkpt>
      <trkpt lat="44.85729" lon="3.85797">
        <ele>1058.07</ele>
        <time>2025-09-07T12:11:07Z</time>
      </trkpt>
      <trkpt lat="44.85725" lon="3.85795">
        <ele>1055.67</ele>
        <time>2025-09-07T12:11:26Z</time>
      </trkpt>
      <trkpt lat="44.85722" lon="3.85794">
        <ele>1054.22</ele>
        <time>2025-09-07T12:11:51Z</time>
      </trkpt>
      <trkpt lat="44.85713" lon="3.85787">
        <ele>1049.9</ele>
        <time>2025-09-07T12:12:13Z</time>
      </trkpt>
      <trkpt lat="44.85707" lon="3.85777">
        <ele>1047.97</ele>
        <time>2025-09-07T12:12:19Z</time>
      </trkpt>
      <trkpt lat="44.85706" lon="3.85776">
        <ele>1047.97</ele>
        <time>2025-09-07T12:12:20Z</time>
      </trkpt>
      <trkpt lat="44.85691" lon="3.85754">
        <ele>1044.61</ele>
        <time>2025-09-07T12:12:40Z</time>
      </trkpt>
      <trkpt lat="44.85684" lon="3.85722">
        <ele>1046.53</ele>
        <time>2025-09-07T12:12:58Z</time>
      </trkpt>
      <trkpt lat="44.85671" lon="3.85707">
        <ele>1046.53</ele>
        <time>2025-09-07T12:13:17Z</time>
      </trkpt>
      <trkpt lat="44.85659" lon="3.85699">
        <ele>1046.05</ele>
        <time>2025-09-07T12:13:34Z</time>
      </trkpt>
      <trkpt lat="44.85656" lon="3.85701">
        <ele>1046.53</ele>
        <time>2025-09-07T12:13:53Z</time>
      </trkpt>
      <trkpt lat="44.8566" lon="3.85695">
        <ele>1049.42</ele>
        <time>2025-09-07T12:14:12Z</time>
      </trkpt>
      <trkpt lat="44.85651" lon="3.85685">
        <ele>1049.9</ele>
        <time>2025-09-07T12:14:30Z</time>
      </trkpt>
      <trkpt lat="44.85639" lon="3.85658">
        <ele>1048.94</ele>
        <time>2025-09-07T12:14:51Z</time>
      </trkpt>
      <trkpt lat="44.85626" lon="3.85628">
        <ele>1048.94</ele>
        <time>2025-09-07T12:15:12Z</time>
      </trkpt>
      <trkpt lat="44.85623" lon="3.85622">
        <ele>1048.94</ele>
        <time>2025-09-07T12:15:31Z</time>
      </trkpt>
      <trkpt lat="44.85638" lon="3.8561">
        <ele>1048.45</ele>
        <time>2025-09-07T12:15:53Z</time>
      </trkpt>
      <trkpt lat="44.85659" lon="3.85592">
        <ele>1047.49</ele>
        <time>2025-09-07T12:16:16Z</time>
      </trkpt>
      <trkpt lat="44.85659" lon="3.85591">
        <ele>1047.49</ele>
        <time>2025-09-07T12:16:17Z</time>
      </trkpt>
      <trkpt lat="44.8565" lon="3.85561">
        <ele>1045.09</ele>
        <time>2025-09-07T12:16:40Z</time>
      </trkpt>
      <trkpt lat="44.8566" lon="3.85538">
        <ele>1043.65</ele>
        <time>2025-09-07T12:16:58Z</time>
      </trkpt>
      <trkpt lat="44.85657" lon="3.85511">
        <ele>1044.13</ele>
        <time>2025-09-07T12:17:17Z</time>
      </trkpt>
      <trkpt lat="44.85663" lon="3.85481">
        <ele>1044.61</ele>
        <time>2025-09-07T12:17:37Z</time>
      </trkpt>
      <trkpt lat="44.85666" lon="3.85471">
        <ele>1050.38</ele>
        <time>2025-09-07T12:17:57Z</time>
      </trkpt>
      <trkpt lat="44.85664" lon="3.85468">
        <ele>1050.86</ele>
        <time>2025-09-07T12:18:18Z</time>
      </trkpt>
      <trkpt lat="44.85663" lon="3.85465">
        <ele>1049.42</ele>
        <time>2025-09-07T12:18:47Z</time>
      </trkpt>
      <trkpt lat="44.85662" lon="3.85467">
        <ele>1049.42</ele>
        <time>2025-09-07T12:19:02Z</time>
      </trkpt>
      <trkpt lat="44.85665" lon="3.8545">
        <ele>1050.86</ele>
        <time>2025-09-07T12:19:20Z</time>
      </trkpt>
      <trkpt lat="44.85656" lon="3.85442">
        <ele>1050.86</ele>
        <time>2025-09-07T12:19:34Z</time>
      </trkpt>
      <trkpt lat="44.85645" lon="3.85425">
        <ele>1054.22</ele>
        <time>2025-09-07T12:19:53Z</time>
      </trkpt>
      <trkpt lat="44.85643" lon="3.85412">
        <ele>1057.59</ele>
        <time>2025-09-07T12:20:05Z</time>
      </trkpt>
      <trkpt lat="44.85635" lon="3.85408">
        <ele>1056.15</ele>
        <time>2025-09-07T12:20:11Z</time>
      </trkpt>
      <trkpt lat="44.85628" lon="3.85409">
        <ele>1055.18</ele>
        <time>2025-09-07T12:20:15Z</time>
      </trkpt>
      <trkpt lat="44.85611" lon="3.854">
        <ele>1055.67</ele>
        <time>2025-09-07T12:20:29Z</time>
      </trkpt>
      <trkpt lat="44.85592" lon="3.85389">
        <ele>1056.63</ele>
        <time>2025-09-07T12:20:41Z</time>
      </trkpt>
      <trkpt lat="44.85572" lon="3.85389">
        <ele>1059.03</ele>
        <time>2025-09-07T12:20:55Z</time>
      </trkpt>
      <trkpt lat="44.85554" lon="3.85389">
        <ele>1060.47</ele>
        <time>2025-09-07T12:21:08Z</time>
      </trkpt>
      <trkpt lat="44.85539" lon="3.85387">
        <ele>1061.43</ele>
        <time>2025-09-07T12:21:20Z</time>
      </trkpt>
      <trkpt lat="44.85534" lon="3.85387">
        <ele>1061.91</ele>
        <time>2025-09-07T12:21:23Z</time>
      </trkpt>
      <trkpt lat="44.85533" lon="3.85386">
        <ele>1061.91</ele>
        <time>2025-09-07T12:21:24Z</time>
      </trkpt>
      <trkpt lat="44.85519" lon="3.85386">
        <ele>1063.36</ele>
        <time>2025-09-07T12:21:35Z</time>
      </trkpt>
      <trkpt lat="44.85502" lon="3.85392">
        <ele>1064.8</ele>
        <time>2025-09-07T12:21:48Z</time>
      </trkpt>
      <trkpt lat="44.85486" lon="3.85397">
        <ele>1065.28</ele>
        <time>2025-09-07T12:22:01Z</time>
      </trkpt>
      <trkpt lat="44.85466" lon="3.85402">
        <ele>1066.72</ele>
        <time>2025-09-07T12:22:14Z</time>
      </trkpt>
      <trkpt lat="44.85444" lon="3.8541">
        <ele>1068.16</ele>
        <time>2025-09-07T12:22:28Z</time>
      </trkpt>
      <trkpt lat="44.85428" lon="3.85412">
        <ele>1068.16</ele>
        <time>2025-09-07T12:22:40Z</time>
      </trkpt>
      <trkpt lat="44.85415" lon="3.85414">
        <ele>1067.2</ele>
        <time>2025-09-07T12:22:52Z</time>
      </trkpt>
      <trkpt lat="44.85398" lon="3.85417">
        <ele>1067.2</ele>
        <time>2025-09-07T12:23:04Z</time>
      </trkpt>
      <trkpt lat="44.85384" lon="3.85423">
        <ele>1067.68</ele>
        <time>2025-09-07T12:23:16Z</time>
      </trkpt>
      <trkpt lat="44.85369" lon="3.85431">
        <ele>1068.16</ele>
        <time>2025-09-07T12:23:27Z</time>
      </trkpt>
      <trkpt lat="44.85353" lon="3.85437">
        <ele>1068.16</ele>
        <time>2025-09-07T12:23:39Z</time>
      </trkpt>
      <trkpt lat="44.85336" lon="3.85444">
        <ele>1069.6</ele>
        <time>2025-09-07T12:23:52Z</time>
      </trkpt>
      <trkpt lat="44.8532" lon="3.8545">
        <ele>1071.53</ele>
        <time>2025-09-07T12:24:04Z</time>
      </trkpt>
      <trkpt lat="44.85307" lon="3.85457">
        <ele>1072.97</ele>
        <time>2025-09-07T12:24:16Z</time>
      </trkpt>
      <trkpt lat="44.85293" lon="3.85462">
        <ele>1074.41</ele>
        <time>2025-09-07T12:24:27Z</time>
      </trkpt>
      <trkpt lat="44.85278" lon="3.85468">
        <ele>1075.37</ele>
        <time>2025-09-07T12:24:38Z</time>
      </trkpt>
      <trkpt lat="44.85264" lon="3.85475">
        <ele>1076.33</ele>
        <time>2025-09-07T12:24:49Z</time>
      </trkpt>
      <trkpt lat="44.85248" lon="3.85484">
        <ele>1077.78</ele>
        <time>2025-09-07T12:25:02Z</time>
      </trkpt>
      <trkpt lat="44.8523" lon="3.85497">
        <ele>1077.29</ele>
        <time>2025-09-07T12:25:16Z</time>
      </trkpt>
      <trkpt lat="44.85222" lon="3.8551">
        <ele>1077.78</ele>
        <time>2025-09-07T12:25:27Z</time>
      </trkpt>
      <trkpt lat="44.85213" lon="3.85525">
        <ele>1078.26</ele>
        <time>2025-09-07T12:25:38Z</time>
      </trkpt>
      <trkpt lat="44.85196" lon="3.85534">
        <ele>1080.18</ele>
        <time>2025-09-07T12:25:52Z</time>
      </trkpt>
      <trkpt lat="44.85191" lon="3.85534">
        <ele>1080.66</ele>
        <time>2025-09-07T12:25:56Z</time>
      </trkpt>
      <trkpt lat="44.8519" lon="3.85533">
        <ele>1081.14</ele>
        <time>2025-09-07T12:25:57Z</time>
      </trkpt>
      <trkpt lat="44.85179" lon="3.85526">
        <ele>1083.06</ele>
        <time>2025-09-07T12:26:09Z</time>
      </trkpt>
      <trkpt lat="44.85169" lon="3.85516">
        <ele>1084.99</ele>
        <time>2025-09-07T12:26:21Z</time>
      </trkpt>
      <trkpt lat="44.85157" lon="3.85505">
        <ele>1086.91</ele>
        <time>2025-09-07T12:26:32Z</time>
      </trkpt>
      <trkpt lat="44.85143" lon="3.85493">
        <ele>1088.83</ele>
        <time>2025-09-07T12:26:45Z</time>
      </trkpt>
      <trkpt lat="44.85135" lon="3.85486">
        <ele>1090.75</ele>
        <time>2025-09-07T12:26:55Z</time>
      </trkpt>
      <trkpt lat="44.85128" lon="3.85478">
        <ele>1091.71</ele>
        <time>2025-09-07T12:27:03Z</time>
      </trkpt>
      <trkpt lat="44.85127" lon="3.85476">
        <ele>1091.71</ele>
        <time>2025-09-07T12:27:04Z</time>
      </trkpt>
      <trkpt lat="44.85119" lon="3.85462">
        <ele>1091.71</ele>
        <time>2025-09-07T12:27:14Z</time>
      </trkpt>
      <trkpt lat="44.85112" lon="3.85448">
        <ele>1092.68</ele>
        <time>2025-09-07T12:27:24Z</time>
      </trkpt>
      <trkpt lat="44.85104" lon="3.85433">
        <ele>1094.6</ele>
        <time>2025-09-07T12:27:35Z</time>
      </trkpt>
      <trkpt lat="44.85095" lon="3.85418">
        <ele>1097</ele>
        <time>2025-09-07T12:27:48Z</time>
      </trkpt>
      <trkpt lat="44.85086" lon="3.85403">
        <ele>1100.85</ele>
        <time>2025-09-07T12:28:02Z</time>
      </trkpt>
      <trkpt lat="44.85074" lon="3.85392">
        <ele>1103.25</ele>
        <time>2025-09-07T12:28:15Z</time>
      </trkpt>
      <trkpt lat="44.85064" lon="3.85383">
        <ele>1106.61</ele>
        <time>2025-09-07T12:28:27Z</time>
      </trkpt>
      <trkpt lat="44.85062" lon="3.85382">
        <ele>1107.1</ele>
        <time>2025-09-07T12:28:29Z</time>
      </trkpt>
      <trkpt lat="44.8506" lon="3.85382">
        <ele>1107.58</ele>
        <time>2025-09-07T12:28:31Z</time>
      </trkpt>
      <trkpt lat="44.85044" lon="3.85376">
        <ele>1109.5</ele>
        <time>2025-09-07T12:28:46Z</time>
      </trkpt>
      <trkpt lat="44.85036" lon="3.85371">
        <ele>1109.98</ele>
        <time>2025-09-07T12:28:57Z</time>
      </trkpt>
      <trkpt lat="44.85034" lon="3.8537">
        <ele>1109.98</ele>
        <time>2025-09-07T12:29:00Z</time>
      </trkpt>
      <trkpt lat="44.85033" lon="3.8537">
        <ele>1110.46</ele>
        <time>2025-09-07T12:29:01Z</time>
      </trkpt>
      <trkpt lat="44.85027" lon="3.85371">
        <ele>1110.94</ele>
        <time>2025-09-07T12:29:06Z</time>
      </trkpt>
      <trkpt lat="44.85026" lon="3.85372">
        <ele>1111.42</ele>
        <time>2025-09-07T12:29:07Z</time>
      </trkpt>
      <trkpt lat="44.85019" lon="3.85378">
        <ele>1111.9</ele>
        <time>2025-09-07T12:29:17Z</time>
      </trkpt>
      <trkpt lat="44.85019" lon="3.8538">
        <ele>1112.38</ele>
        <time>2025-09-07T12:29:19Z</time>
      </trkpt>
      <trkpt lat="44.8501" lon="3.85397">
        <ele>1113.82</ele>
        <time>2025-09-07T12:29:35Z</time>
      </trkpt>
      <trkpt lat="44.85002" lon="3.85413">
        <ele>1113.34</ele>
        <time>2025-09-07T12:29:52Z</time>
      </trkpt>
      <trkpt lat="44.85001" lon="3.85424">
        <ele>1111.42</ele>
        <time>2025-09-07T12:30:08Z</time>
      </trkpt>
      <trkpt lat="44.85002" lon="3.8543">
        <ele>1110.46</ele>
        <time>2025-09-07T12:30:28Z</time>
      </trkpt>
      <trkpt lat="44.85002" lon="3.8543">
        <ele>1109.02</ele>
        <time>2025-09-07T12:30:49Z</time>
      </trkpt>
      <trkpt lat="44.84997" lon="3.85448">
        <ele>1108.54</ele>
        <time>2025-09-07T12:31:03Z</time>
      </trkpt>
      <trkpt lat="44.84988" lon="3.85476">
        <ele>1108.54</ele>
        <time>2025-09-07T12:31:22Z</time>
      </trkpt>
      <trkpt lat="44.84973" lon="3.85515">
        <ele>1109.5</ele>
        <time>2025-09-07T12:31:45Z</time>
      </trkpt>
      <trkpt lat="44.8497" lon="3.85532">
        <ele>1109.98</ele>
        <time>2025-09-07T12:31:55Z</time>
      </trkpt>
      <trkpt lat="44.84977" lon="3.8557">
        <ele>1109.02</ele>
        <time>2025-09-07T12:32:17Z</time>
      </trkpt>
      <trkpt lat="44.84978" lon="3.85605">
        <ele>1107.58</ele>
        <time>2025-09-07T12:32:37Z</time>
      </trkpt>
      <trkpt lat="44.84973" lon="3.85616">
        <ele>1107.58</ele>
        <time>2025-09-07T12:32:47Z</time>
      </trkpt>
      <trkpt lat="44.8497" lon="3.85612">
        <ele>1107.1</ele>
        <time>2025-09-07T12:32:50Z</time>
      </trkpt>
      <trkpt lat="44.84969" lon="3.8561">
        <ele>1107.1</ele>
        <time>2025-09-07T12:32:51Z</time>
      </trkpt>
      <trkpt lat="44.84969" lon="3.85609">
        <ele>1107.1</ele>
        <time>2025-09-07T12:32:52Z</time>
      </trkpt>
      <trkpt lat="44.84968" lon="3.85595">
        <ele>1108.06</ele>
        <time>2025-09-07T12:33:01Z</time>
      </trkpt>
      <trkpt lat="44.84967" lon="3.85592">
        <ele>1108.06</ele>
        <time>2025-09-07T12:33:02Z</time>
      </trkpt>
      <trkpt lat="44.84963" lon="3.85568">
        <ele>1109.98</ele>
        <time>2025-09-07T12:33:15Z</time>
      </trkpt>
      <trkpt lat="44.8496" lon="3.85546">
        <ele>1111.42</ele>
        <time>2025-09-07T12:33:27Z</time>
      </trkpt>
      <trkpt lat="44.84956" lon="3.85527">
        <ele>1114.79</ele>
        <time>2025-09-07T12:33:39Z</time>
      </trkpt>
      <trkpt lat="44.84952" lon="3.85504">
        <ele>1116.23</ele>
        <time>2025-09-07T12:33:51Z</time>
      </trkpt>
      <trkpt lat="44.84949" lon="3.85486">
        <ele>1119.11</ele>
        <time>2025-09-07T12:34:02Z</time>
      </trkpt>
      <trkpt lat="44.84948" lon="3.85466">
        <ele>1121.52</ele>
        <time>2025-09-07T12:34:14Z</time>
      </trkpt>
      <trkpt lat="44.84949" lon="3.8545">
        <ele>1124.4</ele>
        <time>2025-09-07T12:34:25Z</time>
      </trkpt>
      <trkpt lat="44.84953" lon="3.85429">
        <ele>1126.8</ele>
        <time>2025-09-07T12:34:37Z</time>
      </trkpt>
      <trkpt lat="44.84956" lon="3.85409">
        <ele>1128.24</ele>
        <time>2025-09-07T12:34:48Z</time>
      </trkpt>
      <trkpt lat="44.84959" lon="3.85391">
        <ele>1131.61</ele>
        <time>2025-09-07T12:34:59Z</time>
      </trkpt>
      <trkpt lat="44.84962" lon="3.8537">
        <ele>1134.01</ele>
        <time>2025-09-07T12:35:11Z</time>
      </trkpt>
      <trkpt lat="44.84961" lon="3.85347">
        <ele>1135.94</ele>
        <time>2025-09-07T12:35:24Z</time>
      </trkpt>
      <trkpt lat="44.84961" lon="3.85332">
        <ele>1137.38</ele>
        <time>2025-09-07T12:35:34Z</time>
      </trkpt>
      <trkpt lat="44.84961" lon="3.85329">
        <ele>1137.86</ele>
        <time>2025-09-07T12:35:36Z</time>
      </trkpt>
      <trkpt lat="44.84961" lon="3.85328">
        <ele>1137.86</ele>
        <time>2025-09-07T12:35:37Z</time>
      </trkpt>
      <trkpt lat="44.84958" lon="3.85314">
        <ele>1139.78</ele>
        <time>2025-09-07T12:35:49Z</time>
      </trkpt>
      <trkpt lat="44.84968" lon="3.85317">
        <ele>1141.7</ele>
        <time>2025-09-07T12:36:04Z</time>
      </trkpt>
      <trkpt lat="44.84964" lon="3.85329">
        <ele>1144.11</ele>
        <time>2025-09-07T12:36:22Z</time>
      </trkpt>
      <trkpt lat="44.84965" lon="3.85326">
        <ele>1146.99</ele>
        <time>2025-09-07T12:36:46Z</time>
      </trkpt>
      <trkpt lat="44.84968" lon="3.85315">
        <ele>1144.59</ele>
        <time>2025-09-07T12:37:03Z</time>
      </trkpt>
      <trkpt lat="44.84969" lon="3.85318">
        <ele>1141.7</ele>
        <time>2025-09-07T12:37:28Z</time>
      </trkpt>
      <trkpt lat="44.84966" lon="3.85317">
        <ele>1139.3</ele>
        <time>2025-09-07T12:37:45Z</time>
      </trkpt>
      <trkpt lat="44.84956" lon="3.8531">
        <ele>1136.42</ele>
        <time>2025-09-07T12:37:59Z</time>
      </trkpt>
      <trkpt lat="44.84942" lon="3.85314">
        <ele>1140.26</ele>
        <time>2025-09-07T12:38:14Z</time>
      </trkpt>
      <trkpt lat="44.8494" lon="3.85314">
        <ele>1140.26</ele>
        <time>2025-09-07T12:38:16Z</time>
      </trkpt>
      <trkpt lat="44.84932" lon="3.85328">
        <ele>1142.66</ele>
        <time>2025-09-07T12:38:30Z</time>
      </trkpt>
      <trkpt lat="44.84925" lon="3.85345">
        <ele>1142.66</ele>
        <time>2025-09-07T12:38:42Z</time>
      </trkpt>
      <trkpt lat="44.84922" lon="3.8536">
        <ele>1141.22</ele>
        <time>2025-09-07T12:38:53Z</time>
      </trkpt>
      <trkpt lat="44.84915" lon="3.85379">
        <ele>1140.26</ele>
        <time>2025-09-07T12:39:09Z</time>
      </trkpt>
      <trkpt lat="44.8491" lon="3.85389">
        <ele>1139.78</ele>
        <time>2025-09-07T12:39:29Z</time>
      </trkpt>
      <trkpt lat="44.84914" lon="3.85381">
        <ele>1140.74</ele>
        <time>2025-09-07T12:39:46Z</time>
      </trkpt>
      <trkpt lat="44.84919" lon="3.85381">
        <ele>1141.7</ele>
        <time>2025-09-07T12:40:08Z</time>
      </trkpt>
      <trkpt lat="44.84921" lon="3.85364">
        <ele>1142.18</ele>
        <time>2025-09-07T12:40:22Z</time>
      </trkpt>
      <trkpt lat="44.8492" lon="3.85327">
        <ele>1145.07</ele>
        <time>2025-09-07T12:40:43Z</time>
      </trkpt>
      <trkpt lat="44.84897" lon="3.85291">
        <ele>1148.43</ele>
        <time>2025-09-07T12:41:07Z</time>
      </trkpt>
      <trkpt lat="44.84885" lon="3.85258">
        <ele>1150.35</ele>
        <time>2025-09-07T12:41:27Z</time>
      </trkpt>
      <trkpt lat="44.84876" lon="3.85227">
        <ele>1151.32</ele>
        <time>2025-09-07T12:41:45Z</time>
      </trkpt>
      <trkpt lat="44.84868" lon="3.85202">
        <ele>1151.8</ele>
        <time>2025-09-07T12:42:01Z</time>
      </trkpt>
      <trkpt lat="44.84851" lon="3.85173">
        <ele>1152.28</ele>
        <time>2025-09-07T12:42:22Z</time>
      </trkpt>
      <trkpt lat="44.84831" lon="3.85142">
        <ele>1152.28</ele>
        <time>2025-09-07T12:42:43Z</time>
      </trkpt>
      <trkpt lat="44.84826" lon="3.85136">
        <ele>1152.28</ele>
        <time>2025-09-07T12:42:48Z</time>
      </trkpt>
      <trkpt lat="44.84811" lon="3.85096">
        <ele>1151.32</ele>
        <time>2025-09-07T12:43:11Z</time>
      </trkpt>
      <trkpt lat="44.8481" lon="3.85079">
        <ele>1151.32</ele>
        <time>2025-09-07T12:43:22Z</time>
      </trkpt>
      <trkpt lat="44.84797" lon="3.8505">
        <ele>1152.28</ele>
        <time>2025-09-07T12:43:40Z</time>
      </trkpt>
      <trkpt lat="44.84789" lon="3.8504">
        <ele>1150.84</ele>
        <time>2025-09-07T12:43:49Z</time>
      </trkpt>
      <trkpt lat="44.84785" lon="3.85026">
        <ele>1150.35</ele>
        <time>2025-09-07T12:43:58Z</time>
      </trkpt>
      <trkpt lat="44.84783" lon="3.84991">
        <ele>1155.16</ele>
        <time>2025-09-07T12:44:17Z</time>
      </trkpt>
      <trkpt lat="44.84782" lon="3.84989">
        <ele>1155.16</ele>
        <time>2025-09-07T12:44:18Z</time>
      </trkpt>
      <trkpt lat="44.84773" lon="3.84951">
        <ele>1162.37</ele>
        <time>2025-09-07T12:44:38Z</time>
      </trkpt>
      <trkpt lat="44.84764" lon="3.84917">
        <ele>1169.1</ele>
        <time>2025-09-07T12:44:59Z</time>
      </trkpt>
      <trkpt lat="44.84765" lon="3.84886">
        <ele>1170.06</ele>
        <time>2025-09-07T12:45:16Z</time>
      </trkpt>
      <trkpt lat="44.84764" lon="3.8485">
        <ele>1170.06</ele>
        <time>2025-09-07T12:45:36Z</time>
      </trkpt>
      <trkpt lat="44.84755" lon="3.84808">
        <ele>1167.18</ele>
        <time>2025-09-07T12:45:58Z</time>
      </trkpt>
      <trkpt lat="44.84749" lon="3.84771">
        <ele>1164.77</ele>
        <time>2025-09-07T12:46:19Z</time>
      </trkpt>
      <trkpt lat="44.84752" lon="3.84719">
        <ele>1162.85</ele>
        <time>2025-09-07T12:46:45Z</time>
      </trkpt>
      <trkpt lat="44.84755" lon="3.84675">
        <ele>1162.37</ele>
        <time>2025-09-07T12:47:08Z</time>
      </trkpt>
      <trkpt lat="44.84763" lon="3.84627">
        <ele>1162.37</ele>
        <time>2025-09-07T12:47:35Z</time>
      </trkpt>
      <trkpt lat="44.84766" lon="3.84582">
        <ele>1159.49</ele>
        <time>2025-09-07T12:47:57Z</time>
      </trkpt>
      <trkpt lat="44.84768" lon="3.84537">
        <ele>1157.08</ele>
        <time>2025-09-07T12:48:19Z</time>
      </trkpt>
      <trkpt lat="44.8478" lon="3.84494">
        <ele>1156.12</ele>
        <time>2025-09-07T12:48:41Z</time>
      </trkpt>
      <trkpt lat="44.84796" lon="3.84453">
        <ele>1154.68</ele>
        <time>2025-09-07T12:49:04Z</time>
      </trkpt>
      <trkpt lat="44.84815" lon="3.84415">
        <ele>1153.72</ele>
        <time>2025-09-07T12:49:27Z</time>
      </trkpt>
      <trkpt lat="44.84837" lon="3.8438">
        <ele>1154.68</ele>
        <time>2025-09-07T12:49:51Z</time>
      </trkpt>
      <trkpt lat="44.84861" lon="3.84346">
        <ele>1154.68</ele>
        <time>2025-09-07T12:50:14Z</time>
      </trkpt>
      <trkpt lat="44.84885" lon="3.84314">
        <ele>1156.12</ele>
        <time>2025-09-07T12:50:37Z</time>
      </trkpt>
      <trkpt lat="44.849" lon="3.84279">
        <ele>1156.6</ele>
        <time>2025-09-07T12:50:57Z</time>
      </trkpt>
      <trkpt lat="44.84918" lon="3.84241">
        <ele>1155.16</ele>
        <time>2025-09-07T12:51:19Z</time>
      </trkpt>
      <trkpt lat="44.84933" lon="3.84201">
        <ele>1154.68</ele>
        <time>2025-09-07T12:51:42Z</time>
      </trkpt>
      <trkpt lat="44.84944" lon="3.84152">
        <ele>1149.87</ele>
        <time>2025-09-07T12:52:06Z</time>
      </trkpt>
      <trkpt lat="44.84953" lon="3.8411">
        <ele>1145.55</ele>
        <time>2025-09-07T12:52:29Z</time>
      </trkpt>
      <trkpt lat="44.84964" lon="3.84069">
        <ele>1142.18</ele>
        <time>2025-09-07T12:52:48Z</time>
      </trkpt>
      <trkpt lat="44.8497" lon="3.84047">
        <ele>1138.34</ele>
        <time>2025-09-07T12:53:00Z</time>
      </trkpt>
      <trkpt lat="44.84976" lon="3.84031">
        <ele>1139.3</ele>
        <time>2025-09-07T12:53:11Z</time>
      </trkpt>
      <trkpt lat="44.84982" lon="3.84005">
        <ele>1140.26</ele>
        <time>2025-09-07T12:53:24Z</time>
      </trkpt>
      <trkpt lat="44.84987" lon="3.83989">
        <ele>1140.26</ele>
        <time>2025-09-07T12:53:32Z</time>
      </trkpt>
      <trkpt lat="44.84992" lon="3.83977">
        <ele>1140.26</ele>
        <time>2025-09-07T12:53:42Z</time>
      </trkpt>
      <trkpt lat="44.84993" lon="3.83962">
        <ele>1139.78</ele>
        <time>2025-09-07T12:53:53Z</time>
      </trkpt>
      <trkpt lat="44.84991" lon="3.83936">
        <ele>1138.34</ele>
        <time>2025-09-07T12:54:06Z</time>
      </trkpt>
      <trkpt lat="44.84992" lon="3.83913">
        <ele>1136.9</ele>
        <time>2025-09-07T12:54:18Z</time>
      </trkpt>
      <trkpt lat="44.85002" lon="3.83893">
        <ele>1135.94</ele>
        <time>2025-09-07T12:54:31Z</time>
      </trkpt>
      <trkpt lat="44.85011" lon="3.83877">
        <ele>1135.45</ele>
        <time>2025-09-07T12:54:43Z</time>
      </trkpt>
      <trkpt lat="44.85021" lon="3.83861">
        <ele>1135.45</ele>
        <time>2025-09-07T12:54:55Z</time>
      </trkpt>
      <trkpt lat="44.85035" lon="3.83836">
        <ele>1139.3</ele>
        <time>2025-09-07T12:55:10Z</time>
      </trkpt>
      <trkpt lat="44.85044" lon="3.8382">
        <ele>1137.86</ele>
        <time>2025-09-07T12:55:20Z</time>
      </trkpt>
      <trkpt lat="44.85055" lon="3.83798">
        <ele>1137.86</ele>
        <time>2025-09-07T12:55:33Z</time>
      </trkpt>
      <trkpt lat="44.85063" lon="3.83786">
        <ele>1138.82</ele>
        <time>2025-09-07T12:55:41Z</time>
      </trkpt>
      <trkpt lat="44.85065" lon="3.83784">
        <ele>1138.82</ele>
        <time>2025-09-07T12:55:43Z</time>
      </trkpt>
      <trkpt lat="44.85076" lon="3.83763">
        <ele>1139.3</ele>
        <time>2025-09-07T12:55:56Z</time>
      </trkpt>
      <trkpt lat="44.85076" lon="3.83762">
        <ele>1139.3</ele>
        <time>2025-09-07T12:55:58Z</time>
      </trkpt>
      <trkpt lat="44.85078" lon="3.83762">
        <ele>1139.3</ele>
        <time>2025-09-07T12:55:59Z</time>
      </trkpt>
      <trkpt lat="44.85079" lon="3.83761">
        <ele>1139.78</ele>
        <time>2025-09-07T12:56:00Z</time>
      </trkpt>
      <trkpt lat="44.8508" lon="3.8376">
        <ele>1139.78</ele>
        <time>2025-09-07T12:56:01Z</time>
      </trkpt>
      <trkpt lat="44.85081" lon="3.83758">
        <ele>1139.78</ele>
        <time>2025-09-07T12:56:02Z</time>
      </trkpt>
      <trkpt lat="44.85082" lon="3.83757">
        <ele>1139.78</ele>
        <time>2025-09-07T12:56:03Z</time>
      </trkpt>
      <trkpt lat="44.85096" lon="3.83746">
        <ele>1141.22</ele>
        <time>2025-09-07T12:56:14Z</time>
      </trkpt>
      <trkpt lat="44.85104" lon="3.83741">
        <ele>1142.66</ele>
        <time>2025-09-07T12:56:20Z</time>
      </trkpt>
      <trkpt lat="44.85128" lon="3.83715">
        <ele>1142.66</ele>
        <time>2025-09-07T12:56:42Z</time>
      </trkpt>
      <trkpt lat="44.85153" lon="3.83688">
        <ele>1143.14</ele>
        <time>2025-09-07T12:57:02Z</time>
      </trkpt>
      <trkpt lat="44.85177" lon="3.83653">
        <ele>1143.63</ele>
        <time>2025-09-07T12:57:26Z</time>
      </trkpt>
      <trkpt lat="44.85187" lon="3.83616">
        <ele>1144.11</ele>
        <time>2025-09-07T12:57:46Z</time>
      </trkpt>
      <trkpt lat="44.85177" lon="3.83582">
        <ele>1144.11</ele>
        <time>2025-09-07T12:58:06Z</time>
      </trkpt>
      <trkpt lat="44.85173" lon="3.83544">
        <ele>1143.63</ele>
        <time>2025-09-07T12:58:26Z</time>
      </trkpt>
      <trkpt lat="44.85191" lon="3.83507">
        <ele>1143.63</ele>
        <time>2025-09-07T12:58:48Z</time>
      </trkpt>
      <trkpt lat="44.85208" lon="3.83476">
        <ele>1141.7</ele>
        <time>2025-09-07T12:59:08Z</time>
      </trkpt>
      <trkpt lat="44.85225" lon="3.8344">
        <ele>1140.74</ele>
        <time>2025-09-07T12:59:31Z</time>
      </trkpt>
      <trkpt lat="44.85241" lon="3.83405">
        <ele>1139.78</ele>
        <time>2025-09-07T12:59:52Z</time>
      </trkpt>
      <trkpt lat="44.85257" lon="3.83367">
        <ele>1140.74</ele>
        <time>2025-09-07T13:00:14Z</time>
      </trkpt>
      <trkpt lat="44.85271" lon="3.83335">
        <ele>1141.22</ele>
        <time>2025-09-07T13:00:34Z</time>
      </trkpt>
      <trkpt lat="44.85291" lon="3.83299">
        <ele>1143.63</ele>
        <time>2025-09-07T13:00:57Z</time>
      </trkpt>
      <trkpt lat="44.85308" lon="3.83263">
        <ele>1142.66</ele>
        <time>2025-09-07T13:01:19Z</time>
      </trkpt>
      <trkpt lat="44.85309" lon="3.83261">
        <ele>1142.18</ele>
        <time>2025-09-07T13:01:20Z</time>
      </trkpt>
      <trkpt lat="44.85313" lon="3.83259">
        <ele>1141.7</ele>
        <time>2025-09-07T13:01:25Z</time>
      </trkpt>
      <trkpt lat="44.85314" lon="3.8326">
        <ele>1141.7</ele>
        <time>2025-09-07T13:01:26Z</time>
      </trkpt>
      <trkpt lat="44.85316" lon="3.8326">
        <ele>1141.7</ele>
        <time>2025-09-07T13:01:27Z</time>
      </trkpt>
      <trkpt lat="44.85343" lon="3.8327">
        <ele>1141.22</ele>
        <time>2025-09-07T13:01:48Z</time>
      </trkpt>
      <trkpt lat="44.85368" lon="3.83289">
        <ele>1141.7</ele>
        <time>2025-09-07T13:02:09Z</time>
      </trkpt>
      <trkpt lat="44.85398" lon="3.8331">
        <ele>1141.7</ele>
        <time>2025-09-07T13:02:33Z</time>
      </trkpt>
      <trkpt lat="44.85426" lon="3.8332">
        <ele>1140.74</ele>
        <time>2025-09-07T13:02:54Z</time>
      </trkpt>
      <trkpt lat="44.85456" lon="3.83323">
        <ele>1139.3</ele>
        <time>2025-09-07T13:03:16Z</time>
      </trkpt>
      <trkpt lat="44.85488" lon="3.83328">
        <ele>1140.74</ele>
        <time>2025-09-07T13:03:37Z</time>
      </trkpt>
      <trkpt lat="44.85522" lon="3.83327">
        <ele>1142.18</ele>
        <time>2025-09-07T13:04:01Z</time>
      </trkpt>
      <trkpt lat="44.85547" lon="3.83332">
        <ele>1143.63</ele>
        <time>2025-09-07T13:04:23Z</time>
      </trkpt>
      <trkpt lat="44.85577" lon="3.8334">
        <ele>1144.11</ele>
        <time>2025-09-07T13:04:45Z</time>
      </trkpt>
      <trkpt lat="44.85599" lon="3.83357">
        <ele>1144.59</ele>
        <time>2025-09-07T13:05:04Z</time>
      </trkpt>
      <trkpt lat="44.85603" lon="3.83365">
        <ele>1144.59</ele>
        <time>2025-09-07T13:05:10Z</time>
      </trkpt>
      <trkpt lat="44.85623" lon="3.83394">
        <ele>1145.55</ele>
        <time>2025-09-07T13:05:30Z</time>
      </trkpt>
      <trkpt lat="44.85649" lon="3.8342">
        <ele>1145.55</ele>
        <time>2025-09-07T13:05:54Z</time>
      </trkpt>
      <trkpt lat="44.85682" lon="3.83444">
        <ele>1143.63</ele>
        <time>2025-09-07T13:06:20Z</time>
      </trkpt>
      <trkpt lat="44.85708" lon="3.83454">
        <ele>1143.14</ele>
        <time>2025-09-07T13:06:40Z</time>
      </trkpt>
      <trkpt lat="44.85738" lon="3.83462">
        <ele>1142.66</ele>
        <time>2025-09-07T13:07:01Z</time>
      </trkpt>
      <trkpt lat="44.85768" lon="3.83471">
        <ele>1143.63</ele>
        <time>2025-09-07T13:07:24Z</time>
      </trkpt>
      <trkpt lat="44.85799" lon="3.83483">
        <ele>1144.11</ele>
        <time>2025-09-07T13:07:47Z</time>
      </trkpt>
      <trkpt lat="44.85831" lon="3.83497">
        <ele>1146.51</ele>
        <time>2025-09-07T13:08:10Z</time>
      </trkpt>
      <trkpt lat="44.85858" lon="3.83505">
        <ele>1145.55</ele>
        <time>2025-09-07T13:08:31Z</time>
      </trkpt>
      <trkpt lat="44.85893" lon="3.83517">
        <ele>1146.51</ele>
        <time>2025-09-07T13:08:57Z</time>
      </trkpt>
      <trkpt lat="44.85923" lon="3.8352">
        <ele>1145.55</ele>
        <time>2025-09-07T13:09:18Z</time>
      </trkpt>
      <trkpt lat="44.85932" lon="3.83521">
        <ele>1145.55</ele>
        <time>2025-09-07T13:09:30Z</time>
      </trkpt>
      <trkpt lat="44.8594" lon="3.83519">
        <ele>1145.07</ele>
        <time>2025-09-07T13:09:37Z</time>
      </trkpt>
      <trkpt lat="44.85976" lon="3.83522">
        <ele>1146.03</ele>
        <time>2025-09-07T13:10:01Z</time>
      </trkpt>
      <trkpt lat="44.86008" lon="3.83525">
        <ele>1146.99</ele>
        <time>2025-09-07T13:10:23Z</time>
      </trkpt>
      <trkpt lat="44.86039" lon="3.8353">
        <ele>1146.51</ele>
        <time>2025-09-07T13:10:44Z</time>
      </trkpt>
      <trkpt lat="44.86065" lon="3.83534">
        <ele>1146.99</ele>
        <time>2025-09-07T13:11:03Z</time>
      </trkpt>
      <trkpt lat="44.86079" lon="3.83536">
        <ele>1146.99</ele>
        <time>2025-09-07T13:11:20Z</time>
      </trkpt>
      <trkpt lat="44.86108" lon="3.83548">
        <ele>1144.59</ele>
        <time>2025-09-07T13:11:44Z</time>
      </trkpt>
      <trkpt lat="44.86131" lon="3.83567">
        <ele>1144.11</ele>
        <time>2025-09-07T13:12:05Z</time>
      </trkpt>
      <trkpt lat="44.86155" lon="3.83592">
        <ele>1144.11</ele>
        <time>2025-09-07T13:12:29Z</time>
      </trkpt>
      <trkpt lat="44.86166" lon="3.83606">
        <ele>1146.51</ele>
        <time>2025-09-07T13:12:41Z</time>
      </trkpt>
      <trkpt lat="44.86174" lon="3.83617">
        <ele>1146.99</ele>
        <time>2025-09-07T13:12:50Z</time>
      </trkpt>
      <trkpt lat="44.86182" lon="3.83622">
        <ele>1146.99</ele>
        <time>2025-09-07T13:12:55Z</time>
      </trkpt>
      <trkpt lat="44.86186" lon="3.8362">
        <ele>1146.99</ele>
        <time>2025-09-07T13:12:59Z</time>
      </trkpt>
      <trkpt lat="44.86199" lon="3.83605">
        <ele>1146.99</ele>
        <time>2025-09-07T13:13:11Z</time>
      </trkpt>
      <trkpt lat="44.86215" lon="3.83587">
        <ele>1146.51</ele>
        <time>2025-09-07T13:13:22Z</time>
      </trkpt>
      <trkpt lat="44.86228" lon="3.83569">
        <ele>1146.03</ele>
        <time>2025-09-07T13:13:36Z</time>
      </trkpt>
      <trkpt lat="44.86244" lon="3.8355">
        <ele>1149.39</ele>
        <time>2025-09-07T13:13:52Z</time>
      </trkpt>
      <trkpt lat="44.86267" lon="3.83527">
        <ele>1151.32</ele>
        <time>2025-09-07T13:14:11Z</time>
      </trkpt>
      <trkpt lat="44.86292" lon="3.83507">
        <ele>1148.91</ele>
        <time>2025-09-07T13:14:33Z</time>
      </trkpt>
      <trkpt lat="44.86315" lon="3.83492">
        <ele>1146.03</ele>
        <time>2025-09-07T13:14:53Z</time>
      </trkpt>
      <trkpt lat="44.86342" lon="3.8348">
        <ele>1145.07</ele>
        <time>2025-09-07T13:15:13Z</time>
      </trkpt>
      <trkpt lat="44.8637" lon="3.8347">
        <ele>1145.07</ele>
        <time>2025-09-07T13:15:32Z</time>
      </trkpt>
      <trkpt lat="44.86399" lon="3.83461">
        <ele>1145.55</ele>
        <time>2025-09-07T13:15:52Z</time>
      </trkpt>
      <trkpt lat="44.86431" lon="3.83451">
        <ele>1145.55</ele>
        <time>2025-09-07T13:16:13Z</time>
      </trkpt>
      <trkpt lat="44.86458" lon="3.83438">
        <ele>1144.59</ele>
        <time>2025-09-07T13:16:34Z</time>
      </trkpt>
      <trkpt lat="44.86484" lon="3.83428">
        <ele>1143.63</ele>
        <time>2025-09-07T13:16:55Z</time>
      </trkpt>
      <trkpt lat="44.86512" lon="3.8342">
        <ele>1144.11</ele>
        <time>2025-09-07T13:17:15Z</time>
      </trkpt>
      <trkpt lat="44.86537" lon="3.83413">
        <ele>1146.99</ele>
        <time>2025-09-07T13:17:33Z</time>
      </trkpt>
      <trkpt lat="44.86559" lon="3.83404">
        <ele>1147.47</ele>
        <time>2025-09-07T13:17:51Z</time>
      </trkpt>
      <trkpt lat="44.86565" lon="3.83407">
        <ele>1146.99</ele>
        <time>2025-09-07T13:17:57Z</time>
      </trkpt>
      <trkpt lat="44.86566" lon="3.83408">
        <ele>1146.51</ele>
        <time>2025-09-07T13:17:58Z</time>
      </trkpt>
      <trkpt lat="44.86567" lon="3.8341">
        <ele>1146.51</ele>
        <time>2025-09-07T13:17:59Z</time>
      </trkpt>
      <trkpt lat="44.86586" lon="3.83424">
        <ele>1144.11</ele>
        <time>2025-09-07T13:18:17Z</time>
      </trkpt>
      <trkpt lat="44.86612" lon="3.83432">
        <ele>1141.7</ele>
        <time>2025-09-07T13:18:38Z</time>
      </trkpt>
      <trkpt lat="44.86616" lon="3.83434">
        <ele>1141.7</ele>
        <time>2025-09-07T13:18:41Z</time>
      </trkpt>
      <trkpt lat="44.8664" lon="3.83442">
        <ele>1145.07</ele>
        <time>2025-09-07T13:19:01Z</time>
      </trkpt>
      <trkpt lat="44.86659" lon="3.83458">
        <ele>1145.55</ele>
        <time>2025-09-07T13:19:20Z</time>
      </trkpt>
      <trkpt lat="44.86689" lon="3.83465">
        <ele>1147.47</ele>
        <time>2025-09-07T13:19:42Z</time>
      </trkpt>
      <trkpt lat="44.86716" lon="3.83474">
        <ele>1147.95</ele>
        <time>2025-09-07T13:20:06Z</time>
      </trkpt>
      <trkpt lat="44.86753" lon="3.83485">
        <ele>1146.51</ele>
        <time>2025-09-07T13:20:26Z</time>
      </trkpt>
      <trkpt lat="44.86788" lon="3.83487">
        <ele>1148.91</ele>
        <time>2025-09-07T13:20:48Z</time>
      </trkpt>
      <trkpt lat="44.86816" lon="3.83469">
        <ele>1149.87</ele>
        <time>2025-09-07T13:21:11Z</time>
      </trkpt>
      <trkpt lat="44.86849" lon="3.83456">
        <ele>1149.39</ele>
        <time>2025-09-07T13:21:35Z</time>
      </trkpt>
      <trkpt lat="44.86883" lon="3.83452">
        <ele>1150.35</ele>
        <time>2025-09-07T13:21:58Z</time>
      </trkpt>
      <trkpt lat="44.86918" lon="3.83447">
        <ele>1150.84</ele>
        <time>2025-09-07T13:22:20Z</time>
      </trkpt>
      <trkpt lat="44.86951" lon="3.83439">
        <ele>1147.95</ele>
        <time>2025-09-07T13:22:43Z</time>
      </trkpt>
      <trkpt lat="44.86975" lon="3.83422">
        <ele>1145.55</ele>
        <time>2025-09-07T13:23:02Z</time>
      </trkpt>
      <trkpt lat="44.87004" lon="3.83421">
        <ele>1141.22</ele>
        <time>2025-09-07T13:23:24Z</time>
      </trkpt>
      <trkpt lat="44.87036" lon="3.83429">
        <ele>1135.45</ele>
        <time>2025-09-07T13:23:48Z</time>
      </trkpt>
      <trkpt lat="44.87066" lon="3.83414">
        <ele>1133.53</ele>
        <time>2025-09-07T13:24:10Z</time>
      </trkpt>
      <trkpt lat="44.87089" lon="3.83394">
        <ele>1132.09</ele>
        <time>2025-09-07T13:24:29Z</time>
      </trkpt>
      <trkpt lat="44.87121" lon="3.83399">
        <ele>1130.65</ele>
        <time>2025-09-07T13:24:52Z</time>
      </trkpt>
      <trkpt lat="44.8715" lon="3.83414">
        <ele>1128.24</ele>
        <time>2025-09-07T13:25:12Z</time>
      </trkpt>
      <trkpt lat="44.8718" lon="3.83424">
        <ele>1124.88</ele>
        <time>2025-09-07T13:25:34Z</time>
      </trkpt>
      <trkpt lat="44.87214" lon="3.83435">
        <ele>1124.4</ele>
        <time>2025-09-07T13:25:58Z</time>
      </trkpt>
      <trkpt lat="44.87245" lon="3.83441">
        <ele>1123.92</ele>
        <time>2025-09-07T13:26:20Z</time>
      </trkpt>
      <trkpt lat="44.87273" lon="3.83448">
        <ele>1125.36</ele>
        <time>2025-09-07T13:26:40Z</time>
      </trkpt>
      <trkpt lat="44.87292" lon="3.83456">
        <ele>1126.8</ele>
        <time>2025-09-07T13:26:53Z</time>
      </trkpt>
      <trkpt lat="44.87305" lon="3.83456">
        <ele>1125.36</ele>
        <time>2025-09-07T13:27:04Z</time>
      </trkpt>
      <trkpt lat="44.87322" lon="3.83454">
        <ele>1123.92</ele>
        <time>2025-09-07T13:27:16Z</time>
      </trkpt>
      <trkpt lat="44.87339" lon="3.83446">
        <ele>1123.44</ele>
        <time>2025-09-07T13:27:28Z</time>
      </trkpt>
      <trkpt lat="44.87372" lon="3.83443">
        <ele>1122.96</ele>
        <time>2025-09-07T13:27:52Z</time>
      </trkpt>
      <trkpt lat="44.87405" lon="3.83444">
        <ele>1122.48</ele>
        <time>2025-09-07T13:28:16Z</time>
      </trkpt>
      <trkpt lat="44.87438" lon="3.83449">
        <ele>1121.52</ele>
        <time>2025-09-07T13:28:39Z</time>
      </trkpt>
      <trkpt lat="44.87465" lon="3.83443">
        <ele>1120.07</ele>
        <time>2025-09-07T13:29:00Z</time>
      </trkpt>
      <trkpt lat="44.87481" lon="3.83429">
        <ele>1118.63</ele>
        <time>2025-09-07T13:29:12Z</time>
      </trkpt>
      <trkpt lat="44.87492" lon="3.83415">
        <ele>1119.11</ele>
        <time>2025-09-07T13:29:23Z</time>
      </trkpt>
      <trkpt lat="44.87517" lon="3.83388">
        <ele>1120.07</ele>
        <time>2025-09-07T13:29:46Z</time>
      </trkpt>
      <trkpt lat="44.87544" lon="3.83373">
        <ele>1119.59</ele>
        <time>2025-09-07T13:30:06Z</time>
      </trkpt>
      <trkpt lat="44.87576" lon="3.83374">
        <ele>1120.07</ele>
        <time>2025-09-07T13:30:30Z</time>
      </trkpt>
      <trkpt lat="44.87609" lon="3.83371">
        <ele>1121.03</ele>
        <time>2025-09-07T13:30:54Z</time>
      </trkpt>
      <trkpt lat="44.87641" lon="3.83368">
        <ele>1122</ele>
        <time>2025-09-07T13:31:18Z</time>
      </trkpt>
      <trkpt lat="44.87664" lon="3.83365">
        <ele>1123.44</ele>
        <time>2025-09-07T13:31:38Z</time>
      </trkpt>
      <trkpt lat="44.87694" lon="3.83361">
        <ele>1125.36</ele>
        <time>2025-09-07T13:32:01Z</time>
      </trkpt>
      <trkpt lat="44.87721" lon="3.83355">
        <ele>1125.36</ele>
        <time>2025-09-07T13:32:21Z</time>
      </trkpt>
      <trkpt lat="44.87747" lon="3.83347">
        <ele>1124.88</ele>
        <time>2025-09-07T13:32:42Z</time>
      </trkpt>
      <trkpt lat="44.87779" lon="3.83336">
        <ele>1124.4</ele>
        <time>2025-09-07T13:33:04Z</time>
      </trkpt>
      <trkpt lat="44.87811" lon="3.83326">
        <ele>1123.44</ele>
        <time>2025-09-07T13:33:28Z</time>
      </trkpt>
      <trkpt lat="44.87834" lon="3.83316">
        <ele>1124.88</ele>
        <time>2025-09-07T13:33:47Z</time>
      </trkpt>
      <trkpt lat="44.87864" lon="3.83292">
        <ele>1126.32</ele>
        <time>2025-09-07T13:34:11Z</time>
      </trkpt>
      <trkpt lat="44.87895" lon="3.8327">
        <ele>1128.24</ele>
        <time>2025-09-07T13:34:36Z</time>
      </trkpt>
      <trkpt lat="44.8793" lon="3.83253">
        <ele>1131.13</ele>
        <time>2025-09-07T13:35:01Z</time>
      </trkpt>
      <trkpt lat="44.87961" lon="3.83239">
        <ele>1132.09</ele>
        <time>2025-09-07T13:35:23Z</time>
      </trkpt>
      <trkpt lat="44.87992" lon="3.8322">
        <ele>1131.13</ele>
        <time>2025-09-07T13:35:47Z</time>
      </trkpt>
      <trkpt lat="44.88022" lon="3.832">
        <ele>1132.57</ele>
        <time>2025-09-07T13:36:13Z</time>
      </trkpt>
      <trkpt lat="44.8805" lon="3.83197">
        <ele>1132.57</ele>
        <time>2025-09-07T13:36:34Z</time>
      </trkpt>
      <trkpt lat="44.88079" lon="3.83199">
        <ele>1134.49</ele>
        <time>2025-09-07T13:36:56Z</time>
      </trkpt>
      <trkpt lat="44.88115" lon="3.83189">
        <ele>1135.45</ele>
        <time>2025-09-07T13:37:19Z</time>
      </trkpt>
      <trkpt lat="44.88145" lon="3.83183">
        <ele>1136.42</ele>
        <time>2025-09-07T13:37:40Z</time>
      </trkpt>
      <trkpt lat="44.88151" lon="3.83185">
        <ele>1135.94</ele>
        <time>2025-09-07T13:37:46Z</time>
      </trkpt>
      <trkpt lat="44.88153" lon="3.83185">
        <ele>1135.94</ele>
        <time>2025-09-07T13:37:47Z</time>
      </trkpt>
      <trkpt lat="44.88155" lon="3.83184">
        <ele>1135.94</ele>
        <time>2025-09-07T13:37:48Z</time>
      </trkpt>
      <trkpt lat="44.88173" lon="3.83182">
        <ele>1136.42</ele>
        <time>2025-09-07T13:38:01Z</time>
      </trkpt>
      <trkpt lat="44.88187" lon="3.83181">
        <ele>1136.42</ele>
        <time>2025-09-07T13:38:09Z</time>
      </trkpt>
      <trkpt lat="44.88212" lon="3.83179">
        <ele>1137.38</ele>
        <time>2025-09-07T13:38:27Z</time>
      </trkpt>
      <trkpt lat="44.88241" lon="3.83176">
        <ele>1137.38</ele>
        <time>2025-09-07T13:38:49Z</time>
      </trkpt>
      <trkpt lat="44.88263" lon="3.83172">
        <ele>1137.86</ele>
        <time>2025-09-07T13:39:04Z</time>
      </trkpt>
      <trkpt lat="44.8829" lon="3.83169">
        <ele>1136.42</ele>
        <time>2025-09-07T13:39:22Z</time>
      </trkpt>
      <trkpt lat="44.88305" lon="3.83168">
        <ele>1134.97</ele>
        <time>2025-09-07T13:39:35Z</time>
      </trkpt>
      <trkpt lat="44.88324" lon="3.8317">
        <ele>1134.97</ele>
        <time>2025-09-07T13:39:46Z</time>
      </trkpt>
      <trkpt lat="44.88343" lon="3.83171">
        <ele>1134.01</ele>
        <time>2025-09-07T13:39:57Z</time>
      </trkpt>
      <trkpt lat="44.88357" lon="3.83173">
        <ele>1134.49</ele>
        <time>2025-09-07T13:40:09Z</time>
      </trkpt>
      <trkpt lat="44.88375" lon="3.83175">
        <ele>1133.53</ele>
        <time>2025-09-07T13:40:22Z</time>
      </trkpt>
      <trkpt lat="44.88391" lon="3.83177">
        <ele>1134.01</ele>
        <time>2025-09-07T13:40:33Z</time>
      </trkpt>
      <trkpt lat="44.8841" lon="3.83179">
        <ele>1134.49</ele>
        <time>2025-09-07T13:40:46Z</time>
      </trkpt>
      <trkpt lat="44.88429" lon="3.83181">
        <ele>1134.49</ele>
        <time>2025-09-07T13:40:57Z</time>
      </trkpt>
      <trkpt lat="44.88443" lon="3.83183">
        <ele>1134.01</ele>
        <time>2025-09-07T13:41:08Z</time>
      </trkpt>
      <trkpt lat="44.8846" lon="3.83185">
        <ele>1134.49</ele>
        <time>2025-09-07T13:41:21Z</time>
      </trkpt>
      <trkpt lat="44.8848" lon="3.83185">
        <ele>1134.97</ele>
        <time>2025-09-07T13:41:34Z</time>
      </trkpt>
      <trkpt lat="44.885" lon="3.83185">
        <ele>1134.49</ele>
        <time>2025-09-07T13:41:45Z</time>
      </trkpt>
      <trkpt lat="44.88513" lon="3.83184">
        <ele>1133.05</ele>
        <time>2025-09-07T13:41:56Z</time>
      </trkpt>
      <trkpt lat="44.88529" lon="3.83183">
        <ele>1132.57</ele>
        <time>2025-09-07T13:42:09Z</time>
      </trkpt>
      <trkpt lat="44.88542" lon="3.83179">
        <ele>1131.61</ele>
        <time>2025-09-07T13:42:19Z</time>
      </trkpt>
      <trkpt lat="44.88562" lon="3.83173">
        <ele>1132.09</ele>
        <time>2025-09-07T13:42:30Z</time>
      </trkpt>
      <trkpt lat="44.88571" lon="3.83169">
        <ele>1132.57</ele>
        <time>2025-09-07T13:42:40Z</time>
      </trkpt>
      <trkpt lat="44.88596" lon="3.83153">
        <ele>1132.09</ele>
        <time>2025-09-07T13:43:01Z</time>
      </trkpt>
      <trkpt lat="44.88614" lon="3.83132">
        <ele>1132.09</ele>
        <time>2025-09-07T13:43:19Z</time>
      </trkpt>
      <trkpt lat="44.88615" lon="3.83131">
        <ele>1132.09</ele>
        <time>2025-09-07T13:43:20Z</time>
      </trkpt>
      <trkpt lat="44.88616" lon="3.83131">
        <ele>1132.09</ele>
        <time>2025-09-07T13:43:21Z</time>
      </trkpt>
      <trkpt lat="44.88634" lon="3.83116">
        <ele>1131.13</ele>
        <time>2025-09-07T13:43:37Z</time>
      </trkpt>
      <trkpt lat="44.88657" lon="3.83102">
        <ele>1131.61</ele>
        <time>2025-09-07T13:43:55Z</time>
      </trkpt>
      <trkpt lat="44.88684" lon="3.8309">
        <ele>1133.53</ele>
        <time>2025-09-07T13:44:15Z</time>
      </trkpt>
      <trkpt lat="44.88703" lon="3.83069">
        <ele>1133.05</ele>
        <time>2025-09-07T13:44:33Z</time>
      </trkpt>
      <trkpt lat="44.88725" lon="3.83041">
        <ele>1132.09</ele>
        <time>2025-09-07T13:44:53Z</time>
      </trkpt>
      <trkpt lat="44.88742" lon="3.8301">
        <ele>1131.61</ele>
        <time>2025-09-07T13:45:12Z</time>
      </trkpt>
      <trkpt lat="44.88761" lon="3.82988">
        <ele>1129.69</ele>
        <time>2025-09-07T13:45:30Z</time>
      </trkpt>
      <trkpt lat="44.88781" lon="3.82975">
        <ele>1128.24</ele>
        <time>2025-09-07T13:45:47Z</time>
      </trkpt>
      <trkpt lat="44.88803" lon="3.82957">
        <ele>1127.28</ele>
        <time>2025-09-07T13:46:05Z</time>
      </trkpt>
      <trkpt lat="44.88818" lon="3.82944">
        <ele>1126.8</ele>
        <time>2025-09-07T13:46:18Z</time>
      </trkpt>
      <trkpt lat="44.8882" lon="3.82944">
        <ele>1126.8</ele>
        <time>2025-09-07T13:46:19Z</time>
      </trkpt>
      <trkpt lat="44.88821" lon="3.82944">
        <ele>1126.8</ele>
        <time>2025-09-07T13:46:20Z</time>
      </trkpt>
      <trkpt lat="44.88847" lon="3.82962">
        <ele>1127.28</ele>
        <time>2025-09-07T13:46:42Z</time>
      </trkpt>
      <trkpt lat="44.88863" lon="3.82989">
        <ele>1128.24</ele>
        <time>2025-09-07T13:47:05Z</time>
      </trkpt>
      <trkpt lat="44.88866" lon="3.83011">
        <ele>1128.24</ele>
        <time>2025-09-07T13:47:22Z</time>
      </trkpt>
      <trkpt lat="44.8887" lon="3.83053">
        <ele>1128.73</ele>
        <time>2025-09-07T13:47:47Z</time>
      </trkpt>
      <trkpt lat="44.88866" lon="3.83096">
        <ele>1128.24</ele>
        <time>2025-09-07T13:48:11Z</time>
      </trkpt>
      <trkpt lat="44.88866" lon="3.831">
        <ele>1128.73</ele>
        <time>2025-09-07T13:48:13Z</time>
      </trkpt>
      <trkpt lat="44.88877" lon="3.83121">
        <ele>1129.69</ele>
        <time>2025-09-07T13:48:28Z</time>
      </trkpt>
      <trkpt lat="44.889" lon="3.83156">
        <ele>1126.8</ele>
        <time>2025-09-07T13:48:53Z</time>
      </trkpt>
      <trkpt lat="44.88917" lon="3.83187">
        <ele>1127.76</ele>
        <time>2025-09-07T13:49:10Z</time>
      </trkpt>
      <trkpt lat="44.88931" lon="3.83209">
        <ele>1124.88</ele>
        <time>2025-09-07T13:49:27Z</time>
      </trkpt>
      <trkpt lat="44.88945" lon="3.83234">
        <ele>1122.48</ele>
        <time>2025-09-07T13:49:44Z</time>
      </trkpt>
      <trkpt lat="44.88962" lon="3.83257">
        <ele>1120.55</ele>
        <time>2025-09-07T13:50:01Z</time>
      </trkpt>
      <trkpt lat="44.88967" lon="3.83262">
        <ele>1119.59</ele>
        <time>2025-09-07T13:50:05Z</time>
      </trkpt>
      <trkpt lat="44.88968" lon="3.83263">
        <ele>1119.59</ele>
        <time>2025-09-07T13:50:06Z</time>
      </trkpt>
      <trkpt lat="44.88969" lon="3.83266">
        <ele>1119.59</ele>
        <time>2025-09-07T13:50:08Z</time>
      </trkpt>
      <trkpt lat="44.88973" lon="3.83266">
        <ele>1118.63</ele>
        <time>2025-09-07T13:50:25Z</time>
      </trkpt>
      <trkpt lat="44.88974" lon="3.83267">
        <ele>1118.63</ele>
        <time>2025-09-07T13:50:26Z</time>
      </trkpt>
      <trkpt lat="44.88976" lon="3.83268">
        <ele>1118.63</ele>
        <time>2025-09-07T13:50:27Z</time>
      </trkpt>
      <trkpt lat="44.88977" lon="3.83269">
        <ele>1118.63</ele>
        <time>2025-09-07T13:50:28Z</time>
      </trkpt>
      <trkpt lat="44.88997" lon="3.83291">
        <ele>1117.67</ele>
        <time>2025-09-07T13:50:47Z</time>
      </trkpt>
      <trkpt lat="44.8901" lon="3.83309">
        <ele>1114.79</ele>
        <time>2025-09-07T13:51:02Z</time>
      </trkpt>
      <trkpt lat="44.89023" lon="3.83331">
        <ele>1111.9</ele>
        <time>2025-09-07T13:51:19Z</time>
      </trkpt>
      <trkpt lat="44.89027" lon="3.83355">
        <ele>1109.5</ele>
        <time>2025-09-07T13:51:34Z</time>
      </trkpt>
      <trkpt lat="44.89022" lon="3.83369">
        <ele>1107.58</ele>
        <time>2025-09-07T13:51:46Z</time>
      </trkpt>
      <trkpt lat="44.89018" lon="3.83375">
        <ele>1106.61</ele>
        <time>2025-09-07T13:51:51Z</time>
      </trkpt>
      <trkpt lat="44.89" lon="3.8339">
        <ele>1101.33</ele>
        <time>2025-09-07T13:52:09Z</time>
      </trkpt>
      <trkpt lat="44.88998" lon="3.83391">
        <ele>1100.85</ele>
        <time>2025-09-07T13:52:10Z</time>
      </trkpt>
      <trkpt lat="44.88997" lon="3.83392">
        <ele>1100.37</ele>
        <time>2025-09-07T13:52:11Z</time>
      </trkpt>
      <trkpt lat="44.88995" lon="3.83393">
        <ele>1099.89</ele>
        <time>2025-09-07T13:52:12Z</time>
      </trkpt>
      <trkpt lat="44.88994" lon="3.83393">
        <ele>1099.4</ele>
        <time>2025-09-07T13:52:13Z</time>
      </trkpt>
      <trkpt lat="44.88993" lon="3.83394">
        <ele>1098.92</ele>
        <time>2025-09-07T13:52:14Z</time>
      </trkpt>
      <trkpt lat="44.88974" lon="3.83417">
        <ele>1093.16</ele>
        <time>2025-09-07T13:52:34Z</time>
      </trkpt>
      <trkpt lat="44.88962" lon="3.8344">
        <ele>1091.71</ele>
        <time>2025-09-07T13:52:52Z</time>
      </trkpt>
      <trkpt lat="44.88959" lon="3.83449">
        <ele>1092.68</ele>
        <time>2025-09-07T13:53:08Z</time>
      </trkpt>
      <trkpt lat="44.88964" lon="3.83457">
        <ele>1091.71</ele>
        <time>2025-09-07T13:53:25Z</time>
      </trkpt>
      <trkpt lat="44.88964" lon="3.83457">
        <ele>1091.71</ele>
        <time>2025-09-07T13:53:26Z</time>
      </trkpt>
      <trkpt lat="44.88971" lon="3.83466">
        <ele>1091.71</ele>
        <time>2025-09-07T13:53:36Z</time>
      </trkpt>
      <trkpt lat="44.88986" lon="3.83475">
        <ele>1091.71</ele>
        <time>2025-09-07T13:53:50Z</time>
      </trkpt>
      <trkpt lat="44.89001" lon="3.83484">
        <ele>1092.2</ele>
        <time>2025-09-07T13:54:04Z</time>
      </trkpt>
      <trkpt lat="44.89018" lon="3.835">
        <ele>1091.23</ele>
        <time>2025-09-07T13:54:21Z</time>
      </trkpt>
      <trkpt lat="44.89035" lon="3.83523">
        <ele>1091.71</ele>
        <time>2025-09-07T13:54:38Z</time>
      </trkpt>
      <trkpt lat="44.89047" lon="3.83544">
        <ele>1089.31</ele>
        <time>2025-09-07T13:54:53Z</time>
      </trkpt>
      <trkpt lat="44.89055" lon="3.83562">
        <ele>1087.87</ele>
        <time>2025-09-07T13:55:05Z</time>
      </trkpt>
      <trkpt lat="44.89059" lon="3.83573">
        <ele>1087.87</ele>
        <time>2025-09-07T13:55:15Z</time>
      </trkpt>
      <trkpt lat="44.89061" lon="3.83575">
        <ele>1088.35</ele>
        <time>2025-09-07T13:55:17Z</time>
      </trkpt>
      <trkpt lat="44.89062" lon="3.83577">
        <ele>1088.35</ele>
        <time>2025-09-07T13:55:18Z</time>
      </trkpt>
      <trkpt lat="44.89063" lon="3.83579">
        <ele>1088.35</ele>
        <time>2025-09-07T13:55:19Z</time>
      </trkpt>
      <trkpt lat="44.89064" lon="3.83582">
        <ele>1088.35</ele>
        <time>2025-09-07T13:55:20Z</time>
      </trkpt>
      <trkpt lat="44.89065" lon="3.83584">
        <ele>1088.35</ele>
        <time>2025-09-07T13:55:21Z</time>
      </trkpt>
      <trkpt lat="44.89075" lon="3.83603">
        <ele>1088.83</ele>
        <time>2025-09-07T13:55:32Z</time>
      </trkpt>
      <trkpt lat="44.89084" lon="3.8362">
        <ele>1088.83</ele>
        <time>2025-09-07T13:55:46Z</time>
      </trkpt>
      <trkpt lat="44.89081" lon="3.83624">
        <ele>1089.31</ele>
        <time>2025-09-07T13:56:00Z</time>
      </trkpt>
      <trkpt lat="44.8908" lon="3.83626">
        <ele>1089.31</ele>
        <time>2025-09-07T13:56:01Z</time>
      </trkpt>
      <trkpt lat="44.8908" lon="3.83627">
        <ele>1089.31</ele>
        <time>2025-09-07T13:56:02Z</time>
      </trkpt>
      <trkpt lat="44.89086" lon="3.83666">
        <ele>1090.27</ele>
        <time>2025-09-07T13:56:21Z</time>
      </trkpt>
      <trkpt lat="44.89094" lon="3.83709">
        <ele>1091.71</ele>
        <time>2025-09-07T13:56:43Z</time>
      </trkpt>
      <trkpt lat="44.891" lon="3.83724">
        <ele>1091.71</ele>
        <time>2025-09-07T13:57:00Z</time>
      </trkpt>
      <trkpt lat="44.89115" lon="3.83772">
        <ele>1089.31</ele>
        <time>2025-09-07T13:57:25Z</time>
      </trkpt>
      <trkpt lat="44.89126" lon="3.83811">
        <ele>1088.35</ele>
        <time>2025-09-07T13:57:46Z</time>
      </trkpt>
      <trkpt lat="44.89142" lon="3.83843">
        <ele>1089.79</ele>
        <time>2025-09-07T13:58:06Z</time>
      </trkpt>
      <trkpt lat="44.8915" lon="3.83882">
        <ele>1091.23</ele>
        <time>2025-09-07T13:58:29Z</time>
      </trkpt>
      <trkpt lat="44.89146" lon="3.83912">
        <ele>1094.12</ele>
        <time>2025-09-07T13:58:41Z</time>
      </trkpt>
      <trkpt lat="44.89139" lon="3.83935">
        <ele>1094.6</ele>
        <time>2025-09-07T13:58:54Z</time>
      </trkpt>
    </trkseg>
  </trk>
</gpx>